<?xml version='1.0' encoding='UTF-8'?>
<gpx version="1.1" creator="https://www.komoot.de" xmlns="http://www.topografix.com/GPX/1/1" xmlns:xsi="http://www.w3.org/2001/XMLSchema-instance" xsi:schemaLocation="http://www.topografix.com/GPX/1/1 http://www.topografix.com/GPX/1/1/gpx.xsd">
  <metadata>
    <name>50_650MuttenzSchauenburg</name>
    <author>
      <link href="https://www.komoot.de">
        <text>komoot</text>
        <type>text/html</type>
      </link>
    </author>
  </metadata>
  <trk>
    <name>50_650MuttenzSchauenburg</name>
    <trkseg>
      <trkpt lat="47.541322" lon="7.870864">
        <ele>339.205668</ele>
        <time>2021-11-10T20:54:52.225Z</time>
      </trkpt>
      <trkpt lat="47.541410" lon="7.870791">
        <ele>339.205668</ele>
        <time>2021-11-10T20:54:53.819Z</time>
      </trkpt>
      <trkpt lat="47.541525" lon="7.870703">
        <ele>339.205668</ele>
        <time>2021-11-10T20:54:55.568Z</time>
      </trkpt>
      <trkpt lat="47.541576" lon="7.870664">
        <ele>339.205668</ele>
        <time>2021-11-10T20:54:56.268Z</time>
      </trkpt>
      <trkpt lat="47.541550" lon="7.870601">
        <ele>339.205668</ele>
        <time>2021-11-10T20:54:57.080Z</time>
      </trkpt>
      <trkpt lat="47.541521" lon="7.870517">
        <ele>339.205668</ele>
        <time>2021-11-10T20:54:58.116Z</time>
      </trkpt>
      <trkpt lat="47.541606" lon="7.870424">
        <ele>339.205668</ele>
        <time>2021-11-10T20:54:59.781Z</time>
      </trkpt>
      <trkpt lat="47.541910" lon="7.870106">
        <ele>339.205668</ele>
        <time>2021-11-10T20:55:05.448Z</time>
      </trkpt>
      <trkpt lat="47.542014" lon="7.870126">
        <ele>339.125367</ele>
        <time>2021-11-10T20:55:06.917Z</time>
      </trkpt>
      <trkpt lat="47.542118" lon="7.870135">
        <ele>339.026486</ele>
        <time>2021-11-10T20:55:08.636Z</time>
      </trkpt>
      <trkpt lat="47.542181" lon="7.870131">
        <ele>338.966634</ele>
        <time>2021-11-10T20:55:09.501Z</time>
      </trkpt>
      <trkpt lat="47.542317" lon="7.870012">
        <ele>338.816710</ele>
        <time>2021-11-10T20:55:11.648Z</time>
      </trkpt>
      <trkpt lat="47.542348" lon="7.869983">
        <ele>338.781910</ele>
        <time>2021-11-10T20:55:12.076Z</time>
      </trkpt>
      <trkpt lat="47.542329" lon="7.869820">
        <ele>338.675926</ele>
        <time>2021-11-10T20:55:13.835Z</time>
      </trkpt>
      <trkpt lat="47.542372" lon="7.869746">
        <ele>338.613365</ele>
        <time>2021-11-10T20:55:14.644Z</time>
      </trkpt>
      <trkpt lat="47.542657" lon="7.869354">
        <ele>338.244230</ele>
        <time>2021-11-10T20:55:19.444Z</time>
      </trkpt>
      <trkpt lat="47.542696" lon="7.869257">
        <ele>338.171890</ele>
        <time>2021-11-10T20:55:20.379Z</time>
      </trkpt>
      <trkpt lat="47.542722" lon="7.869201">
        <ele>338.128342</ele>
        <time>2021-11-10T20:55:20.970Z</time>
      </trkpt>
      <trkpt lat="47.543049" lon="7.868759">
        <ele>337.708180</ele>
        <time>2021-11-10T20:55:25.883Z</time>
      </trkpt>
      <trkpt lat="47.543105" lon="7.868711">
        <ele>337.646771</ele>
        <time>2021-11-10T20:55:26.621Z</time>
      </trkpt>
      <trkpt lat="47.543201" lon="7.868657">
        <ele>337.549303</ele>
        <time>2021-11-10T20:55:27.700Z</time>
      </trkpt>
      <trkpt lat="47.543657" lon="7.868359">
        <ele>336.908654</ele>
        <time>2021-11-10T20:55:33.495Z</time>
      </trkpt>
      <trkpt lat="47.543801" lon="7.868269">
        <ele>336.701426</ele>
        <time>2021-11-10T20:55:35.974Z</time>
      </trkpt>
      <trkpt lat="47.544214" lon="7.867988">
        <ele>336.098833</ele>
        <time>2021-11-10T20:55:43.591Z</time>
      </trkpt>
      <trkpt lat="47.544246" lon="7.867967">
        <ele>336.052427</ele>
        <time>2021-11-10T20:55:44.188Z</time>
      </trkpt>
      <trkpt lat="47.544410" lon="7.867825">
        <ele>335.800561</ele>
        <time>2021-11-10T20:55:47.441Z</time>
      </trkpt>
      <trkpt lat="47.544469" lon="7.867776">
        <ele>335.710878</ele>
        <time>2021-11-10T20:55:48.463Z</time>
      </trkpt>
      <trkpt lat="47.544568" lon="7.867693">
        <ele>335.560051</ele>
        <time>2021-11-10T20:55:50.390Z</time>
      </trkpt>
      <trkpt lat="47.545003" lon="7.867278">
        <ele>335.266581</ele>
        <time>2021-11-10T20:55:59.238Z</time>
      </trkpt>
      <trkpt lat="47.545160" lon="7.866985">
        <ele>335.480338</ele>
        <time>2021-11-10T20:56:03.888Z</time>
      </trkpt>
      <trkpt lat="47.545240" lon="7.866887">
        <ele>335.568211</ele>
        <time>2021-11-10T20:56:06.162Z</time>
      </trkpt>
      <trkpt lat="47.546096" lon="7.866147">
        <ele>336.407161</ele>
        <time>2021-11-10T20:56:31.232Z</time>
      </trkpt>
      <trkpt lat="47.546327" lon="7.865959">
        <ele>336.630266</ele>
        <time>2021-11-10T20:56:38.969Z</time>
      </trkpt>
      <trkpt lat="47.546510" lon="7.865766">
        <ele>337.068214</ele>
        <time>2021-11-10T20:56:46.070Z</time>
      </trkpt>
      <trkpt lat="47.546819" lon="7.865489">
        <ele>337.785121</ele>
        <time>2021-11-10T20:56:56.302Z</time>
      </trkpt>
      <trkpt lat="47.546889" lon="7.865225">
        <ele>338.165152</ele>
        <time>2021-11-10T20:57:01.493Z</time>
      </trkpt>
      <trkpt lat="47.546894" lon="7.864837">
        <ele>338.685105</ele>
        <time>2021-11-10T20:57:08.913Z</time>
      </trkpt>
      <trkpt lat="47.546885" lon="7.864500">
        <ele>339.136985</ele>
        <time>2021-11-10T20:57:15.701Z</time>
      </trkpt>
      <trkpt lat="47.546877" lon="7.864345">
        <ele>339.345267</ele>
        <time>2021-11-10T20:57:18.595Z</time>
      </trkpt>
      <trkpt lat="47.546592" lon="7.863006">
        <ele>340.628335</ele>
        <time>2021-11-10T20:57:44.678Z</time>
      </trkpt>
      <trkpt lat="47.546526" lon="7.861665">
        <ele>341.373485</ele>
        <time>2021-11-10T20:58:05.708Z</time>
      </trkpt>
      <trkpt lat="47.546494" lon="7.859546">
        <ele>341.339017</ele>
        <time>2021-11-10T20:58:32.983Z</time>
      </trkpt>
      <trkpt lat="47.546487" lon="7.859119">
        <ele>341.244811</ele>
        <time>2021-11-10T20:58:38.316Z</time>
      </trkpt>
      <trkpt lat="47.546537" lon="7.857497">
        <ele>340.912008</ele>
        <time>2021-11-10T20:58:59.170Z</time>
      </trkpt>
      <trkpt lat="47.546582" lon="7.856413">
        <ele>340.701510</ele>
        <time>2021-11-10T20:59:13.400Z</time>
      </trkpt>
      <trkpt lat="47.546945" lon="7.851719">
        <ele>339.206975</ele>
        <time>2021-11-10T21:00:14.434Z</time>
      </trkpt>
      <trkpt lat="47.547141" lon="7.850355">
        <ele>338.248642</ele>
        <time>2021-11-10T21:00:29.999Z</time>
      </trkpt>
      <trkpt lat="47.547143" lon="7.849985">
        <ele>337.758416</ele>
        <time>2021-11-10T21:00:33.908Z</time>
      </trkpt>
      <trkpt lat="47.547124" lon="7.848795">
        <ele>336.181352</ele>
        <time>2021-11-10T21:00:46.506Z</time>
      </trkpt>
      <trkpt lat="47.547274" lon="7.845536">
        <ele>332.108681</ele>
        <time>2021-11-10T21:01:21.265Z</time>
      </trkpt>
      <trkpt lat="47.547295" lon="7.844722">
        <ele>331.327393</ele>
        <time>2021-11-10T21:01:30.747Z</time>
      </trkpt>
      <trkpt lat="47.547313" lon="7.843735">
        <ele>330.565549</ele>
        <time>2021-11-10T21:01:42.536Z</time>
      </trkpt>
      <trkpt lat="47.547354" lon="7.842839">
        <ele>329.872612</ele>
        <time>2021-11-10T21:01:52.807Z</time>
      </trkpt>
      <trkpt lat="47.547448" lon="7.842262">
        <ele>329.251319</ele>
        <time>2021-11-10T21:01:59.608Z</time>
      </trkpt>
      <trkpt lat="47.547549" lon="7.842268">
        <ele>329.049747</ele>
        <time>2021-11-10T21:02:01.302Z</time>
      </trkpt>
      <trkpt lat="47.547674" lon="7.842266">
        <ele>328.800463</ele>
        <time>2021-11-10T21:02:03.397Z</time>
      </trkpt>
      <trkpt lat="47.548105" lon="7.842284">
        <ele>327.940640</ele>
        <time>2021-11-10T21:02:10.152Z</time>
      </trkpt>
      <trkpt lat="47.549188" lon="7.842622">
        <ele>325.851983</ele>
        <time>2021-11-10T21:02:27.068Z</time>
      </trkpt>
      <trkpt lat="47.549582" lon="7.842702">
        <ele>325.358365</ele>
        <time>2021-11-10T21:02:33.256Z</time>
      </trkpt>
      <trkpt lat="47.549927" lon="7.842747">
        <ele>324.928482</ele>
        <time>2021-11-10T21:02:39.039Z</time>
      </trkpt>
      <trkpt lat="47.551243" lon="7.842849">
        <ele>323.661975</ele>
        <time>2021-11-10T21:03:03.177Z</time>
      </trkpt>
      <trkpt lat="47.551454" lon="7.842815">
        <ele>323.584902</ele>
        <time>2021-11-10T21:03:07.836Z</time>
      </trkpt>
      <trkpt lat="47.551668" lon="7.842770">
        <ele>323.506412</ele>
        <time>2021-11-10T21:03:12.394Z</time>
      </trkpt>
      <trkpt lat="47.551922" lon="7.842704">
        <ele>323.412768</ele>
        <time>2021-11-10T21:03:17.319Z</time>
      </trkpt>
      <trkpt lat="47.552380" lon="7.842592">
        <ele>323.244202</ele>
        <time>2021-11-10T21:03:26.216Z</time>
      </trkpt>
      <trkpt lat="47.552833" lon="7.842495">
        <ele>322.858909</ele>
        <time>2021-11-10T21:03:34.497Z</time>
      </trkpt>
      <trkpt lat="47.553133" lon="7.842431">
        <ele>322.460097</ele>
        <time>2021-11-10T21:03:39.783Z</time>
      </trkpt>
      <trkpt lat="47.553123" lon="7.842222">
        <ele>322.274029</ele>
        <time>2021-11-10T21:03:41.363Z</time>
      </trkpt>
      <trkpt lat="47.553173" lon="7.842019">
        <ele>322.082126</ele>
        <time>2021-11-10T21:03:43.159Z</time>
      </trkpt>
      <trkpt lat="47.553216" lon="7.841849">
        <ele>321.920905</ele>
        <time>2021-11-10T21:03:44.581Z</time>
      </trkpt>
      <trkpt lat="47.553231" lon="7.841529">
        <ele>321.636046</ele>
        <time>2021-11-10T21:03:47.075Z</time>
      </trkpt>
      <trkpt lat="47.552939" lon="7.839526">
        <ele>319.628545</ele>
        <time>2021-11-10T21:04:02.608Z</time>
      </trkpt>
      <trkpt lat="47.552802" lon="7.839009">
        <ele>319.040682</ele>
        <time>2021-11-10T21:04:06.930Z</time>
      </trkpt>
      <trkpt lat="47.552736" lon="7.838578">
        <ele>318.572913</ele>
        <time>2021-11-10T21:04:10.370Z</time>
      </trkpt>
      <trkpt lat="47.552697" lon="7.838068">
        <ele>318.029669</ele>
        <time>2021-11-10T21:04:14.385Z</time>
      </trkpt>
      <trkpt lat="47.552719" lon="7.836790">
        <ele>316.667606</ele>
        <time>2021-11-10T21:04:24.413Z</time>
      </trkpt>
      <trkpt lat="47.552714" lon="7.835010">
        <ele>314.533481</ele>
        <time>2021-11-10T21:04:38.163Z</time>
      </trkpt>
      <trkpt lat="47.552700" lon="7.833938">
        <ele>312.645239</ele>
        <time>2021-11-10T21:04:45.729Z</time>
      </trkpt>
      <trkpt lat="47.552696" lon="7.833789">
        <ele>312.382629</ele>
        <time>2021-11-10T21:04:46.727Z</time>
      </trkpt>
      <trkpt lat="47.552452" lon="7.833284">
        <ele>311.288867</ele>
        <time>2021-11-10T21:04:51.052Z</time>
      </trkpt>
      <trkpt lat="47.552467" lon="7.833198">
        <ele>311.132436</ele>
        <time>2021-11-10T21:04:51.664Z</time>
      </trkpt>
      <trkpt lat="47.552511" lon="7.833072">
        <ele>310.882595</ele>
        <time>2021-11-10T21:04:52.670Z</time>
      </trkpt>
      <trkpt lat="47.552556" lon="7.832977">
        <ele>310.678197</ele>
        <time>2021-11-10T21:04:53.486Z</time>
      </trkpt>
      <trkpt lat="47.552616" lon="7.832891">
        <ele>310.460367</ele>
        <time>2021-11-10T21:04:54.292Z</time>
      </trkpt>
      <trkpt lat="47.552690" lon="7.832598">
        <ele>309.843022</ele>
        <time>2021-11-10T21:04:56.493Z</time>
      </trkpt>
      <trkpt lat="47.552645" lon="7.830686">
        <ele>306.052654</ele>
        <time>2021-11-10T21:05:09.616Z</time>
      </trkpt>
      <trkpt lat="47.552554" lon="7.829266">
        <ele>303.952664</ele>
        <time>2021-11-10T21:05:19.902Z</time>
      </trkpt>
      <trkpt lat="47.552416" lon="7.828822">
        <ele>303.347732</ele>
        <time>2021-11-10T21:05:23.566Z</time>
      </trkpt>
      <trkpt lat="47.552404" lon="7.828582">
        <ele>303.049909</ele>
        <time>2021-11-10T21:05:25.481Z</time>
      </trkpt>
      <trkpt lat="47.552421" lon="7.828481">
        <ele>302.921089</ele>
        <time>2021-11-10T21:05:26.236Z</time>
      </trkpt>
      <trkpt lat="47.552477" lon="7.828294">
        <ele>302.667911</ele>
        <time>2021-11-10T21:05:27.812Z</time>
      </trkpt>
      <trkpt lat="47.552515" lon="7.828094">
        <ele>302.410783</ele>
        <time>2021-11-10T21:05:29.530Z</time>
      </trkpt>
      <trkpt lat="47.552491" lon="7.827227">
        <ele>301.642067</ele>
        <time>2021-11-10T21:05:36.438Z</time>
      </trkpt>
      <trkpt lat="47.552567" lon="7.824508">
        <ele>300.241013</ele>
        <time>2021-11-10T21:06:00.286Z</time>
      </trkpt>
      <trkpt lat="47.552896" lon="7.820699">
        <ele>298.340494</ele>
        <time>2021-11-10T21:06:33.024Z</time>
      </trkpt>
      <trkpt lat="47.552948" lon="7.819358">
        <ele>297.767386</ele>
        <time>2021-11-10T21:06:44.564Z</time>
      </trkpt>
      <trkpt lat="47.552844" lon="7.816432">
        <ele>297.426389</ele>
        <time>2021-11-10T21:07:12.198Z</time>
      </trkpt>
      <trkpt lat="47.552711" lon="7.812955">
        <ele>298.597315</ele>
        <time>2021-11-10T21:07:52.852Z</time>
      </trkpt>
      <trkpt lat="47.552566" lon="7.810386">
        <ele>299.740256</ele>
        <time>2021-11-10T21:08:22.884Z</time>
      </trkpt>
      <trkpt lat="47.552398" lon="7.808880">
        <ele>300.400377</ele>
        <time>2021-11-10T21:08:41.365Z</time>
      </trkpt>
      <trkpt lat="47.552068" lon="7.806445">
        <ele>301.042680</ele>
        <time>2021-11-10T21:09:09.705Z</time>
      </trkpt>
      <trkpt lat="47.552015" lon="7.806307">
        <ele>300.969917</ele>
        <time>2021-11-10T21:09:11.428Z</time>
      </trkpt>
      <trkpt lat="47.551895" lon="7.806278">
        <ele>300.887361</ele>
        <time>2021-11-10T21:09:12.737Z</time>
      </trkpt>
      <trkpt lat="47.551651" lon="7.806246">
        <ele>300.721038</ele>
        <time>2021-11-10T21:09:16.499Z</time>
      </trkpt>
      <trkpt lat="47.551671" lon="7.806117">
        <ele>300.660381</ele>
        <time>2021-11-10T21:09:17.813Z</time>
      </trkpt>
      <trkpt lat="47.551681" lon="7.805477">
        <ele>300.367008</ele>
        <time>2021-11-10T21:09:25.512Z</time>
      </trkpt>
      <trkpt lat="47.551709" lon="7.805000">
        <ele>300.147587</ele>
        <time>2021-11-10T21:09:31.151Z</time>
      </trkpt>
      <trkpt lat="47.551731" lon="7.804667">
        <ele>299.994253</ele>
        <time>2021-11-10T21:09:35.736Z</time>
      </trkpt>
      <trkpt lat="47.551744" lon="7.804473">
        <ele>299.904912</ele>
        <time>2021-11-10T21:09:37.731Z</time>
      </trkpt>
      <trkpt lat="47.551741" lon="7.804294">
        <ele>299.822575</ele>
        <time>2021-11-10T21:09:40.067Z</time>
      </trkpt>
      <trkpt lat="47.551692" lon="7.803510">
        <ele>299.429877</ele>
        <time>2021-11-10T21:09:49.197Z</time>
      </trkpt>
      <trkpt lat="47.551751" lon="7.803369">
        <ele>299.347134</ele>
        <time>2021-11-10T21:09:51.132Z</time>
      </trkpt>
      <trkpt lat="47.551744" lon="7.803277">
        <ele>299.300958</ele>
        <time>2021-11-10T21:09:51.927Z</time>
      </trkpt>
      <trkpt lat="47.551732" lon="7.803125">
        <ele>299.224630</ele>
        <time>2021-11-10T21:09:53.324Z</time>
      </trkpt>
      <trkpt lat="47.551700" lon="7.802648">
        <ele>298.985551</ele>
        <time>2021-11-10T21:09:57.670Z</time>
      </trkpt>
      <trkpt lat="47.551688" lon="7.802394">
        <ele>298.858557</ele>
        <time>2021-11-10T21:10:00.064Z</time>
      </trkpt>
      <trkpt lat="47.551679" lon="7.802228">
        <ele>298.775497</ele>
        <time>2021-11-10T21:10:01.564Z</time>
      </trkpt>
      <trkpt lat="47.551671" lon="7.802077">
        <ele>298.699953</ele>
        <time>2021-11-10T21:10:03.128Z</time>
      </trkpt>
      <trkpt lat="47.551669" lon="7.801853">
        <ele>298.588222</ele>
        <time>2021-11-10T21:10:05.103Z</time>
      </trkpt>
      <trkpt lat="47.551666" lon="7.801632">
        <ele>298.440038</ele>
        <time>2021-11-10T21:10:07.085Z</time>
      </trkpt>
      <trkpt lat="47.551669" lon="7.801438">
        <ele>298.148955</ele>
        <time>2021-11-10T21:10:08.585Z</time>
      </trkpt>
      <trkpt lat="47.551672" lon="7.801147">
        <ele>297.712394</ele>
        <time>2021-11-10T21:10:11.051Z</time>
      </trkpt>
      <trkpt lat="47.551704" lon="7.800451">
        <ele>296.665950</ele>
        <time>2021-11-10T21:10:16.476Z</time>
      </trkpt>
      <trkpt lat="47.551712" lon="7.800249">
        <ele>296.362422</ele>
        <time>2021-11-10T21:10:17.915Z</time>
      </trkpt>
      <trkpt lat="47.551735" lon="7.799988">
        <ele>295.967590</ele>
        <time>2021-11-10T21:10:19.745Z</time>
      </trkpt>
      <trkpt lat="47.551754" lon="7.799766">
        <ele>295.631916</ele>
        <time>2021-11-10T21:10:21.285Z</time>
      </trkpt>
      <trkpt lat="47.551793" lon="7.799434">
        <ele>295.126418</ele>
        <time>2021-11-10T21:10:23.630Z</time>
      </trkpt>
      <trkpt lat="47.551805" lon="7.799326">
        <ele>294.962234</ele>
        <time>2021-11-10T21:10:24.347Z</time>
      </trkpt>
      <trkpt lat="47.551948" lon="7.798607">
        <ele>293.311011</ele>
        <time>2021-11-10T21:10:29.419Z</time>
      </trkpt>
      <trkpt lat="47.552084" lon="7.798083">
        <ele>291.798163</ele>
        <time>2021-11-10T21:10:33.096Z</time>
      </trkpt>
      <trkpt lat="47.552069" lon="7.797917">
        <ele>291.346846</ele>
        <time>2021-11-10T21:10:34.641Z</time>
      </trkpt>
      <trkpt lat="47.552254" lon="7.797372">
        <ele>289.702931</ele>
        <time>2021-11-10T21:10:40.252Z</time>
      </trkpt>
      <trkpt lat="47.552528" lon="7.796772">
        <ele>287.750766</ele>
        <time>2021-11-10T21:10:46.999Z</time>
      </trkpt>
      <trkpt lat="47.552716" lon="7.796299">
        <ele>286.747027</ele>
        <time>2021-11-10T21:10:52.333Z</time>
      </trkpt>
      <trkpt lat="47.552781" lon="7.796025">
        <ele>286.320008</ele>
        <time>2021-11-10T21:10:55.371Z</time>
      </trkpt>
      <trkpt lat="47.552802" lon="7.795917">
        <ele>286.154758</ele>
        <time>2021-11-10T21:10:56.489Z</time>
      </trkpt>
      <trkpt lat="47.552823" lon="7.795805">
        <ele>285.983850</ele>
        <time>2021-11-10T21:10:57.672Z</time>
      </trkpt>
      <trkpt lat="47.552835" lon="7.795607">
        <ele>285.691562</ele>
        <time>2021-11-10T21:11:00.096Z</time>
      </trkpt>
      <trkpt lat="47.552839" lon="7.795386">
        <ele>285.366513</ele>
        <time>2021-11-10T21:11:02.376Z</time>
      </trkpt>
      <trkpt lat="47.552909" lon="7.795229">
        <ele>285.089856</ele>
        <time>2021-11-10T21:11:04.454Z</time>
      </trkpt>
      <trkpt lat="47.552892" lon="7.795106">
        <ele>284.905258</ele>
        <time>2021-11-10T21:11:05.449Z</time>
      </trkpt>
      <trkpt lat="47.552861" lon="7.794992">
        <ele>284.724552</ele>
        <time>2021-11-10T21:11:06.322Z</time>
      </trkpt>
      <trkpt lat="47.552861" lon="7.794992">
        <ele>284.724552</ele>
        <time>2021-11-10T21:11:06.323Z</time>
      </trkpt>
      <trkpt lat="47.552837" lon="7.794925">
        <ele>284.613028</ele>
        <time>2021-11-10T21:11:06.838Z</time>
      </trkpt>
      <trkpt lat="47.552826" lon="7.794894">
        <ele>284.561534</ele>
        <time>2021-11-10T21:11:07.085Z</time>
      </trkpt>
      <trkpt lat="47.552786" lon="7.794796">
        <ele>284.393146</ele>
        <time>2021-11-10T21:11:07.926Z</time>
      </trkpt>
      <trkpt lat="47.552763" lon="7.794750">
        <ele>284.308975</ele>
        <time>2021-11-10T21:11:08.627Z</time>
      </trkpt>
      <trkpt lat="47.552644" lon="7.794507">
        <ele>283.867552</ele>
        <time>2021-11-10T21:11:10.902Z</time>
      </trkpt>
      <trkpt lat="47.552532" lon="7.794285">
        <ele>283.460033</ele>
        <time>2021-11-10T21:11:13.103Z</time>
      </trkpt>
      <trkpt lat="47.552494" lon="7.794200">
        <ele>283.372120</ele>
        <time>2021-11-10T21:11:13.977Z</time>
      </trkpt>
      <trkpt lat="47.552384" lon="7.793915">
        <ele>283.223712</ele>
        <time>2021-11-10T21:11:16.423Z</time>
      </trkpt>
      <trkpt lat="47.552369" lon="7.793872">
        <ele>283.201831</ele>
        <time>2021-11-10T21:11:17.065Z</time>
      </trkpt>
      <trkpt lat="47.552292" lon="7.793607">
        <ele>283.071412</ele>
        <time>2021-11-10T21:11:19.533Z</time>
      </trkpt>
      <trkpt lat="47.552233" lon="7.793294">
        <ele>282.924509</ele>
        <time>2021-11-10T21:11:22.597Z</time>
      </trkpt>
      <trkpt lat="47.552216" lon="7.793160">
        <ele>282.862875</ele>
        <time>2021-11-10T21:11:23.756Z</time>
      </trkpt>
      <trkpt lat="47.552198" lon="7.792976">
        <ele>282.778831</ele>
        <time>2021-11-10T21:11:25.489Z</time>
      </trkpt>
      <trkpt lat="47.552184" lon="7.792540">
        <ele>282.581519</ele>
        <time>2021-11-10T21:11:29.897Z</time>
      </trkpt>
      <trkpt lat="47.552180" lon="7.792294">
        <ele>282.470286</ele>
        <time>2021-11-10T21:11:32.417Z</time>
      </trkpt>
      <trkpt lat="47.552182" lon="7.792040">
        <ele>282.355460</ele>
        <time>2021-11-10T21:11:34.582Z</time>
      </trkpt>
      <trkpt lat="47.552201" lon="7.791031">
        <ele>281.859471</ele>
        <time>2021-11-10T21:11:43.080Z</time>
      </trkpt>
      <trkpt lat="47.552135" lon="7.790302">
        <ele>281.482352</ele>
        <time>2021-11-10T21:11:49.509Z</time>
      </trkpt>
      <trkpt lat="47.552036" lon="7.789826">
        <ele>281.226974</ele>
        <time>2021-11-10T21:11:53.838Z</time>
      </trkpt>
      <trkpt lat="47.551858" lon="7.788906">
        <ele>280.690390</ele>
        <time>2021-11-10T21:12:01.889Z</time>
      </trkpt>
      <trkpt lat="47.551712" lon="7.788013">
        <ele>279.985140</ele>
        <time>2021-11-10T21:12:09.424Z</time>
      </trkpt>
      <trkpt lat="47.551694" lon="7.787879">
        <ele>279.880270</ele>
        <time>2021-11-10T21:12:10.541Z</time>
      </trkpt>
      <trkpt lat="47.551690" lon="7.787827">
        <ele>279.840099</ele>
        <time>2021-11-10T21:12:10.968Z</time>
      </trkpt>
      <trkpt lat="47.551672" lon="7.787603">
        <ele>279.666952</ele>
        <time>2021-11-10T21:12:12.724Z</time>
      </trkpt>
      <trkpt lat="47.551570" lon="7.786121">
        <ele>278.582446</ele>
        <time>2021-11-10T21:12:24.637Z</time>
      </trkpt>
      <trkpt lat="47.551498" lon="7.785081">
        <ele>277.962134</ele>
        <time>2021-11-10T21:12:33.156Z</time>
      </trkpt>
      <trkpt lat="47.551479" lon="7.784929">
        <ele>277.870413</ele>
        <time>2021-11-10T21:12:34.410Z</time>
      </trkpt>
      <trkpt lat="47.551510" lon="7.784910">
        <ele>277.840920</ele>
        <time>2021-11-10T21:12:34.880Z</time>
      </trkpt>
      <trkpt lat="47.551531" lon="7.784884">
        <ele>277.816862</ele>
        <time>2021-11-10T21:12:35.232Z</time>
      </trkpt>
      <trkpt lat="47.551548" lon="7.784841">
        <ele>277.787293</ele>
        <time>2021-11-10T21:12:35.694Z</time>
      </trkpt>
      <trkpt lat="47.551554" lon="7.784788">
        <ele>277.755407</ele>
        <time>2021-11-10T21:12:36.164Z</time>
      </trkpt>
      <trkpt lat="47.551547" lon="7.784737">
        <ele>277.724527</ele>
        <time>2021-11-10T21:12:36.611Z</time>
      </trkpt>
      <trkpt lat="47.551525" lon="7.784691">
        <ele>277.691076</ele>
        <time>2021-11-10T21:12:37.116Z</time>
      </trkpt>
      <trkpt lat="47.551500" lon="7.784666">
        <ele>277.664560</ele>
        <time>2021-11-10T21:12:37.494Z</time>
      </trkpt>
      <trkpt lat="47.551472" lon="7.784654">
        <ele>277.638936</ele>
        <time>2021-11-10T21:12:37.859Z</time>
      </trkpt>
      <trkpt lat="47.551437" lon="7.784657">
        <ele>277.608115</ele>
        <time>2021-11-10T21:12:38.286Z</time>
      </trkpt>
      <trkpt lat="47.551439" lon="7.784323">
        <ele>277.409932</ele>
        <time>2021-11-10T21:12:41.200Z</time>
      </trkpt>
      <trkpt lat="47.551384" lon="7.783659">
        <ele>277.148921</ele>
        <time>2021-11-10T21:12:47.104Z</time>
      </trkpt>
      <trkpt lat="47.551302" lon="7.782671">
        <ele>276.983346</ele>
        <time>2021-11-10T21:12:56.733Z</time>
      </trkpt>
      <trkpt lat="47.551230" lon="7.781831">
        <ele>276.842503</ele>
        <time>2021-11-10T21:13:04.915Z</time>
      </trkpt>
      <trkpt lat="47.551198" lon="7.781475">
        <ele>276.782765</ele>
        <time>2021-11-10T21:13:08.422Z</time>
      </trkpt>
      <trkpt lat="47.551270" lon="7.781390">
        <ele>276.760077</ele>
        <time>2021-11-10T21:13:10.198Z</time>
      </trkpt>
      <trkpt lat="47.551208" lon="7.780694">
        <ele>276.590231</ele>
        <time>2021-11-10T21:13:16.937Z</time>
      </trkpt>
      <trkpt lat="47.551085" lon="7.779125">
        <ele>276.206555</ele>
        <time>2021-11-10T21:13:31.416Z</time>
      </trkpt>
      <trkpt lat="47.550982" lon="7.777915">
        <ele>275.985481</ele>
        <time>2021-11-10T21:13:41.978Z</time>
      </trkpt>
      <trkpt lat="47.550963" lon="7.777797">
        <ele>275.967035</ele>
        <time>2021-11-10T21:13:42.992Z</time>
      </trkpt>
      <trkpt lat="47.550782" lon="7.776690">
        <ele>275.793844</ele>
        <time>2021-11-10T21:13:53.765Z</time>
      </trkpt>
      <trkpt lat="47.550607" lon="7.775871">
        <ele>275.799378</ele>
        <time>2021-11-10T21:14:03.098Z</time>
      </trkpt>
      <trkpt lat="47.550598" lon="7.775828">
        <ele>275.814282</ele>
        <time>2021-11-10T21:14:03.584Z</time>
      </trkpt>
      <trkpt lat="47.550505" lon="7.775364">
        <ele>275.974516</ele>
        <time>2021-11-10T21:14:09.098Z</time>
      </trkpt>
      <trkpt lat="47.550320" lon="7.774602">
        <ele>276.242596</ele>
        <time>2021-11-10T21:14:18.587Z</time>
      </trkpt>
      <trkpt lat="47.550090" lon="7.773646">
        <ele>276.578580</ele>
        <time>2021-11-10T21:14:30.461Z</time>
      </trkpt>
      <trkpt lat="47.550061" lon="7.773283">
        <ele>276.672934</ele>
        <time>2021-11-10T21:14:34.599Z</time>
      </trkpt>
      <trkpt lat="47.550203" lon="7.772543">
        <ele>276.866632</ele>
        <time>2021-11-10T21:14:42.808Z</time>
      </trkpt>
      <trkpt lat="47.550199" lon="7.772076">
        <ele>276.984221</ele>
        <time>2021-11-10T21:14:47.797Z</time>
      </trkpt>
      <trkpt lat="47.550069" lon="7.771373">
        <ele>277.167742</ele>
        <time>2021-11-10T21:14:55.611Z</time>
      </trkpt>
      <trkpt lat="47.549845" lon="7.770734">
        <ele>277.476830</ele>
        <time>2021-11-10T21:15:03.767Z</time>
      </trkpt>
      <trkpt lat="47.549714" lon="7.770276">
        <ele>277.780290</ele>
        <time>2021-11-10T21:15:09.539Z</time>
      </trkpt>
      <trkpt lat="47.549678" lon="7.770148">
        <ele>277.864886</ele>
        <time>2021-11-10T21:15:11.330Z</time>
      </trkpt>
      <trkpt lat="47.549363" lon="7.768846">
        <ele>278.708674</ele>
        <time>2021-11-10T21:15:28.512Z</time>
      </trkpt>
      <trkpt lat="47.549184" lon="7.768021">
        <ele>279.217036</ele>
        <time>2021-11-10T21:15:40.954Z</time>
      </trkpt>
      <trkpt lat="47.548990" lon="7.767248">
        <ele>279.691170</ele>
        <time>2021-11-10T21:15:52.628Z</time>
      </trkpt>
      <trkpt lat="47.548565" lon="7.765680">
        <ele>280.114989</ele>
        <time>2021-11-10T21:16:11.438Z</time>
      </trkpt>
      <trkpt lat="47.547909" lon="7.763208">
        <ele>278.090751</ele>
        <time>2021-11-10T21:16:32.311Z</time>
      </trkpt>
      <trkpt lat="47.547848" lon="7.762928">
        <ele>277.779694</ele>
        <time>2021-11-10T21:16:34.459Z</time>
      </trkpt>
      <trkpt lat="47.547778" lon="7.762713">
        <ele>277.527330</ele>
        <time>2021-11-10T21:16:36.269Z</time>
      </trkpt>
      <trkpt lat="47.547662" lon="7.762478">
        <ele>277.219536</ele>
        <time>2021-11-10T21:16:38.431Z</time>
      </trkpt>
      <trkpt lat="47.547577" lon="7.762307">
        <ele>276.995018</ele>
        <time>2021-11-10T21:16:40.041Z</time>
      </trkpt>
      <trkpt lat="47.547194" lon="7.761352">
        <ele>275.820596</ele>
        <time>2021-11-10T21:16:48.549Z</time>
      </trkpt>
      <trkpt lat="47.546989" lon="7.760612">
        <ele>275.759757</ele>
        <time>2021-11-10T21:16:55.028Z</time>
      </trkpt>
      <trkpt lat="47.546948" lon="7.760482">
        <ele>275.768687</ele>
        <time>2021-11-10T21:16:56.269Z</time>
      </trkpt>
      <trkpt lat="47.546870" lon="7.760301">
        <ele>275.782052</ele>
        <time>2021-11-10T21:16:58.166Z</time>
      </trkpt>
      <trkpt lat="47.546804" lon="7.760164">
        <ele>275.792528</ele>
        <time>2021-11-10T21:16:59.619Z</time>
      </trkpt>
      <trkpt lat="47.546552" lon="7.759727">
        <ele>275.828300</ele>
        <time>2021-11-10T21:17:05.603Z</time>
      </trkpt>
      <trkpt lat="47.546312" lon="7.759326">
        <ele>275.861655</ele>
        <time>2021-11-10T21:17:12.071Z</time>
      </trkpt>
      <trkpt lat="47.546264" lon="7.759224">
        <ele>275.869394</ele>
        <time>2021-11-10T21:17:13.667Z</time>
      </trkpt>
      <trkpt lat="47.545911" lon="7.758393">
        <ele>277.477147</ele>
        <time>2021-11-10T21:17:30.093Z</time>
      </trkpt>
      <trkpt lat="47.545677" lon="7.757815">
        <ele>278.855833</ele>
        <time>2021-11-10T21:17:42.501Z</time>
      </trkpt>
      <trkpt lat="47.545655" lon="7.757762">
        <ele>278.983107</ele>
        <time>2021-11-10T21:17:43.707Z</time>
      </trkpt>
      <trkpt lat="47.545429" lon="7.757231">
        <ele>280.267198</ele>
        <time>2021-11-10T21:17:55.924Z</time>
      </trkpt>
      <trkpt lat="47.545360" lon="7.757065">
        <ele>280.665982</ele>
        <time>2021-11-10T21:18:00.522Z</time>
      </trkpt>
      <trkpt lat="47.545326" lon="7.756949">
        <ele>280.924674</ele>
        <time>2021-11-10T21:18:03.234Z</time>
      </trkpt>
      <trkpt lat="47.545304" lon="7.756852">
        <ele>281.133996</ele>
        <time>2021-11-10T21:18:05.552Z</time>
      </trkpt>
      <trkpt lat="47.545260" lon="7.756637">
        <ele>281.574845</ele>
        <time>2021-11-10T21:18:10.557Z</time>
      </trkpt>
      <trkpt lat="47.545021" lon="7.756243">
        <ele>282.580679</ele>
        <time>2021-11-10T21:18:21.647Z</time>
      </trkpt>
      <trkpt lat="47.544022" lon="7.753705">
        <ele>287.367111</ele>
        <time>2021-11-10T21:19:09.988Z</time>
      </trkpt>
      <trkpt lat="47.543798" lon="7.753068">
        <ele>288.119475</ele>
        <time>2021-11-10T21:19:19.728Z</time>
      </trkpt>
      <trkpt lat="47.543319" lon="7.751355">
        <ele>289.482805</ele>
        <time>2021-11-10T21:19:42.869Z</time>
      </trkpt>
      <trkpt lat="47.543222" lon="7.751091">
        <ele>289.590137</ele>
        <time>2021-11-10T21:19:46.141Z</time>
      </trkpt>
      <trkpt lat="47.543115" lon="7.750826">
        <ele>289.700403</ele>
        <time>2021-11-10T21:19:50.892Z</time>
      </trkpt>
      <trkpt lat="47.543033" lon="7.750614">
        <ele>289.787654</ele>
        <time>2021-11-10T21:19:53.475Z</time>
      </trkpt>
      <trkpt lat="47.542809" lon="7.750154">
        <ele>289.990197</ele>
        <time>2021-11-10T21:19:59.746Z</time>
      </trkpt>
      <trkpt lat="47.542614" lon="7.749755">
        <ele>290.136405</ele>
        <time>2021-11-10T21:20:05.015Z</time>
      </trkpt>
      <trkpt lat="47.542390" lon="7.749307">
        <ele>290.146192</ele>
        <time>2021-11-10T21:20:10.827Z</time>
      </trkpt>
      <trkpt lat="47.542347" lon="7.749227">
        <ele>290.147987</ele>
        <time>2021-11-10T21:20:12.368Z</time>
      </trkpt>
      <trkpt lat="47.542132" lon="7.748742">
        <ele>290.158172</ele>
        <time>2021-11-10T21:20:19.933Z</time>
      </trkpt>
      <trkpt lat="47.541758" lon="7.747784">
        <ele>290.177599</ele>
        <time>2021-11-10T21:20:34.658Z</time>
      </trkpt>
      <trkpt lat="47.541583" lon="7.747186">
        <ele>290.188551</ele>
        <time>2021-11-10T21:20:43.837Z</time>
      </trkpt>
      <trkpt lat="47.541511" lon="7.746885">
        <ele>290.193787</ele>
        <time>2021-11-10T21:20:48.307Z</time>
      </trkpt>
      <trkpt lat="47.541432" lon="7.746552">
        <ele>290.199573</ele>
        <time>2021-11-10T21:20:53.419Z</time>
      </trkpt>
      <trkpt lat="47.541167" lon="7.745463">
        <ele>290.218552</ele>
        <time>2021-11-10T21:21:09.142Z</time>
      </trkpt>
      <trkpt lat="47.541160" lon="7.745250">
        <ele>290.222048</ele>
        <time>2021-11-10T21:21:12.012Z</time>
      </trkpt>
      <trkpt lat="47.541148" lon="7.745144">
        <ele>290.223810</ele>
        <time>2021-11-10T21:21:13.560Z</time>
      </trkpt>
      <trkpt lat="47.541130" lon="7.745083">
        <ele>290.224901</ele>
        <time>2021-11-10T21:21:14.479Z</time>
      </trkpt>
      <trkpt lat="47.541038" lon="7.744940">
        <ele>290.229154</ele>
        <time>2021-11-10T21:21:16.833Z</time>
      </trkpt>
      <trkpt lat="47.541019" lon="7.744859">
        <ele>290.231066</ele>
        <time>2021-11-10T21:21:18.089Z</time>
      </trkpt>
      <trkpt lat="47.540913" lon="7.744421">
        <ele>290.241441</ele>
        <time>2021-11-10T21:21:24.627Z</time>
      </trkpt>
      <trkpt lat="47.540738" lon="7.743641">
        <ele>290.259768</ele>
        <time>2021-11-10T21:21:36.479Z</time>
      </trkpt>
      <trkpt lat="47.540707" lon="7.743443">
        <ele>290.264301</ele>
        <time>2021-11-10T21:21:39.157Z</time>
      </trkpt>
      <trkpt lat="47.540617" lon="7.742875">
        <ele>290.277310</ele>
        <time>2021-11-10T21:21:47.390Z</time>
      </trkpt>
      <trkpt lat="47.540589" lon="7.742558">
        <ele>290.284439</ele>
        <time>2021-11-10T21:21:51.793Z</time>
      </trkpt>
      <trkpt lat="47.540552" lon="7.742240">
        <ele>290.131715</ele>
        <time>2021-11-10T21:21:56.045Z</time>
      </trkpt>
      <trkpt lat="47.540438" lon="7.740453">
        <ele>289.244047</ele>
        <time>2021-11-10T21:22:17.926Z</time>
      </trkpt>
      <trkpt lat="47.540374" lon="7.739620">
        <ele>288.762215</ele>
        <time>2021-11-10T21:22:27.383Z</time>
      </trkpt>
      <trkpt lat="47.540372" lon="7.739490">
        <ele>288.666506</ele>
        <time>2021-11-10T21:22:28.934Z</time>
      </trkpt>
      <trkpt lat="47.540387" lon="7.739372">
        <ele>288.578128</ele>
        <time>2021-11-10T21:22:30.421Z</time>
      </trkpt>
      <trkpt lat="47.540394" lon="7.739259">
        <ele>288.494608</ele>
        <time>2021-11-10T21:22:31.752Z</time>
      </trkpt>
      <trkpt lat="47.540388" lon="7.739213">
        <ele>288.460124</ele>
        <time>2021-11-10T21:22:32.144Z</time>
      </trkpt>
      <trkpt lat="47.540032" lon="7.737141">
        <ele>287.025549</ele>
        <time>2021-11-10T21:22:56.673Z</time>
      </trkpt>
      <trkpt lat="47.539305" lon="7.734151">
        <ele>287.670475</ele>
        <time>2021-11-10T21:23:43.466Z</time>
      </trkpt>
      <trkpt lat="47.539263" lon="7.733885">
        <ele>287.809732</ele>
        <time>2021-11-10T21:23:47.867Z</time>
      </trkpt>
      <trkpt lat="47.539178" lon="7.733656">
        <ele>287.942950</ele>
        <time>2021-11-10T21:23:52.017Z</time>
      </trkpt>
      <trkpt lat="47.538887" lon="7.732454">
        <ele>288.593902</ele>
        <time>2021-11-10T21:24:12.704Z</time>
      </trkpt>
      <trkpt lat="47.538512" lon="7.730958">
        <ele>289.190832</ele>
        <time>2021-11-10T21:24:38.208Z</time>
      </trkpt>
      <trkpt lat="47.538339" lon="7.730082">
        <ele>289.516825</ele>
        <time>2021-11-10T21:24:51.577Z</time>
      </trkpt>
      <trkpt lat="47.538275" lon="7.729744">
        <ele>289.621692</ele>
        <time>2021-11-10T21:24:56.435Z</time>
      </trkpt>
      <trkpt lat="47.538248" lon="7.729713">
        <ele>289.583918</ele>
        <time>2021-11-10T21:24:57.049Z</time>
      </trkpt>
      <trkpt lat="47.538168" lon="7.729263">
        <ele>289.236546</ele>
        <time>2021-11-10T21:25:03.135Z</time>
      </trkpt>
      <trkpt lat="47.538148" lon="7.729131">
        <ele>289.135558</ele>
        <time>2021-11-10T21:25:04.805Z</time>
      </trkpt>
      <trkpt lat="47.538123" lon="7.729100">
        <ele>289.099507</ele>
        <time>2021-11-10T21:25:05.401Z</time>
      </trkpt>
      <trkpt lat="47.538083" lon="7.728919">
        <ele>288.957337</ele>
        <time>2021-11-10T21:25:07.734Z</time>
      </trkpt>
      <trkpt lat="47.538049" lon="7.728693">
        <ele>288.784492</ele>
        <time>2021-11-10T21:25:10.563Z</time>
      </trkpt>
      <trkpt lat="47.537932" lon="7.727936">
        <ele>288.204777</ele>
        <time>2021-11-10T21:25:19.543Z</time>
      </trkpt>
      <trkpt lat="47.537861" lon="7.727909">
        <ele>288.123723</ele>
        <time>2021-11-10T21:25:20.730Z</time>
      </trkpt>
      <trkpt lat="47.537824" lon="7.727674">
        <ele>287.943589</ele>
        <time>2021-11-10T21:25:22.582Z</time>
      </trkpt>
      <trkpt lat="47.537675" lon="7.726458">
        <ele>285.710690</ele>
        <time>2021-11-10T21:25:31.525Z</time>
      </trkpt>
      <trkpt lat="47.537323" lon="7.724748">
        <ele>281.581402</ele>
        <time>2021-11-10T21:25:43.268Z</time>
      </trkpt>
      <trkpt lat="47.537127" lon="7.723974">
        <ele>279.848062</ele>
        <time>2021-11-10T21:25:48.704Z</time>
      </trkpt>
      <trkpt lat="47.537106" lon="7.723875">
        <ele>279.631547</ele>
        <time>2021-11-10T21:25:49.388Z</time>
      </trkpt>
      <trkpt lat="47.537075" lon="7.723694">
        <ele>279.241936</ele>
        <time>2021-11-10T21:25:50.617Z</time>
      </trkpt>
      <trkpt lat="47.536854" lon="7.722329">
        <ele>276.313166</ele>
        <time>2021-11-10T21:26:00.530Z</time>
      </trkpt>
      <trkpt lat="47.536667" lon="7.721718">
        <ele>275.106309</ele>
        <time>2021-11-10T21:26:05.653Z</time>
      </trkpt>
      <trkpt lat="47.536590" lon="7.721558">
        <ele>274.773803</ele>
        <time>2021-11-10T21:26:07.170Z</time>
      </trkpt>
      <trkpt lat="47.536471" lon="7.721389">
        <ele>274.360571</ele>
        <time>2021-11-10T21:26:09.099Z</time>
      </trkpt>
      <trkpt lat="47.536092" lon="7.720862">
        <ele>273.057572</ele>
        <time>2021-11-10T21:26:14.486Z</time>
      </trkpt>
      <trkpt lat="47.535988" lon="7.720671">
        <ele>272.642329</ele>
        <time>2021-11-10T21:26:16.160Z</time>
      </trkpt>
      <trkpt lat="47.535897" lon="7.720461">
        <ele>272.220051</ele>
        <time>2021-11-10T21:26:17.849Z</time>
      </trkpt>
      <trkpt lat="47.535876" lon="7.720409">
        <ele>272.117512</ele>
        <time>2021-11-10T21:26:18.266Z</time>
      </trkpt>
      <trkpt lat="47.535806" lon="7.720212">
        <ele>271.740784</ele>
        <time>2021-11-10T21:26:19.810Z</time>
      </trkpt>
      <trkpt lat="47.535746" lon="7.719899">
        <ele>271.236383</ele>
        <time>2021-11-10T21:26:22.093Z</time>
      </trkpt>
      <trkpt lat="47.535713" lon="7.719682">
        <ele>270.933821</ele>
        <time>2021-11-10T21:26:23.656Z</time>
      </trkpt>
      <trkpt lat="47.535661" lon="7.719317">
        <ele>270.426408</ele>
        <time>2021-11-10T21:26:26.349Z</time>
      </trkpt>
      <trkpt lat="47.535628" lon="7.719087">
        <ele>270.106570</ele>
        <time>2021-11-10T21:26:28.142Z</time>
      </trkpt>
      <trkpt lat="47.535608" lon="7.718948">
        <ele>269.913254</ele>
        <time>2021-11-10T21:26:29.135Z</time>
      </trkpt>
      <trkpt lat="47.535572" lon="7.718705">
        <ele>269.574856</ele>
        <time>2021-11-10T21:26:30.850Z</time>
      </trkpt>
      <trkpt lat="47.535558" lon="7.718578">
        <ele>269.399820</ele>
        <time>2021-11-10T21:26:31.990Z</time>
      </trkpt>
      <trkpt lat="47.535516" lon="7.718273">
        <ele>268.976411</ele>
        <time>2021-11-10T21:26:34.192Z</time>
      </trkpt>
      <trkpt lat="47.535494" lon="7.718111">
        <ele>268.751641</ele>
        <time>2021-11-10T21:26:35.372Z</time>
      </trkpt>
      <trkpt lat="47.535490" lon="7.718086">
        <ele>268.716693</ele>
        <time>2021-11-10T21:26:35.919Z</time>
      </trkpt>
      <trkpt lat="47.535419" lon="7.717562">
        <ele>267.989723</ele>
        <time>2021-11-10T21:26:39.940Z</time>
      </trkpt>
      <trkpt lat="47.535384" lon="7.717243">
        <ele>267.931190</ele>
        <time>2021-11-10T21:26:42.510Z</time>
      </trkpt>
      <trkpt lat="47.535370" lon="7.716931">
        <ele>268.149630</ele>
        <time>2021-11-10T21:26:45.890Z</time>
      </trkpt>
      <trkpt lat="47.535347" lon="7.716584">
        <ele>268.393205</ele>
        <time>2021-11-10T21:26:49.406Z</time>
      </trkpt>
      <trkpt lat="47.535313" lon="7.716133">
        <ele>268.710226</ele>
        <time>2021-11-10T21:26:56.556Z</time>
      </trkpt>
      <trkpt lat="47.535254" lon="7.715336">
        <ele>269.270338</ele>
        <time>2021-11-10T21:27:09.105Z</time>
      </trkpt>
      <trkpt lat="47.535269" lon="7.714924">
        <ele>269.558574</ele>
        <time>2021-11-10T21:27:15.238Z</time>
      </trkpt>
      <trkpt lat="47.535269" lon="7.714705">
        <ele>269.715871</ele>
        <time>2021-11-10T21:27:18.498Z</time>
      </trkpt>
      <trkpt lat="47.535269" lon="7.714432">
        <ele>269.923496</ele>
        <time>2021-11-10T21:27:22.148Z</time>
      </trkpt>
      <trkpt lat="47.535222" lon="7.713738">
        <ele>270.453955</ele>
        <time>2021-11-10T21:27:31.673Z</time>
      </trkpt>
      <trkpt lat="47.535202" lon="7.713540">
        <ele>270.606217</ele>
        <time>2021-11-10T21:27:34.371Z</time>
      </trkpt>
      <trkpt lat="47.535174" lon="7.713262">
        <ele>270.819985</ele>
        <time>2021-11-10T21:27:37.814Z</time>
      </trkpt>
      <trkpt lat="47.535128" lon="7.712889">
        <ele>271.108358</ele>
        <time>2021-11-10T21:27:42.612Z</time>
      </trkpt>
      <trkpt lat="47.535110" lon="7.712748">
        <ele>271.217494</ele>
        <time>2021-11-10T21:27:44.349Z</time>
      </trkpt>
      <trkpt lat="47.535067" lon="7.712436">
        <ele>271.459674</ele>
        <time>2021-11-10T21:27:48.395Z</time>
      </trkpt>
      <trkpt lat="47.535045" lon="7.712277">
        <ele>271.583113</ele>
        <time>2021-11-10T21:27:50.247Z</time>
      </trkpt>
      <trkpt lat="47.535016" lon="7.712060">
        <ele>271.713020</ele>
        <time>2021-11-10T21:27:53.036Z</time>
      </trkpt>
      <trkpt lat="47.534965" lon="7.711682">
        <ele>271.825501</ele>
        <time>2021-11-10T21:27:57.454Z</time>
      </trkpt>
      <trkpt lat="47.534909" lon="7.711265">
        <ele>271.949565</ele>
        <time>2021-11-10T21:28:02.480Z</time>
      </trkpt>
      <trkpt lat="47.534768" lon="7.710504">
        <ele>272.179834</ele>
        <time>2021-11-10T21:28:11.604Z</time>
      </trkpt>
      <trkpt lat="47.534734" lon="7.710344">
        <ele>272.228780</ele>
        <time>2021-11-10T21:28:13.468Z</time>
      </trkpt>
      <trkpt lat="47.534641" lon="7.709912">
        <ele>272.361090</ele>
        <time>2021-11-10T21:28:18.314Z</time>
      </trkpt>
      <trkpt lat="47.534615" lon="7.709805">
        <ele>272.394274</ele>
        <time>2021-11-10T21:28:19.496Z</time>
      </trkpt>
      <trkpt lat="47.534577" lon="7.709613">
        <ele>272.452657</ele>
        <time>2021-11-10T21:28:21.557Z</time>
      </trkpt>
      <trkpt lat="47.534509" lon="7.709297">
        <ele>272.403713</ele>
        <time>2021-11-10T21:28:24.720Z</time>
      </trkpt>
      <trkpt lat="47.534390" lon="7.708741">
        <ele>272.274724</ele>
        <time>2021-11-10T21:28:30.117Z</time>
      </trkpt>
      <trkpt lat="47.534357" lon="7.708594">
        <ele>272.240466</ele>
        <time>2021-11-10T21:28:31.508Z</time>
      </trkpt>
      <trkpt lat="47.534132" lon="7.707553">
        <ele>271.998740</ele>
        <time>2021-11-10T21:28:41.316Z</time>
      </trkpt>
      <trkpt lat="47.534017" lon="7.707047">
        <ele>271.880669</ele>
        <time>2021-11-10T21:28:46.341Z</time>
      </trkpt>
      <trkpt lat="47.533747" lon="7.705801">
        <ele>271.464293</ele>
        <time>2021-11-10T21:28:58.074Z</time>
      </trkpt>
      <trkpt lat="47.533715" lon="7.705652">
        <ele>271.414369</ele>
        <time>2021-11-10T21:28:59.478Z</time>
      </trkpt>
      <trkpt lat="47.533704" lon="7.705593">
        <ele>271.394825</ele>
        <time>2021-11-10T21:29:00.025Z</time>
      </trkpt>
      <trkpt lat="47.533527" lon="7.704796">
        <ele>271.126930</ele>
        <time>2021-11-10T21:29:07.428Z</time>
      </trkpt>
      <trkpt lat="47.533301" lon="7.703780">
        <ele>270.817509</ele>
        <time>2021-11-10T21:29:17.214Z</time>
      </trkpt>
      <trkpt lat="47.532835" lon="7.701725">
        <ele>270.204166</ele>
        <time>2021-11-10T21:29:37.008Z</time>
      </trkpt>
      <trkpt lat="47.532793" lon="7.701522">
        <ele>270.134515</ele>
        <time>2021-11-10T21:29:38.884Z</time>
      </trkpt>
      <trkpt lat="47.532428" lon="7.699970">
        <ele>269.595372</ele>
        <time>2021-11-10T21:29:53.854Z</time>
      </trkpt>
      <trkpt lat="47.532407" lon="7.699875">
        <ele>269.562579</ele>
        <time>2021-11-10T21:29:54.748Z</time>
      </trkpt>
      <trkpt lat="47.532378" lon="7.699751">
        <ele>269.519528</ele>
        <time>2021-11-10T21:29:55.908Z</time>
      </trkpt>
      <trkpt lat="47.532326" lon="7.699504">
        <ele>269.434651</ele>
        <time>2021-11-10T21:29:58.270Z</time>
      </trkpt>
      <trkpt lat="47.532317" lon="7.699464">
        <ele>269.420819</ele>
        <time>2021-11-10T21:29:58.623Z</time>
      </trkpt>
      <trkpt lat="47.532234" lon="7.699115">
        <ele>269.117646</ele>
        <time>2021-11-10T21:30:01.818Z</time>
      </trkpt>
      <trkpt lat="47.532082" lon="7.698472">
        <ele>268.544000</ele>
        <time>2021-11-10T21:30:07.442Z</time>
      </trkpt>
      <trkpt lat="47.531987" lon="7.698056">
        <ele>268.174224</ele>
        <time>2021-11-10T21:30:10.951Z</time>
      </trkpt>
      <trkpt lat="47.531820" lon="7.697324">
        <ele>267.523624</ele>
        <time>2021-11-10T21:30:16.925Z</time>
      </trkpt>
      <trkpt lat="47.531503" lon="7.695640">
        <ele>266.170082</ele>
        <time>2021-11-10T21:30:30.171Z</time>
      </trkpt>
      <trkpt lat="47.531279" lon="7.693388">
        <ele>265.535245</ele>
        <time>2021-11-10T21:30:50.405Z</time>
      </trkpt>
      <trkpt lat="47.531252" lon="7.693049">
        <ele>265.668690</ele>
        <time>2021-11-10T21:30:54.977Z</time>
      </trkpt>
      <trkpt lat="47.531247" lon="7.692506">
        <ele>265.880987</ele>
        <time>2021-11-10T21:31:02.497Z</time>
      </trkpt>
      <trkpt lat="47.531250" lon="7.692032">
        <ele>266.066299</ele>
        <time>2021-11-10T21:31:08.974Z</time>
      </trkpt>
      <trkpt lat="47.531253" lon="7.691880">
        <ele>266.125746</ele>
        <time>2021-11-10T21:31:11.008Z</time>
      </trkpt>
      <trkpt lat="47.531254" lon="7.691721">
        <ele>266.187907</ele>
        <time>2021-11-10T21:31:13.009Z</time>
      </trkpt>
      <trkpt lat="47.531257" lon="7.691497">
        <ele>266.231945</ele>
        <time>2021-11-10T21:31:15.819Z</time>
      </trkpt>
      <trkpt lat="47.531218" lon="7.691259">
        <ele>266.266053</ele>
        <time>2021-11-10T21:31:18.589Z</time>
      </trkpt>
      <trkpt lat="47.531228" lon="7.690572">
        <ele>266.361755</ele>
        <time>2021-11-10T21:31:27.050Z</time>
      </trkpt>
      <trkpt lat="47.531244" lon="7.689927">
        <ele>266.451645</ele>
        <time>2021-11-10T21:31:33.630Z</time>
      </trkpt>
      <trkpt lat="47.531254" lon="7.689619">
        <ele>266.494590</ele>
        <time>2021-11-10T21:31:36.642Z</time>
      </trkpt>
      <trkpt lat="47.531264" lon="7.689333">
        <ele>266.534475</ele>
        <time>2021-11-10T21:31:39.316Z</time>
      </trkpt>
      <trkpt lat="47.531265" lon="7.689138">
        <ele>266.561633</ele>
        <time>2021-11-10T21:31:40.969Z</time>
      </trkpt>
      <trkpt lat="47.531267" lon="7.688842">
        <ele>266.512798</ele>
        <time>2021-11-10T21:31:43.668Z</time>
      </trkpt>
      <trkpt lat="47.531309" lon="7.687734">
        <ele>266.087606</ele>
        <time>2021-11-10T21:31:52.676Z</time>
      </trkpt>
      <trkpt lat="47.531311" lon="7.686964">
        <ele>265.792583</ele>
        <time>2021-11-10T21:31:59.256Z</time>
      </trkpt>
      <trkpt lat="47.531302" lon="7.686543">
        <ele>265.631198</ele>
        <time>2021-11-10T21:32:03.509Z</time>
      </trkpt>
      <trkpt lat="47.531297" lon="7.685934">
        <ele>265.681569</ele>
        <time>2021-11-10T21:32:10.036Z</time>
      </trkpt>
      <trkpt lat="47.531296" lon="7.684922">
        <ele>265.979943</ele>
        <time>2021-11-10T21:32:21.479Z</time>
      </trkpt>
      <trkpt lat="47.531277" lon="7.683432">
        <ele>266.488446</ele>
        <time>2021-11-10T21:32:38.642Z</time>
      </trkpt>
      <trkpt lat="47.531276" lon="7.682944">
        <ele>266.763660</ele>
        <time>2021-11-10T21:32:44.392Z</time>
      </trkpt>
      <trkpt lat="47.531275" lon="7.682615">
        <ele>266.949205</ele>
        <time>2021-11-10T21:32:48.373Z</time>
      </trkpt>
      <trkpt lat="47.531257" lon="7.681446">
        <ele>267.608646</ele>
        <time>2021-11-10T21:33:03.166Z</time>
      </trkpt>
      <trkpt lat="47.531222" lon="7.679157">
        <ele>268.637390</ele>
        <time>2021-11-10T21:33:31.714Z</time>
      </trkpt>
      <trkpt lat="47.531218" lon="7.678940">
        <ele>268.729324</ele>
        <time>2021-11-10T21:33:34.023Z</time>
      </trkpt>
      <trkpt lat="47.531215" lon="7.678292">
        <ele>268.972848</ele>
        <time>2021-11-10T21:33:40.539Z</time>
      </trkpt>
      <trkpt lat="47.531238" lon="7.677761">
        <ele>268.963208</ele>
        <time>2021-11-10T21:33:45.696Z</time>
      </trkpt>
      <trkpt lat="47.531253" lon="7.677527">
        <ele>268.958950</ele>
        <time>2021-11-10T21:33:48.071Z</time>
      </trkpt>
      <trkpt lat="47.531275" lon="7.677355">
        <ele>268.955778</ele>
        <time>2021-11-10T21:33:49.751Z</time>
      </trkpt>
      <trkpt lat="47.531314" lon="7.677106">
        <ele>268.951148</ele>
        <time>2021-11-10T21:33:52.614Z</time>
      </trkpt>
      <trkpt lat="47.531325" lon="7.677036">
        <ele>268.949846</ele>
        <time>2021-11-10T21:33:53.326Z</time>
      </trkpt>
      <trkpt lat="47.531397" lon="7.676665">
        <ele>268.942853</ele>
        <time>2021-11-10T21:33:57.281Z</time>
      </trkpt>
      <trkpt lat="47.531455" lon="7.676389">
        <ele>268.937616</ele>
        <time>2021-11-10T21:34:00.180Z</time>
      </trkpt>
      <trkpt lat="47.531545" lon="7.675929">
        <ele>268.928940</ele>
        <time>2021-11-10T21:34:05.379Z</time>
      </trkpt>
      <trkpt lat="47.531606" lon="7.675606">
        <ele>268.858235</ele>
        <time>2021-11-10T21:34:08.631Z</time>
      </trkpt>
      <trkpt lat="47.531635" lon="7.675449">
        <ele>268.791594</ele>
        <time>2021-11-10T21:34:09.965Z</time>
      </trkpt>
      <trkpt lat="47.531719" lon="7.675071">
        <ele>268.628666</ele>
        <time>2021-11-10T21:34:13.173Z</time>
      </trkpt>
      <trkpt lat="47.531825" lon="7.674498">
        <ele>268.385423</ele>
        <time>2021-11-10T21:34:17.960Z</time>
      </trkpt>
      <trkpt lat="47.531884" lon="7.674105">
        <ele>268.220592</ele>
        <time>2021-11-10T21:34:21.599Z</time>
      </trkpt>
      <trkpt lat="47.531942" lon="7.673731">
        <ele>268.063483</ele>
        <time>2021-11-10T21:34:25.209Z</time>
      </trkpt>
      <trkpt lat="47.531990" lon="7.673394">
        <ele>267.922473</ele>
        <time>2021-11-10T21:34:28.175Z</time>
      </trkpt>
      <trkpt lat="47.532036" lon="7.673089">
        <ele>267.847779</ele>
        <time>2021-11-10T21:34:31.087Z</time>
      </trkpt>
      <trkpt lat="47.532065" lon="7.672871">
        <ele>267.875945</ele>
        <time>2021-11-10T21:34:32.964Z</time>
      </trkpt>
      <trkpt lat="47.532344" lon="7.670949">
        <ele>268.125154</ele>
        <time>2021-11-10T21:34:51.104Z</time>
      </trkpt>
      <trkpt lat="47.532378" lon="7.670762">
        <ele>268.149704</ele>
        <time>2021-11-10T21:34:54.070Z</time>
      </trkpt>
      <trkpt lat="47.532450" lon="7.670414">
        <ele>268.375116</ele>
        <time>2021-11-10T21:34:59.979Z</time>
      </trkpt>
      <trkpt lat="47.532528" lon="7.670085">
        <ele>268.764482</ele>
        <time>2021-11-10T21:35:06.077Z</time>
      </trkpt>
      <trkpt lat="47.532604" lon="7.669823">
        <ele>269.082899</ele>
        <time>2021-11-10T21:35:11.211Z</time>
      </trkpt>
      <trkpt lat="47.532727" lon="7.669421">
        <ele>269.575731</ele>
        <time>2021-11-10T21:35:18.366Z</time>
      </trkpt>
      <trkpt lat="47.532897" lon="7.668969">
        <ele>270.153476</ele>
        <time>2021-11-10T21:35:26.158Z</time>
      </trkpt>
      <trkpt lat="47.533053" lon="7.668607">
        <ele>270.633017</ele>
        <time>2021-11-10T21:35:31.454Z</time>
      </trkpt>
      <trkpt lat="47.533159" lon="7.668361">
        <ele>270.958883</ele>
        <time>2021-11-10T21:35:35.750Z</time>
      </trkpt>
      <trkpt lat="47.533253" lon="7.668149">
        <ele>271.146472</ele>
        <time>2021-11-10T21:35:38.436Z</time>
      </trkpt>
      <trkpt lat="47.533486" lon="7.667627">
        <ele>271.138188</ele>
        <time>2021-11-10T21:35:46.059Z</time>
      </trkpt>
      <trkpt lat="47.533740" lon="7.667075">
        <ele>271.129345</ele>
        <time>2021-11-10T21:35:53.582Z</time>
      </trkpt>
      <trkpt lat="47.533835" lon="7.666868">
        <ele>271.126032</ele>
        <time>2021-11-10T21:35:55.652Z</time>
      </trkpt>
      <trkpt lat="47.533775" lon="7.666807">
        <ele>271.124605</ele>
        <time>2021-11-10T21:35:56.973Z</time>
      </trkpt>
      <trkpt lat="47.533696" lon="7.666647">
        <ele>271.121981</ele>
        <time>2021-11-10T21:35:58.935Z</time>
      </trkpt>
      <trkpt lat="47.533398" lon="7.666305">
        <ele>271.114589</ele>
        <time>2021-11-10T21:36:03.442Z</time>
      </trkpt>
      <trkpt lat="47.533116" lon="7.665988">
        <ele>271.179393</ele>
        <time>2021-11-10T21:36:07.665Z</time>
      </trkpt>
      <trkpt lat="47.532925" lon="7.665760">
        <ele>271.248346</ele>
        <time>2021-11-10T21:36:10.754Z</time>
      </trkpt>
      <trkpt lat="47.532786" lon="7.665641">
        <ele>271.293474</ele>
        <time>2021-11-10T21:36:12.900Z</time>
      </trkpt>
      <trkpt lat="47.532672" lon="7.665583">
        <ele>271.327355</ele>
        <time>2021-11-10T21:36:14.532Z</time>
      </trkpt>
      <trkpt lat="47.532292" lon="7.665148">
        <ele>271.462350</ele>
        <time>2021-11-10T21:36:23.028Z</time>
      </trkpt>
      <trkpt lat="47.532140" lon="7.664972">
        <ele>271.516582</ele>
        <time>2021-11-10T21:36:26.469Z</time>
      </trkpt>
      <trkpt lat="47.531991" lon="7.664806">
        <ele>271.568989</ele>
        <time>2021-11-10T21:36:30.350Z</time>
      </trkpt>
      <trkpt lat="47.531765" lon="7.664540">
        <ele>271.847560</ele>
        <time>2021-11-10T21:36:36.087Z</time>
      </trkpt>
      <trkpt lat="47.530899" lon="7.663616">
        <ele>273.984949</ele>
        <time>2021-11-10T21:36:59.561Z</time>
      </trkpt>
      <trkpt lat="47.530793" lon="7.663521">
        <ele>274.233062</ele>
        <time>2021-11-10T21:37:03.088Z</time>
      </trkpt>
      <trkpt lat="47.530719" lon="7.663465">
        <ele>274.399476</ele>
        <time>2021-11-10T21:37:05.463Z</time>
      </trkpt>
      <trkpt lat="47.529792" lon="7.663087">
        <ele>276.575531</ele>
        <time>2021-11-10T21:37:34.585Z</time>
      </trkpt>
      <trkpt lat="47.529676" lon="7.663021">
        <ele>276.880810</ele>
        <time>2021-11-10T21:37:38.307Z</time>
      </trkpt>
      <trkpt lat="47.529624" lon="7.662986">
        <ele>277.021130</ele>
        <time>2021-11-10T21:37:39.706Z</time>
      </trkpt>
      <trkpt lat="47.529576" lon="7.662954">
        <ele>277.150446</ele>
        <time>2021-11-10T21:37:41.078Z</time>
      </trkpt>
      <trkpt lat="47.529502" lon="7.662906">
        <ele>277.348911</ele>
        <time>2021-11-10T21:37:43.236Z</time>
      </trkpt>
      <trkpt lat="47.528985" lon="7.662541">
        <ele>278.755936</ele>
        <time>2021-11-10T21:38:00.516Z</time>
      </trkpt>
      <trkpt lat="47.528693" lon="7.662320">
        <ele>279.561526</ele>
        <time>2021-11-10T21:38:10.254Z</time>
      </trkpt>
      <trkpt lat="47.528592" lon="7.662229">
        <ele>279.804483</ele>
        <time>2021-11-10T21:38:13.369Z</time>
      </trkpt>
      <trkpt lat="47.528425" lon="7.662035">
        <ele>280.209942</ele>
        <time>2021-11-10T21:38:18.176Z</time>
      </trkpt>
      <trkpt lat="47.528226" lon="7.661637">
        <ele>280.848752</ele>
        <time>2021-11-10T21:38:25.951Z</time>
      </trkpt>
      <trkpt lat="47.527912" lon="7.660639">
        <ele>282.268974</ele>
        <time>2021-11-10T21:38:43.122Z</time>
      </trkpt>
      <trkpt lat="47.527673" lon="7.659801">
        <ele>283.085958</ele>
        <time>2021-11-10T21:38:56.408Z</time>
      </trkpt>
      <trkpt lat="47.527666" lon="7.659776">
        <ele>283.087047</ele>
        <time>2021-11-10T21:38:56.843Z</time>
      </trkpt>
      <trkpt lat="47.527370" lon="7.658528">
        <ele>283.140286</ele>
        <time>2021-11-10T21:39:10.362Z</time>
      </trkpt>
      <trkpt lat="47.527241" lon="7.658123">
        <ele>283.158310</ele>
        <time>2021-11-10T21:39:14.204Z</time>
      </trkpt>
      <trkpt lat="47.527139" lon="7.657807">
        <ele>283.172407</ele>
        <time>2021-11-10T21:39:17.201Z</time>
      </trkpt>
      <trkpt lat="47.527042" lon="7.657604">
        <ele>283.175911</ele>
        <time>2021-11-10T21:39:19.336Z</time>
      </trkpt>
      <trkpt lat="47.526917" lon="7.657402">
        <ele>283.088175</ele>
        <time>2021-11-10T21:39:21.683Z</time>
      </trkpt>
      <trkpt lat="47.526859" lon="7.657325">
        <ele>283.051237</ele>
        <time>2021-11-10T21:39:22.621Z</time>
      </trkpt>
      <trkpt lat="47.526880" lon="7.657295">
        <ele>283.037400</ele>
        <time>2021-11-10T21:39:22.973Z</time>
      </trkpt>
      <trkpt lat="47.526883" lon="7.657129">
        <ele>282.984226</ele>
        <time>2021-11-10T21:39:24.610Z</time>
      </trkpt>
      <trkpt lat="47.526863" lon="7.657097">
        <ele>282.970264</ele>
        <time>2021-11-10T21:39:24.946Z</time>
      </trkpt>
      <trkpt lat="47.526840" lon="7.657078">
        <ele>282.957775</ele>
        <time>2021-11-10T21:39:25.268Z</time>
      </trkpt>
      <trkpt lat="47.526789" lon="7.657068">
        <ele>282.933379</ele>
        <time>2021-11-10T21:39:25.890Z</time>
      </trkpt>
      <trkpt lat="47.526764" lon="7.657078">
        <ele>282.921098</ele>
        <time>2021-11-10T21:39:26.201Z</time>
      </trkpt>
      <trkpt lat="47.526741" lon="7.657100">
        <ele>282.908114</ele>
        <time>2021-11-10T21:39:26.545Z</time>
      </trkpt>
      <trkpt lat="47.526722" lon="7.657130">
        <ele>282.894944</ele>
        <time>2021-11-10T21:39:26.866Z</time>
      </trkpt>
      <trkpt lat="47.526710" lon="7.657166">
        <ele>282.882088</ele>
        <time>2021-11-10T21:39:27.191Z</time>
      </trkpt>
      <trkpt lat="47.526706" lon="7.657209">
        <ele>282.868189</ele>
        <time>2021-11-10T21:39:27.544Z</time>
      </trkpt>
      <trkpt lat="47.526723" lon="7.657291">
        <ele>282.840722</ele>
        <time>2021-11-10T21:39:28.313Z</time>
      </trkpt>
      <trkpt lat="47.526743" lon="7.657323">
        <ele>282.826759</ele>
        <time>2021-11-10T21:39:28.832Z</time>
      </trkpt>
      <trkpt lat="47.526694" lon="7.657412">
        <ele>282.789988</ele>
        <time>2021-11-10T21:39:30.221Z</time>
      </trkpt>
      <trkpt lat="47.526672" lon="7.657453">
        <ele>282.773219</ele>
        <time>2021-11-10T21:39:30.788Z</time>
      </trkpt>
      <trkpt lat="47.526339" lon="7.657736">
        <ele>282.591151</ele>
        <time>2021-11-10T21:39:37.586Z</time>
      </trkpt>
      <trkpt lat="47.526194" lon="7.657732">
        <ele>282.522378</ele>
        <time>2021-11-10T21:39:40.037Z</time>
      </trkpt>
      <trkpt lat="47.526129" lon="7.657714">
        <ele>282.491020</ele>
        <time>2021-11-10T21:39:41.339Z</time>
      </trkpt>
      <trkpt lat="47.526058" lon="7.657663">
        <ele>282.453599</ele>
        <time>2021-11-10T21:39:42.785Z</time>
      </trkpt>
      <trkpt lat="47.525992" lon="7.657583">
        <ele>282.413153</ele>
        <time>2021-11-10T21:39:44.356Z</time>
      </trkpt>
      <trkpt lat="47.525949" lon="7.657484">
        <ele>282.375460</ele>
        <time>2021-11-10T21:39:46.016Z</time>
      </trkpt>
      <trkpt lat="47.525879" lon="7.657237">
        <ele>282.536261</ele>
        <time>2021-11-10T21:39:50.021Z</time>
      </trkpt>
      <trkpt lat="47.525864" lon="7.656858">
        <ele>283.182077</ele>
        <time>2021-11-10T21:39:56.141Z</time>
      </trkpt>
      <trkpt lat="47.525910" lon="7.656589">
        <ele>283.654112</ele>
        <time>2021-11-10T21:40:00.887Z</time>
      </trkpt>
      <trkpt lat="47.525936" lon="7.656458">
        <ele>283.886380</ele>
        <time>2021-11-10T21:40:03.414Z</time>
      </trkpt>
      <trkpt lat="47.525829" lon="7.656401">
        <ele>284.172839</ele>
        <time>2021-11-10T21:40:07.285Z</time>
      </trkpt>
      <trkpt lat="47.525736" lon="7.656349">
        <ele>284.423264</ele>
        <time>2021-11-10T21:40:09.388Z</time>
      </trkpt>
      <trkpt lat="47.525670" lon="7.656313">
        <ele>284.600447</ele>
        <time>2021-11-10T21:40:10.978Z</time>
      </trkpt>
      <trkpt lat="47.525598" lon="7.656276">
        <ele>284.792437</ele>
        <time>2021-11-10T21:40:14.251Z</time>
      </trkpt>
      <trkpt lat="47.525472" lon="7.656212">
        <ele>285.128003</ele>
        <time>2021-11-10T21:40:18.267Z</time>
      </trkpt>
      <trkpt lat="47.525397" lon="7.656172">
        <ele>285.328819</ele>
        <time>2021-11-10T21:40:19.921Z</time>
      </trkpt>
      <trkpt lat="47.525220" lon="7.656078">
        <ele>285.802515</ele>
        <time>2021-11-10T21:40:26.522Z</time>
      </trkpt>
      <trkpt lat="47.524818" lon="7.655865">
        <ele>286.879113</ele>
        <time>2021-11-10T21:40:38.488Z</time>
      </trkpt>
      <trkpt lat="47.524761" lon="7.655834">
        <ele>287.040680</ele>
        <time>2021-11-10T21:40:39.594Z</time>
      </trkpt>
      <trkpt lat="47.524698" lon="7.655801">
        <ele>287.218484</ele>
        <time>2021-11-10T21:40:40.944Z</time>
      </trkpt>
      <trkpt lat="47.524663" lon="7.655783">
        <ele>287.317066</ele>
        <time>2021-11-10T21:40:41.708Z</time>
      </trkpt>
      <trkpt lat="47.524616" lon="7.655757">
        <ele>287.450562</ele>
        <time>2021-11-10T21:40:44.515Z</time>
      </trkpt>
      <trkpt lat="47.524572" lon="7.655735">
        <ele>287.574128</ele>
        <time>2021-11-10T21:40:45.468Z</time>
      </trkpt>
      <trkpt lat="47.524519" lon="7.655706">
        <ele>287.724466</ele>
        <time>2021-11-10T21:40:48.001Z</time>
      </trkpt>
      <trkpt lat="47.524305" lon="7.655610">
        <ele>288.319419</ele>
        <time>2021-11-10T21:40:51.853Z</time>
      </trkpt>
      <trkpt lat="47.524277" lon="7.655598">
        <ele>288.396977</ele>
        <time>2021-11-10T21:40:54.133Z</time>
      </trkpt>
      <trkpt lat="47.524304" lon="7.655410">
        <ele>288.742320</ele>
        <time>2021-11-10T21:40:57.897Z</time>
      </trkpt>
      <trkpt lat="47.524475" lon="7.654210">
        <ele>290.945894</ele>
        <time>2021-11-10T21:41:17.849Z</time>
      </trkpt>
      <trkpt lat="47.524506" lon="7.653987">
        <ele>291.354969</ele>
        <time>2021-11-10T21:41:22.329Z</time>
      </trkpt>
      <trkpt lat="47.524516" lon="7.653915">
        <ele>291.487042</ele>
        <time>2021-11-10T21:41:23.925Z</time>
      </trkpt>
      <trkpt lat="47.524555" lon="7.653632">
        <ele>291.763063</ele>
        <time>2021-11-10T21:41:27.955Z</time>
      </trkpt>
      <trkpt lat="47.524557" lon="7.652450">
        <ele>292.455425</ele>
        <time>2021-11-10T21:41:42.315Z</time>
      </trkpt>
      <trkpt lat="47.524523" lon="7.652322">
        <ele>292.535993</ele>
        <time>2021-11-10T21:41:43.663Z</time>
      </trkpt>
      <trkpt lat="47.524484" lon="7.652177">
        <ele>292.627417</ele>
        <time>2021-11-10T21:41:45.096Z</time>
      </trkpt>
      <trkpt lat="47.524402" lon="7.651879">
        <ele>292.815907</ele>
        <time>2021-11-10T21:41:48.331Z</time>
      </trkpt>
      <trkpt lat="47.524245" lon="7.651314">
        <ele>293.173784</ele>
        <time>2021-11-10T21:41:54.904Z</time>
      </trkpt>
      <trkpt lat="47.524034" lon="7.650528">
        <ele>293.926749</ele>
        <time>2021-11-10T21:42:06.484Z</time>
      </trkpt>
      <trkpt lat="47.523968" lon="7.650324">
        <ele>294.132868</ele>
        <time>2021-11-10T21:42:09.179Z</time>
      </trkpt>
      <trkpt lat="47.523851" lon="7.649952">
        <ele>294.506801</ele>
        <time>2021-11-10T21:42:15.623Z</time>
      </trkpt>
      <trkpt lat="47.523799" lon="7.649826">
        <ele>294.641358</ele>
        <time>2021-11-10T21:42:17.411Z</time>
      </trkpt>
      <trkpt lat="47.523763" lon="7.649750">
        <ele>294.725949</ele>
        <time>2021-11-10T21:42:19.218Z</time>
      </trkpt>
      <trkpt lat="47.523318" lon="7.648996">
        <ele>295.638823</ele>
        <time>2021-11-10T21:42:32.324Z</time>
      </trkpt>
      <trkpt lat="47.523157" lon="7.648702">
        <ele>296.008078</ele>
        <time>2021-11-10T21:42:37.988Z</time>
      </trkpt>
      <trkpt lat="47.523005" lon="7.648426">
        <ele>296.355508</ele>
        <time>2021-11-10T21:42:43.628Z</time>
      </trkpt>
      <trkpt lat="47.522716" lon="7.647943">
        <ele>296.985037</ele>
        <time>2021-11-10T21:42:53.015Z</time>
      </trkpt>
      <trkpt lat="47.522552" lon="7.647695">
        <ele>297.323651</ele>
        <time>2021-11-10T21:42:57.206Z</time>
      </trkpt>
      <trkpt lat="47.522504" lon="7.647599">
        <ele>297.440178</ele>
        <time>2021-11-10T21:42:59.114Z</time>
      </trkpt>
      <trkpt lat="47.522477" lon="7.647501">
        <ele>297.543431</ele>
        <time>2021-11-10T21:43:00.392Z</time>
      </trkpt>
      <trkpt lat="47.522444" lon="7.647497">
        <ele>297.591262</ele>
        <time>2021-11-10T21:43:01.127Z</time>
      </trkpt>
      <trkpt lat="47.522408" lon="7.647467">
        <ele>297.650937</ele>
        <time>2021-11-10T21:43:01.771Z</time>
      </trkpt>
      <trkpt lat="47.522258" lon="7.647274">
        <ele>297.937996</ele>
        <time>2021-11-10T21:43:05.528Z</time>
      </trkpt>
      <trkpt lat="47.522151" lon="7.647137">
        <ele>298.142335</ele>
        <time>2021-11-10T21:43:08.332Z</time>
      </trkpt>
      <trkpt lat="47.521923" lon="7.646845">
        <ele>298.740294</ele>
        <time>2021-11-10T21:43:14.417Z</time>
      </trkpt>
      <trkpt lat="47.521902" lon="7.646594">
        <ele>299.102674</ele>
        <time>2021-11-10T21:43:17.673Z</time>
      </trkpt>
      <trkpt lat="47.521879" lon="7.646397">
        <ele>299.389121</ele>
        <time>2021-11-10T21:43:21.061Z</time>
      </trkpt>
      <trkpt lat="47.521817" lon="7.645962">
        <ele>300.026117</ele>
        <time>2021-11-10T21:43:27.413Z</time>
      </trkpt>
      <trkpt lat="47.521589" lon="7.646090">
        <ele>300.543459</ele>
        <time>2021-11-10T21:43:33.338Z</time>
      </trkpt>
      <trkpt lat="47.521483" lon="7.646147">
        <ele>300.782727</ele>
        <time>2021-11-10T21:43:35.814Z</time>
      </trkpt>
      <trkpt lat="47.521344" lon="7.646223">
        <ele>301.097103</ele>
        <time>2021-11-10T21:43:39.860Z</time>
      </trkpt>
      <trkpt lat="47.521133" lon="7.646325">
        <ele>301.568030</ele>
        <time>2021-11-10T21:43:44.874Z</time>
      </trkpt>
      <trkpt lat="47.521082" lon="7.646351">
        <ele>301.682469</ele>
        <time>2021-11-10T21:43:46.639Z</time>
      </trkpt>
      <trkpt lat="47.520870" lon="7.646459">
        <ele>302.307364</ele>
        <time>2021-11-10T21:43:52.462Z</time>
      </trkpt>
      <trkpt lat="47.520716" lon="7.646501">
        <ele>303.086723</ele>
        <time>2021-11-10T21:43:56.942Z</time>
      </trkpt>
      <trkpt lat="47.520544" lon="7.646549">
        <ele>303.957847</ele>
        <time>2021-11-10T21:44:01.919Z</time>
      </trkpt>
      <trkpt lat="47.520453" lon="7.646560">
        <ele>304.412266</ele>
        <time>2021-11-10T21:44:04.455Z</time>
      </trkpt>
      <trkpt lat="47.520182" lon="7.646592">
        <ele>305.765330</ele>
        <time>2021-11-10T21:44:13.048Z</time>
      </trkpt>
      <trkpt lat="47.519670" lon="7.646767">
        <ele>308.380590</ele>
        <time>2021-11-10T21:44:35.999Z</time>
      </trkpt>
      <trkpt lat="47.519621" lon="7.646784">
        <ele>308.631070</ele>
        <time>2021-11-10T21:44:39.018Z</time>
      </trkpt>
      <trkpt lat="47.518736" lon="7.647340">
        <ele>313.308693</ele>
        <time>2021-11-10T21:45:21.617Z</time>
      </trkpt>
      <trkpt lat="47.518689" lon="7.647385">
        <ele>313.574908</ele>
        <time>2021-11-10T21:45:23.761Z</time>
      </trkpt>
      <trkpt lat="47.518582" lon="7.647538">
        <ele>314.282412</ele>
        <time>2021-11-10T21:45:32.737Z</time>
      </trkpt>
      <trkpt lat="47.518122" lon="7.648240">
        <ele>317.424414</ele>
        <time>2021-11-10T21:45:56.191Z</time>
      </trkpt>
      <trkpt lat="47.518072" lon="7.648268">
        <ele>317.678675</ele>
        <time>2021-11-10T21:46:00.334Z</time>
      </trkpt>
      <trkpt lat="47.517916" lon="7.648293">
        <ele>318.425008</ele>
        <time>2021-11-10T21:46:03.835Z</time>
      </trkpt>
      <trkpt lat="47.517896" lon="7.648297">
        <ele>318.521001</ele>
        <time>2021-11-10T21:46:04.262Z</time>
      </trkpt>
      <trkpt lat="47.516935" lon="7.648449">
        <ele>320.432409</ele>
        <time>2021-11-10T21:46:34.675Z</time>
      </trkpt>
      <trkpt lat="47.516513" lon="7.648597">
        <ele>320.940689</ele>
        <time>2021-11-10T21:46:43.880Z</time>
      </trkpt>
      <trkpt lat="47.516097" lon="7.648754">
        <ele>321.443841</ele>
        <time>2021-11-10T21:46:51.808Z</time>
      </trkpt>
      <trkpt lat="47.515854" lon="7.648881">
        <ele>321.709553</ele>
        <time>2021-11-10T21:46:56.597Z</time>
      </trkpt>
      <trkpt lat="47.515597" lon="7.649049">
        <ele>321.895645</ele>
        <time>2021-11-10T21:47:02.517Z</time>
      </trkpt>
      <trkpt lat="47.515511" lon="7.649123">
        <ele>321.961533</ele>
        <time>2021-11-10T21:47:04.287Z</time>
      </trkpt>
      <trkpt lat="47.515459" lon="7.649168">
        <ele>322.001430</ele>
        <time>2021-11-10T21:47:05.804Z</time>
      </trkpt>
      <trkpt lat="47.515328" lon="7.649326">
        <ele>322.113353</ele>
        <time>2021-11-10T21:47:09.295Z</time>
      </trkpt>
      <trkpt lat="47.515061" lon="7.649652">
        <ele>322.342595</ele>
        <time>2021-11-10T21:47:16.743Z</time>
      </trkpt>
      <trkpt lat="47.514918" lon="7.650019">
        <ele>322.532150</ele>
        <time>2021-11-10T21:47:23.300Z</time>
      </trkpt>
      <trkpt lat="47.514864" lon="7.650158">
        <ele>322.603891</ele>
        <time>2021-11-10T21:47:26.015Z</time>
      </trkpt>
      <trkpt lat="47.514691" lon="7.650573">
        <ele>322.822075</ele>
        <time>2021-11-10T21:47:34.295Z</time>
      </trkpt>
      <trkpt lat="47.514657" lon="7.650652">
        <ele>322.898779</ele>
        <time>2021-11-10T21:47:36.069Z</time>
      </trkpt>
      <trkpt lat="47.514509" lon="7.650991">
        <ele>323.695604</ele>
        <time>2021-11-10T21:47:44.014Z</time>
      </trkpt>
      <trkpt lat="47.514207" lon="7.651374">
        <ele>324.857805</ele>
        <time>2021-11-10T21:47:56.871Z</time>
      </trkpt>
      <trkpt lat="47.513848" lon="7.651830">
        <ele>326.240280</ele>
        <time>2021-11-10T21:48:12.255Z</time>
      </trkpt>
      <trkpt lat="47.513576" lon="7.652174">
        <ele>327.285812</ele>
        <time>2021-11-10T21:48:24.171Z</time>
      </trkpt>
      <trkpt lat="47.513405" lon="7.652446">
        <ele>328.019362</ele>
        <time>2021-11-10T21:48:31.483Z</time>
      </trkpt>
      <trkpt lat="47.513349" lon="7.653017">
        <ele>329.614684</ele>
        <time>2021-11-10T21:48:42.990Z</time>
      </trkpt>
      <trkpt lat="47.512895" lon="7.654488">
        <ele>334.197953</ele>
        <time>2021-11-10T21:49:18.351Z</time>
      </trkpt>
      <trkpt lat="47.512836" lon="7.654893">
        <ele>335.372083</ele>
        <time>2021-11-10T21:49:27.307Z</time>
      </trkpt>
      <trkpt lat="47.512752" lon="7.657349">
        <ele>343.732577</ele>
        <time>2021-11-10T21:50:22.506Z</time>
      </trkpt>
      <trkpt lat="47.512497" lon="7.658661">
        <ele>352.188653</ele>
        <time>2021-11-10T21:51:02.915Z</time>
      </trkpt>
      <trkpt lat="47.512501" lon="7.658820">
        <ele>353.300680</ele>
        <time>2021-11-10T21:51:08.587Z</time>
      </trkpt>
      <trkpt lat="47.512353" lon="7.658944">
        <ele>355.060329</ele>
        <time>2021-11-10T21:51:18.077Z</time>
      </trkpt>
      <trkpt lat="47.511959" lon="7.659188">
        <ele>359.479553</ele>
        <time>2021-11-10T21:51:45.140Z</time>
      </trkpt>
      <trkpt lat="47.511733" lon="7.659346">
        <ele>362.065713</ele>
        <time>2021-11-10T21:52:02.210Z</time>
      </trkpt>
      <trkpt lat="47.511727" lon="7.659486">
        <ele>363.046160</ele>
        <time>2021-11-10T21:52:09.838Z</time>
      </trkpt>
      <trkpt lat="47.511770" lon="7.659882">
        <ele>367.269119</ele>
        <time>2021-11-10T21:52:29.715Z</time>
      </trkpt>
      <trkpt lat="47.511762" lon="7.660042">
        <ele>369.036880</ele>
        <time>2021-11-10T21:52:38.749Z</time>
      </trkpt>
      <trkpt lat="47.511659" lon="7.660351">
        <ele>372.833589</ele>
        <time>2021-11-10T21:52:57.217Z</time>
      </trkpt>
      <trkpt lat="47.511534" lon="7.660808">
        <ele>378.266204</ele>
        <time>2021-11-10T21:53:23.762Z</time>
      </trkpt>
      <trkpt lat="47.511383" lon="7.661372">
        <ele>384.950982</ele>
        <time>2021-11-10T21:53:59.274Z</time>
      </trkpt>
      <trkpt lat="47.511171" lon="7.662330">
        <ele>395.546760</ele>
        <time>2021-11-10T21:54:57.654Z</time>
      </trkpt>
      <trkpt lat="47.511036" lon="7.663302">
        <ele>404.800156</ele>
        <time>2021-11-10T21:55:46.654Z</time>
      </trkpt>
      <trkpt lat="47.511026" lon="7.663371">
        <ele>405.458217</ele>
        <time>2021-11-10T21:55:51.717Z</time>
      </trkpt>
      <trkpt lat="47.510856" lon="7.664867">
        <ele>419.146153</ele>
        <time>2021-11-10T21:56:54.688Z</time>
      </trkpt>
      <trkpt lat="47.510474" lon="7.666465">
        <ele>431.412527</ele>
        <time>2021-11-10T21:57:58.315Z</time>
      </trkpt>
      <trkpt lat="47.510298" lon="7.667520">
        <ele>439.121351</ele>
        <time>2021-11-10T21:58:43.048Z</time>
      </trkpt>
      <trkpt lat="47.509793" lon="7.668697">
        <ele>448.573218</ele>
        <time>2021-11-10T21:59:33.868Z</time>
      </trkpt>
      <trkpt lat="47.509771" lon="7.668816">
        <ele>449.409538</ele>
        <time>2021-11-10T21:59:40.189Z</time>
      </trkpt>
      <trkpt lat="47.509723" lon="7.669074">
        <ele>451.223540</ele>
        <time>2021-11-10T21:59:48.299Z</time>
      </trkpt>
      <trkpt lat="47.509624" lon="7.670171">
        <ele>458.735570</ele>
        <time>2021-11-10T22:00:27.202Z</time>
      </trkpt>
      <trkpt lat="47.509726" lon="7.671680">
        <ele>469.041831</ele>
        <time>2021-11-10T22:01:23.167Z</time>
      </trkpt>
      <trkpt lat="47.509697" lon="7.671879">
        <ele>470.425334</ele>
        <time>2021-11-10T22:01:33.185Z</time>
      </trkpt>
      <trkpt lat="47.509547" lon="7.672123">
        <ele>472.667480</ele>
        <time>2021-11-10T22:01:44.973Z</time>
      </trkpt>
      <trkpt lat="47.509315" lon="7.672132">
        <ele>474.715857</ele>
        <time>2021-11-10T22:01:58.679Z</time>
      </trkpt>
      <trkpt lat="47.508783" lon="7.671376">
        <ele>481.086567</ele>
        <time>2021-11-10T22:02:39.164Z</time>
      </trkpt>
      <trkpt lat="47.508439" lon="7.670868">
        <ele>485.284183</ele>
        <time>2021-11-10T22:03:03.148Z</time>
      </trkpt>
      <trkpt lat="47.508400" lon="7.670630">
        <ele>486.713333</ele>
        <time>2021-11-10T22:03:09.122Z</time>
      </trkpt>
      <trkpt lat="47.508334" lon="7.668961">
        <ele>492.419233</ele>
        <time>2021-11-10T22:03:49.638Z</time>
      </trkpt>
      <trkpt lat="47.508311" lon="7.668787">
        <ele>492.927165</ele>
        <time>2021-11-10T22:03:52.774Z</time>
      </trkpt>
      <trkpt lat="47.508285" lon="7.668641">
        <ele>493.359719</ele>
        <time>2021-11-10T22:03:54.172Z</time>
      </trkpt>
      <trkpt lat="47.508251" lon="7.668646">
        <ele>493.504627</ele>
        <time>2021-11-10T22:03:55.088Z</time>
      </trkpt>
      <trkpt lat="47.508215" lon="7.668664">
        <ele>493.665781</ele>
        <time>2021-11-10T22:03:56.093Z</time>
      </trkpt>
      <trkpt lat="47.508195" lon="7.668698">
        <ele>493.794941</ele>
        <time>2021-11-10T22:03:57.249Z</time>
      </trkpt>
      <trkpt lat="47.508096" lon="7.668696">
        <ele>494.214852</ele>
        <time>2021-11-10T22:03:59.368Z</time>
      </trkpt>
      <trkpt lat="47.507055" lon="7.668067">
        <ele>500.203132</ele>
        <time>2021-11-10T22:04:31.310Z</time>
      </trkpt>
      <trkpt lat="47.506716" lon="7.667934">
        <ele>502.328873</ele>
        <time>2021-11-10T22:04:44.713Z</time>
      </trkpt>
      <trkpt lat="47.506336" lon="7.667946">
        <ele>504.632719</ele>
        <time>2021-11-10T22:05:03.403Z</time>
      </trkpt>
      <trkpt lat="47.505893" lon="7.667768">
        <ele>507.611019</ele>
        <time>2021-11-10T22:05:27.934Z</time>
      </trkpt>
      <trkpt lat="47.505709" lon="7.667844">
        <ele>509.380184</ele>
        <time>2021-11-10T22:05:34.844Z</time>
      </trkpt>
      <trkpt lat="47.505364" lon="7.668163">
        <ele>513.147391</ele>
        <time>2021-11-10T22:05:53.589Z</time>
      </trkpt>
      <trkpt lat="47.505295" lon="7.668259">
        <ele>514.024359</ele>
        <time>2021-11-10T22:05:59.232Z</time>
      </trkpt>
      <trkpt lat="47.505273" lon="7.668282">
        <ele>514.273795</ele>
        <time>2021-11-10T22:06:02.062Z</time>
      </trkpt>
      <trkpt lat="47.505003" lon="7.668423">
        <ele>516.925377</ele>
        <time>2021-11-10T22:06:15.183Z</time>
      </trkpt>
      <trkpt lat="47.504784" lon="7.668451">
        <ele>518.961150</ele>
        <time>2021-11-10T22:06:27.639Z</time>
      </trkpt>
      <trkpt lat="47.503852" lon="7.668457">
        <ele>527.908592</ele>
        <time>2021-11-10T22:07:20.747Z</time>
      </trkpt>
      <trkpt lat="47.503644" lon="7.668446">
        <ele>529.992629</ele>
        <time>2021-11-10T22:07:30.448Z</time>
      </trkpt>
      <trkpt lat="47.503078" lon="7.668512">
        <ele>535.677555</ele>
        <time>2021-11-10T22:08:02.627Z</time>
      </trkpt>
      <trkpt lat="47.502894" lon="7.668475">
        <ele>537.536873</ele>
        <time>2021-11-10T22:08:11.485Z</time>
      </trkpt>
      <trkpt lat="47.502567" lon="7.667896">
        <ele>542.512583</ele>
        <time>2021-11-10T22:08:41.652Z</time>
      </trkpt>
      <trkpt lat="47.502382" lon="7.667723">
        <ele>544.399363</ele>
        <time>2021-11-10T22:08:51.892Z</time>
      </trkpt>
      <trkpt lat="47.502331" lon="7.667705">
        <ele>544.851430</ele>
        <time>2021-11-10T22:08:55.996Z</time>
      </trkpt>
      <trkpt lat="47.502292" lon="7.667688">
        <ele>545.201979</ele>
        <time>2021-11-10T22:08:59.075Z</time>
      </trkpt>
      <trkpt lat="47.502151" lon="7.667642">
        <ele>546.446909</ele>
        <time>2021-11-10T22:09:04.828Z</time>
      </trkpt>
      <trkpt lat="47.502006" lon="7.667624">
        <ele>547.701539</ele>
        <time>2021-11-10T22:09:11.861Z</time>
      </trkpt>
      <trkpt lat="47.501882" lon="7.667549">
        <ele>548.856523</ele>
        <time>2021-11-10T22:09:19.805Z</time>
      </trkpt>
      <trkpt lat="47.501738" lon="7.667367">
        <ele>550.489168</ele>
        <time>2021-11-10T22:09:26.768Z</time>
      </trkpt>
      <trkpt lat="47.501725" lon="7.667123">
        <ele>551.914879</ele>
        <time>2021-11-10T22:09:36.336Z</time>
      </trkpt>
      <trkpt lat="47.502047" lon="7.666538">
        <ele>556.310353</ele>
        <time>2021-11-10T22:09:58.524Z</time>
      </trkpt>
      <trkpt lat="47.502211" lon="7.666089">
        <ele>559.214543</ele>
        <time>2021-11-10T22:10:14.865Z</time>
      </trkpt>
      <trkpt lat="47.502398" lon="7.665168">
        <ele>564.629028</ele>
        <time>2021-11-10T22:10:46.220Z</time>
      </trkpt>
      <trkpt lat="47.502680" lon="7.664603">
        <ele>568.584053</ele>
        <time>2021-11-10T22:11:07.569Z</time>
      </trkpt>
      <trkpt lat="47.502656" lon="7.664371">
        <ele>569.905460</ele>
        <time>2021-11-10T22:11:15.052Z</time>
      </trkpt>
      <trkpt lat="47.502470" lon="7.664143">
        <ele>571.918091</ele>
        <time>2021-11-10T22:11:27.430Z</time>
      </trkpt>
      <trkpt lat="47.502341" lon="7.664057">
        <ele>573.058110</ele>
        <time>2021-11-10T22:11:35.518Z</time>
      </trkpt>
      <trkpt lat="47.502215" lon="7.663950">
        <ele>574.215416</ele>
        <time>2021-11-10T22:11:44.041Z</time>
      </trkpt>
      <trkpt lat="47.502113" lon="7.663831">
        <ele>575.250112</ele>
        <time>2021-11-10T22:11:50.498Z</time>
      </trkpt>
      <trkpt lat="47.501982" lon="7.663470">
        <ele>577.455662</ele>
        <time>2021-11-10T22:12:05.638Z</time>
      </trkpt>
      <trkpt lat="47.501929" lon="7.662724">
        <ele>581.492953</ele>
        <time>2021-11-10T22:12:31.570Z</time>
      </trkpt>
      <trkpt lat="47.501880" lon="7.662547">
        <ele>582.522493</ele>
        <time>2021-11-10T22:12:38.003Z</time>
      </trkpt>
      <trkpt lat="47.501814" lon="7.662406">
        <ele>583.445756</ele>
        <time>2021-11-10T22:12:42.283Z</time>
      </trkpt>
      <trkpt lat="47.501739" lon="7.662303">
        <ele>584.260843</ele>
        <time>2021-11-10T22:12:47.112Z</time>
      </trkpt>
      <trkpt lat="47.501540" lon="7.662165">
        <ele>586.011639</ele>
        <time>2021-11-10T22:12:56.337Z</time>
      </trkpt>
      <trkpt lat="47.501427" lon="7.662094">
        <ele>586.752152</ele>
        <time>2021-11-10T22:12:59.866Z</time>
      </trkpt>
      <trkpt lat="47.501357" lon="7.661880">
        <ele>587.356303</ele>
        <time>2021-11-10T22:13:03.966Z</time>
      </trkpt>
      <trkpt lat="47.501296" lon="7.661615">
        <ele>588.067672</ele>
        <time>2021-11-10T22:13:08.811Z</time>
      </trkpt>
      <trkpt lat="47.501272" lon="7.661516">
        <ele>588.334933</ele>
        <time>2021-11-10T22:13:10.626Z</time>
      </trkpt>
      <trkpt lat="47.501255" lon="7.661462">
        <ele>588.486312</ele>
        <time>2021-11-10T22:13:11.769Z</time>
      </trkpt>
      <trkpt lat="47.501224" lon="7.661406">
        <ele>588.670275</ele>
        <time>2021-11-10T22:13:13.018Z</time>
      </trkpt>
      <trkpt lat="47.501172" lon="7.661341">
        <ele>588.926266</ele>
        <time>2021-11-10T22:13:14.610Z</time>
      </trkpt>
      <trkpt lat="47.501134" lon="7.661306">
        <ele>589.094601</ele>
        <time>2021-11-10T22:13:15.767Z</time>
      </trkpt>
      <trkpt lat="47.500892" lon="7.661159">
        <ele>590.078471</ele>
        <time>2021-11-10T22:13:24.270Z</time>
      </trkpt>
      <trkpt lat="47.500378" lon="7.660739">
        <ele>592.286734</ele>
        <time>2021-11-10T22:13:41.707Z</time>
      </trkpt>
      <trkpt lat="47.500168" lon="7.660591">
        <ele>593.161544</ele>
        <time>2021-11-10T22:13:46.890Z</time>
      </trkpt>
      <trkpt lat="47.499828" lon="7.660558">
        <ele>594.850950</ele>
        <time>2021-11-10T22:13:56.159Z</time>
      </trkpt>
      <trkpt lat="47.499384" lon="7.660566">
        <ele>597.119441</ele>
        <time>2021-11-10T22:14:10.054Z</time>
      </trkpt>
      <trkpt lat="47.498649" lon="7.660737">
        <ele>600.920537</ele>
        <time>2021-11-10T22:14:38.573Z</time>
      </trkpt>
      <trkpt lat="47.498450" lon="7.660673">
        <ele>601.960918</ele>
        <time>2021-11-10T22:14:47.806Z</time>
      </trkpt>
      <trkpt lat="47.498030" lon="7.660538">
        <ele>604.095955</ele>
        <time>2021-11-10T22:15:06.741Z</time>
      </trkpt>
      <trkpt lat="47.497005" lon="7.659684">
        <ele>609.885852</ele>
        <time>2021-11-10T22:15:47.297Z</time>
      </trkpt>
      <trkpt lat="47.496700" lon="7.659355">
        <ele>611.468149</ele>
        <time>2021-11-10T22:15:57.688Z</time>
      </trkpt>
      <trkpt lat="47.496419" lon="7.658896">
        <ele>612.095993</ele>
        <time>2021-11-10T22:16:08.335Z</time>
      </trkpt>
      <trkpt lat="47.495370" lon="7.658146">
        <ele>613.843769</ele>
        <time>2021-11-10T22:16:31.645Z</time>
      </trkpt>
      <trkpt lat="47.495295" lon="7.658106">
        <ele>613.963371</ele>
        <time>2021-11-10T22:16:33.053Z</time>
      </trkpt>
      <trkpt lat="47.495132" lon="7.658047">
        <ele>613.798949</ele>
        <time>2021-11-10T22:16:35.798Z</time>
      </trkpt>
      <trkpt lat="47.494878" lon="7.657874">
        <ele>613.187181</ele>
        <time>2021-11-10T22:16:38.952Z</time>
      </trkpt>
      <trkpt lat="47.493869" lon="7.656901">
        <ele>610.552260</ele>
        <time>2021-11-10T22:16:51.310Z</time>
      </trkpt>
      <trkpt lat="47.493727" lon="7.656848">
        <ele>610.231841</ele>
        <time>2021-11-10T22:16:52.743Z</time>
      </trkpt>
      <trkpt lat="47.493625" lon="7.656806">
        <ele>610.066770</ele>
        <time>2021-11-10T22:16:53.761Z</time>
      </trkpt>
      <trkpt lat="47.493454" lon="7.656654">
        <ele>609.893860</ele>
        <time>2021-11-10T22:16:55.994Z</time>
      </trkpt>
      <trkpt lat="47.493323" lon="7.656425">
        <ele>609.718119</ele>
        <time>2021-11-10T22:16:58.223Z</time>
      </trkpt>
      <trkpt lat="47.492960" lon="7.655784">
        <ele>609.228253</ele>
        <time>2021-11-10T22:17:04.917Z</time>
      </trkpt>
      <trkpt lat="47.492898" lon="7.656011">
        <ele>609.084845</ele>
        <time>2021-11-10T22:17:06.985Z</time>
      </trkpt>
      <trkpt lat="47.492834" lon="7.656127">
        <ele>608.997130</ele>
        <time>2021-11-10T22:17:08.282Z</time>
      </trkpt>
      <trkpt lat="47.492655" lon="7.656259">
        <ele>608.823770</ele>
        <time>2021-11-10T22:17:10.540Z</time>
      </trkpt>
      <trkpt lat="47.492368" lon="7.656441">
        <ele>608.553109</ele>
        <time>2021-11-10T22:17:16.530Z</time>
      </trkpt>
      <trkpt lat="47.492098" lon="7.656633">
        <ele>609.630062</ele>
        <time>2021-11-10T22:17:23.291Z</time>
      </trkpt>
      <trkpt lat="47.491848" lon="7.656926">
        <ele>610.786488</ele>
        <time>2021-11-10T22:17:32.815Z</time>
      </trkpt>
      <trkpt lat="47.491315" lon="7.657218">
        <ele>612.847499</ele>
        <time>2021-11-10T22:17:52.881Z</time>
      </trkpt>
      <trkpt lat="47.490868" lon="7.657356">
        <ele>614.503361</ele>
        <time>2021-11-10T22:18:08.031Z</time>
      </trkpt>
      <trkpt lat="47.491290" lon="7.658126">
        <ele>616.374530</ele>
        <time>2021-11-10T22:18:27.465Z</time>
      </trkpt>
      <trkpt lat="47.491352" lon="7.658296">
        <ele>616.705754</ele>
        <time>2021-11-10T22:18:31.156Z</time>
      </trkpt>
      <trkpt lat="47.491366" lon="7.658534">
        <ele>617.115365</ele>
        <time>2021-11-10T22:18:35.370Z</time>
      </trkpt>
      <trkpt lat="47.491283" lon="7.659274">
        <ele>618.401508</ele>
        <time>2021-11-10T22:18:47.918Z</time>
      </trkpt>
      <trkpt lat="47.491148" lon="7.660578">
        <ele>619.400920</ele>
        <time>2021-11-10T22:19:05.534Z</time>
      </trkpt>
      <trkpt lat="47.491135" lon="7.660667">
        <ele>619.364865</ele>
        <time>2021-11-10T22:19:06.196Z</time>
      </trkpt>
      <trkpt lat="47.491038" lon="7.661369">
        <ele>619.081147</ele>
        <time>2021-11-10T22:19:13.472Z</time>
      </trkpt>
      <trkpt lat="47.491127" lon="7.662280">
        <ele>618.716674</ele>
        <time>2021-11-10T22:19:21.506Z</time>
      </trkpt>
      <trkpt lat="47.491078" lon="7.662652">
        <ele>618.439063</ele>
        <time>2021-11-10T22:19:24.299Z</time>
      </trkpt>
      <trkpt lat="47.490960" lon="7.662986">
        <ele>617.181219</ele>
        <time>2021-11-10T22:19:26.705Z</time>
      </trkpt>
      <trkpt lat="47.490710" lon="7.663509">
        <ele>615.043178</ele>
        <time>2021-11-10T22:19:30.818Z</time>
      </trkpt>
      <trkpt lat="47.490681" lon="7.663697">
        <ele>614.399610</ele>
        <time>2021-11-10T22:19:32.191Z</time>
      </trkpt>
      <trkpt lat="47.490690" lon="7.663753">
        <ele>614.207503</ele>
        <time>2021-11-10T22:19:33.361Z</time>
      </trkpt>
      <trkpt lat="47.490724" lon="7.663818">
        <ele>613.933171</ele>
        <time>2021-11-10T22:19:33.827Z</time>
      </trkpt>
      <trkpt lat="47.491023" lon="7.664258">
        <ele>611.850577</ele>
        <time>2021-11-10T22:19:37.647Z</time>
      </trkpt>
      <trkpt lat="47.491167" lon="7.664633">
        <ele>610.411094</ele>
        <time>2021-11-10T22:19:40.433Z</time>
      </trkpt>
      <trkpt lat="47.491209" lon="7.664759">
        <ele>609.942205</ele>
        <time>2021-11-10T22:19:41.242Z</time>
      </trkpt>
      <trkpt lat="47.491235" lon="7.664889">
        <ele>609.440225</ele>
        <time>2021-11-10T22:19:42.126Z</time>
      </trkpt>
      <trkpt lat="47.491257" lon="7.665065">
        <ele>608.702305</ele>
        <time>2021-11-10T22:19:43.970Z</time>
      </trkpt>
      <trkpt lat="47.491275" lon="7.665260">
        <ele>607.890897</ele>
        <time>2021-11-10T22:19:45.094Z</time>
      </trkpt>
      <trkpt lat="47.491290" lon="7.665444">
        <ele>607.126806</ele>
        <time>2021-11-10T22:19:46.258Z</time>
      </trkpt>
      <trkpt lat="47.491308" lon="7.665727">
        <ele>605.954904</ele>
        <time>2021-11-10T22:19:48.002Z</time>
      </trkpt>
      <trkpt lat="47.491307" lon="7.665780">
        <ele>605.736312</ele>
        <time>2021-11-10T22:19:48.303Z</time>
      </trkpt>
      <trkpt lat="47.491296" lon="7.665853">
        <ele>605.427957</ele>
        <time>2021-11-10T22:19:48.740Z</time>
      </trkpt>
      <trkpt lat="47.491273" lon="7.665952">
        <ele>604.996351</ele>
        <time>2021-11-10T22:19:49.399Z</time>
      </trkpt>
      <trkpt lat="47.491126" lon="7.666409">
        <ele>602.909648</ele>
        <time>2021-11-10T22:19:52.496Z</time>
      </trkpt>
      <trkpt lat="47.490942" lon="7.667164">
        <ele>599.600669</ele>
        <time>2021-11-10T22:19:57.507Z</time>
      </trkpt>
      <trkpt lat="47.490690" lon="7.668617">
        <ele>593.617972</ele>
        <time>2021-11-10T22:20:07.088Z</time>
      </trkpt>
      <trkpt lat="47.490666" lon="7.670201">
        <ele>587.684073</ele>
        <time>2021-11-10T22:20:16.759Z</time>
      </trkpt>
      <trkpt lat="47.490706" lon="7.670713">
        <ele>586.496888</ele>
        <time>2021-11-10T22:20:19.921Z</time>
      </trkpt>
      <trkpt lat="47.490770" lon="7.671048">
        <ele>585.695010</ele>
        <time>2021-11-10T22:20:22.133Z</time>
      </trkpt>
      <trkpt lat="47.491002" lon="7.671806">
        <ele>583.778297</ele>
        <time>2021-11-10T22:20:28.130Z</time>
      </trkpt>
      <trkpt lat="47.491257" lon="7.672549">
        <ele>582.037127</ele>
        <time>2021-11-10T22:20:35.242Z</time>
      </trkpt>
      <trkpt lat="47.491431" lon="7.672880">
        <ele>582.034971</ele>
        <time>2021-11-10T22:20:38.827Z</time>
      </trkpt>
      <trkpt lat="47.491487" lon="7.672963">
        <ele>582.034368</ele>
        <time>2021-11-10T22:20:39.973Z</time>
      </trkpt>
      <trkpt lat="47.492120" lon="7.673689">
        <ele>582.028274</ele>
        <time>2021-11-10T22:20:53.556Z</time>
      </trkpt>
      <trkpt lat="47.492397" lon="7.673977">
        <ele>582.025698</ele>
        <time>2021-11-10T22:21:00.105Z</time>
      </trkpt>
      <trkpt lat="47.492419" lon="7.674013">
        <ele>582.025448</ele>
        <time>2021-11-10T22:21:01.001Z</time>
      </trkpt>
      <trkpt lat="47.492441" lon="7.674076">
        <ele>582.025084</ele>
        <time>2021-11-10T22:21:01.416Z</time>
      </trkpt>
      <trkpt lat="47.492431" lon="7.674567">
        <ele>581.097372</ele>
        <time>2021-11-10T22:21:08.536Z</time>
      </trkpt>
      <trkpt lat="47.492357" lon="7.674981">
        <ele>579.505407</ele>
        <time>2021-11-10T22:21:12.086Z</time>
      </trkpt>
      <trkpt lat="47.492252" lon="7.675376">
        <ele>577.927463</ele>
        <time>2021-11-10T22:21:14.759Z</time>
      </trkpt>
      <trkpt lat="47.492259" lon="7.675423">
        <ele>577.748549</ele>
        <time>2021-11-10T22:21:16.025Z</time>
      </trkpt>
      <trkpt lat="47.492364" lon="7.675466">
        <ele>577.149159</ele>
        <time>2021-11-10T22:21:17.018Z</time>
      </trkpt>
      <trkpt lat="47.492876" lon="7.675193">
        <ele>574.155033</ele>
        <time>2021-11-10T22:21:21.872Z</time>
      </trkpt>
      <trkpt lat="47.493934" lon="7.674840">
        <ele>562.269003</ele>
        <time>2021-11-10T22:21:31.165Z</time>
      </trkpt>
      <trkpt lat="47.494214" lon="7.674823">
        <ele>558.411025</ele>
        <time>2021-11-10T22:21:33.485Z</time>
      </trkpt>
      <trkpt lat="47.494287" lon="7.674903">
        <ele>557.160526</ele>
        <time>2021-11-10T22:21:34.253Z</time>
      </trkpt>
      <trkpt lat="47.494344" lon="7.675092">
        <ele>555.235304</ele>
        <time>2021-11-10T22:21:35.418Z</time>
      </trkpt>
      <trkpt lat="47.494342" lon="7.675161">
        <ele>554.592890</ele>
        <time>2021-11-10T22:21:35.802Z</time>
      </trkpt>
      <trkpt lat="47.494328" lon="7.675230">
        <ele>553.922751</ele>
        <time>2021-11-10T22:21:36.200Z</time>
      </trkpt>
      <trkpt lat="47.494233" lon="7.675518">
        <ele>550.941627</ele>
        <time>2021-11-10T22:21:38.004Z</time>
      </trkpt>
      <trkpt lat="47.494229" lon="7.675736">
        <ele>548.913084</ele>
        <time>2021-11-10T22:21:39.212Z</time>
      </trkpt>
      <trkpt lat="47.494465" lon="7.676284">
        <ele>542.765441</ele>
        <time>2021-11-10T22:21:42.857Z</time>
      </trkpt>
      <trkpt lat="47.494529" lon="7.676434">
        <ele>541.077529</ele>
        <time>2021-11-10T22:21:43.843Z</time>
      </trkpt>
      <trkpt lat="47.494913" lon="7.677178">
        <ele>532.169739</ele>
        <time>2021-11-10T22:21:49.083Z</time>
      </trkpt>
      <trkpt lat="47.495197" lon="7.677947">
        <ele>523.831516</ele>
        <time>2021-11-10T22:21:54.102Z</time>
      </trkpt>
      <trkpt lat="47.495874" lon="7.678827">
        <ele>514.000685</ele>
        <time>2021-11-10T22:22:01.828Z</time>
      </trkpt>
      <trkpt lat="47.496153" lon="7.679066">
        <ele>510.651736</ele>
        <time>2021-11-10T22:22:04.591Z</time>
      </trkpt>
      <trkpt lat="47.496289" lon="7.679485">
        <ele>507.388957</ele>
        <time>2021-11-10T22:22:07.309Z</time>
      </trkpt>
      <trkpt lat="47.496525" lon="7.679952">
        <ele>503.296949</ele>
        <time>2021-11-10T22:22:10.677Z</time>
      </trkpt>
      <trkpt lat="47.496907" lon="7.680663">
        <ele>497.075400</ele>
        <time>2021-11-10T22:22:18.238Z</time>
      </trkpt>
      <trkpt lat="47.496916" lon="7.680688">
        <ele>496.881389</ele>
        <time>2021-11-10T22:22:18.405Z</time>
      </trkpt>
      <trkpt lat="47.496959" lon="7.680793">
        <ele>496.040466</ele>
        <time>2021-11-10T22:22:19.087Z</time>
      </trkpt>
      <trkpt lat="47.497186" lon="7.681839">
        <ele>488.516073</ele>
        <time>2021-11-10T22:22:25.434Z</time>
      </trkpt>
      <trkpt lat="47.497142" lon="7.682124">
        <ele>486.513842</ele>
        <time>2021-11-10T22:22:27.174Z</time>
      </trkpt>
      <trkpt lat="47.496983" lon="7.682567">
        <ele>483.454102</ele>
        <time>2021-11-10T22:22:30.107Z</time>
      </trkpt>
      <trkpt lat="47.497012" lon="7.682986">
        <ele>481.100512</ele>
        <time>2021-11-10T22:22:32.563Z</time>
      </trkpt>
      <trkpt lat="47.497149" lon="7.683668">
        <ele>477.124680</ele>
        <time>2021-11-10T22:22:36.849Z</time>
      </trkpt>
      <trkpt lat="47.497155" lon="7.683756">
        <ele>476.630447</ele>
        <time>2021-11-10T22:22:37.394Z</time>
      </trkpt>
      <trkpt lat="47.497128" lon="7.683933">
        <ele>475.616492</ele>
        <time>2021-11-10T22:22:38.504Z</time>
      </trkpt>
      <trkpt lat="47.497043" lon="7.684092">
        <ele>474.483526</ele>
        <time>2021-11-10T22:22:39.716Z</time>
      </trkpt>
      <trkpt lat="47.496620" lon="7.684549">
        <ele>470.144844</ele>
        <time>2021-11-10T22:22:44.340Z</time>
      </trkpt>
      <trkpt lat="47.496136" lon="7.684606">
        <ele>465.808623</ele>
        <time>2021-11-10T22:22:48.585Z</time>
      </trkpt>
      <trkpt lat="47.495883" lon="7.684734">
        <ele>463.420743</ele>
        <time>2021-11-10T22:22:50.975Z</time>
      </trkpt>
      <trkpt lat="47.495359" lon="7.684972">
        <ele>458.525548</ele>
        <time>2021-11-10T22:22:55.775Z</time>
      </trkpt>
      <trkpt lat="47.495085" lon="7.685344">
        <ele>455.204871</ele>
        <time>2021-11-10T22:23:00.297Z</time>
      </trkpt>
      <trkpt lat="47.494766" lon="7.685867">
        <ele>450.462165</ele>
        <time>2021-11-10T22:23:06.039Z</time>
      </trkpt>
      <trkpt lat="47.494620" lon="7.686242">
        <ele>447.453074</ele>
        <time>2021-11-10T22:23:09.575Z</time>
      </trkpt>
      <trkpt lat="47.494500" lon="7.686629">
        <ele>444.492606</ele>
        <time>2021-11-10T22:23:13.068Z</time>
      </trkpt>
      <trkpt lat="47.494444" lon="7.686783">
        <ele>443.276688</ele>
        <time>2021-11-10T22:23:14.471Z</time>
      </trkpt>
      <trkpt lat="47.493965" lon="7.687977">
        <ele>434.107104</ele>
        <time>2021-11-10T22:23:25.991Z</time>
      </trkpt>
      <trkpt lat="47.493869" lon="7.688820">
        <ele>429.569352</ele>
        <time>2021-11-10T22:23:33.065Z</time>
      </trkpt>
      <trkpt lat="47.493613" lon="7.689576">
        <ele>425.080740</ele>
        <time>2021-11-10T22:23:40.410Z</time>
      </trkpt>
      <trkpt lat="47.493612" lon="7.689594">
        <ele>424.984873</ele>
        <time>2021-11-10T22:23:40.552Z</time>
      </trkpt>
      <trkpt lat="47.493600" lon="7.690048">
        <ele>422.573185</ele>
        <time>2021-11-10T22:23:44.566Z</time>
      </trkpt>
      <trkpt lat="47.493638" lon="7.690234">
        <ele>421.541838</ele>
        <time>2021-11-10T22:23:46.257Z</time>
      </trkpt>
      <trkpt lat="47.493683" lon="7.690452">
        <ele>420.808814</ele>
        <time>2021-11-10T22:23:48.297Z</time>
      </trkpt>
      <trkpt lat="47.494025" lon="7.691490">
        <ele>417.095134</ele>
        <time>2021-11-10T22:23:58.819Z</time>
      </trkpt>
      <trkpt lat="47.494615" lon="7.692795">
        <ele>412.305537</ele>
        <time>2021-11-10T22:24:13.687Z</time>
      </trkpt>
      <trkpt lat="47.494792" lon="7.693234">
        <ele>411.117919</ele>
        <time>2021-11-10T22:24:18.635Z</time>
      </trkpt>
      <trkpt lat="47.494837" lon="7.693410">
        <ele>410.680759</ele>
        <time>2021-11-10T22:24:20.475Z</time>
      </trkpt>
      <trkpt lat="47.495048" lon="7.694079">
        <ele>408.965626</ele>
        <time>2021-11-10T22:24:27.607Z</time>
      </trkpt>
      <trkpt lat="47.495505" lon="7.695885">
        <ele>405.881217</ele>
        <time>2021-11-10T22:24:46.771Z</time>
      </trkpt>
      <trkpt lat="47.495631" lon="7.696342">
        <ele>405.426824</ele>
        <time>2021-11-10T22:24:52.232Z</time>
      </trkpt>
      <trkpt lat="47.496089" lon="7.696595">
        <ele>404.760734</ele>
        <time>2021-11-10T22:25:01.368Z</time>
      </trkpt>
      <trkpt lat="47.496850" lon="7.697248">
        <ele>405.849992</ele>
        <time>2021-11-10T22:25:21.347Z</time>
      </trkpt>
      <trkpt lat="47.497138" lon="7.697627">
        <ele>406.856331</ele>
        <time>2021-11-10T22:25:33.920Z</time>
      </trkpt>
      <trkpt lat="47.497388" lon="7.698198">
        <ele>408.056772</ele>
        <time>2021-11-10T22:25:50.514Z</time>
      </trkpt>
      <trkpt lat="47.497598" lon="7.699022">
        <ele>409.573403</ele>
        <time>2021-11-10T22:26:12.237Z</time>
      </trkpt>
      <trkpt lat="47.497733" lon="7.699598">
        <ele>410.578618</ele>
        <time>2021-11-10T22:26:26.396Z</time>
      </trkpt>
      <trkpt lat="47.497830" lon="7.699916">
        <ele>411.153888</ele>
        <time>2021-11-10T22:26:34.525Z</time>
      </trkpt>
      <trkpt lat="47.498015" lon="7.700647">
        <ele>412.440919</ele>
        <time>2021-11-10T22:26:49.559Z</time>
      </trkpt>
      <trkpt lat="47.498166" lon="7.700897">
        <ele>412.993813</ele>
        <time>2021-11-10T22:26:56.115Z</time>
      </trkpt>
      <trkpt lat="47.498213" lon="7.701072">
        <ele>413.304307</ele>
        <time>2021-11-10T22:26:58.682Z</time>
      </trkpt>
      <trkpt lat="47.498365" lon="7.702472">
        <ele>410.573109</ele>
        <time>2021-11-10T22:27:16.119Z</time>
      </trkpt>
      <trkpt lat="47.499043" lon="7.704392">
        <ele>403.379461</ele>
        <time>2021-11-10T22:27:35.280Z</time>
      </trkpt>
      <trkpt lat="47.499136" lon="7.704671">
        <ele>401.768335</ele>
        <time>2021-11-10T22:27:37.911Z</time>
      </trkpt>
      <trkpt lat="47.499247" lon="7.705013">
        <ele>399.803477</ele>
        <time>2021-11-10T22:27:41.165Z</time>
      </trkpt>
      <trkpt lat="47.499385" lon="7.705412">
        <ele>397.482190</ele>
        <time>2021-11-10T22:27:44.969Z</time>
      </trkpt>
      <trkpt lat="47.499871" lon="7.706570">
        <ele>389.836147</ele>
        <time>2021-11-10T22:27:56.342Z</time>
      </trkpt>
      <trkpt lat="47.500529" lon="7.707770">
        <ele>380.507676</ele>
        <time>2021-11-10T22:28:09.237Z</time>
      </trkpt>
      <trkpt lat="47.500794" lon="7.708227">
        <ele>376.919423</ele>
        <time>2021-11-10T22:28:14.292Z</time>
      </trkpt>
      <trkpt lat="47.500920" lon="7.708420">
        <ele>375.373701</ele>
        <time>2021-11-10T22:28:16.580Z</time>
      </trkpt>
      <trkpt lat="47.500998" lon="7.708641">
        <ele>373.937692</ele>
        <time>2021-11-10T22:28:18.664Z</time>
      </trkpt>
      <trkpt lat="47.501058" lon="7.708888">
        <ele>372.426007</ele>
        <time>2021-11-10T22:28:20.921Z</time>
      </trkpt>
      <trkpt lat="47.501135" lon="7.709245">
        <ele>370.267735</ele>
        <time>2021-11-10T22:28:24.060Z</time>
      </trkpt>
      <trkpt lat="47.501139" lon="7.709271">
        <ele>370.114162</ele>
        <time>2021-11-10T22:28:24.294Z</time>
      </trkpt>
      <trkpt lat="47.501153" lon="7.709374">
        <ele>369.509080</ele>
        <time>2021-11-10T22:28:25.180Z</time>
      </trkpt>
      <trkpt lat="47.501179" lon="7.709570">
        <ele>368.358725</ele>
        <time>2021-11-10T22:28:26.854Z</time>
      </trkpt>
      <trkpt lat="47.501202" lon="7.709890">
        <ele>366.505387</ele>
        <time>2021-11-10T22:28:29.582Z</time>
      </trkpt>
      <trkpt lat="47.501237" lon="7.710370">
        <ele>363.724928</ele>
        <time>2021-11-10T22:28:33.649Z</time>
      </trkpt>
      <trkpt lat="47.501273" lon="7.710979">
        <ele>359.870748</ele>
        <time>2021-11-10T22:28:38.774Z</time>
      </trkpt>
      <trkpt lat="47.501331" lon="7.711411">
        <ele>356.975348</ele>
        <time>2021-11-10T22:28:42.445Z</time>
      </trkpt>
      <trkpt lat="47.501351" lon="7.711552">
        <ele>356.028239</ele>
        <time>2021-11-10T22:28:43.640Z</time>
      </trkpt>
      <trkpt lat="47.501393" lon="7.711928">
        <ele>353.522951</ele>
        <time>2021-11-10T22:28:46.826Z</time>
      </trkpt>
      <trkpt lat="47.501389" lon="7.712321">
        <ele>350.939176</ele>
        <time>2021-11-10T22:28:50.104Z</time>
      </trkpt>
      <trkpt lat="47.501382" lon="7.712454">
        <ele>350.062218</ele>
        <time>2021-11-10T22:28:51.174Z</time>
      </trkpt>
      <trkpt lat="47.501372" lon="7.712655">
        <ele>348.737317</ele>
        <time>2021-11-10T22:28:52.828Z</time>
      </trkpt>
      <trkpt lat="47.501341" lon="7.712838">
        <ele>347.497078</ele>
        <time>2021-11-10T22:28:54.403Z</time>
      </trkpt>
      <trkpt lat="47.501370" lon="7.713044">
        <ele>346.113797</ele>
        <time>2021-11-10T22:28:56.098Z</time>
      </trkpt>
      <trkpt lat="47.501304" lon="7.713203">
        <ele>344.885690</ele>
        <time>2021-11-10T22:28:57.176Z</time>
      </trkpt>
      <trkpt lat="47.501178" lon="7.713343">
        <ele>343.340709</ele>
        <time>2021-11-10T22:28:58.505Z</time>
      </trkpt>
      <trkpt lat="47.500910" lon="7.713640">
        <ele>340.057645</ele>
        <time>2021-11-10T22:29:01.362Z</time>
      </trkpt>
      <trkpt lat="47.500876" lon="7.713680">
        <ele>339.631743</ele>
        <time>2021-11-10T22:29:01.723Z</time>
      </trkpt>
      <trkpt lat="47.500773" lon="7.713818">
        <ele>338.269365</ele>
        <time>2021-11-10T22:29:02.926Z</time>
      </trkpt>
      <trkpt lat="47.500845" lon="7.713984">
        <ele>336.962471</ele>
        <time>2021-11-10T22:29:04.078Z</time>
      </trkpt>
      <trkpt lat="47.500887" lon="7.714055">
        <ele>336.337260</ele>
        <time>2021-11-10T22:29:04.603Z</time>
      </trkpt>
      <trkpt lat="47.501047" lon="7.714326">
        <ele>333.952896</ele>
        <time>2021-11-10T22:29:06.697Z</time>
      </trkpt>
      <trkpt lat="47.501327" lon="7.714687">
        <ele>330.311582</ele>
        <time>2021-11-10T22:29:09.932Z</time>
      </trkpt>
      <trkpt lat="47.501422" lon="7.714809">
        <ele>329.078233</ele>
        <time>2021-11-10T22:29:11.010Z</time>
      </trkpt>
      <trkpt lat="47.501936" lon="7.715129">
        <ele>325.275720</ele>
        <time>2021-11-10T22:29:16.047Z</time>
      </trkpt>
      <trkpt lat="47.501972" lon="7.715215">
        <ele>324.898381</ele>
        <time>2021-11-10T22:29:16.685Z</time>
      </trkpt>
      <trkpt lat="47.501933" lon="7.715492">
        <ele>323.843056</ele>
        <time>2021-11-10T22:29:18.399Z</time>
      </trkpt>
      <trkpt lat="47.501659" lon="7.715481">
        <ele>322.329785</ele>
        <time>2021-11-10T22:29:20.920Z</time>
      </trkpt>
      <trkpt lat="47.501081" lon="7.715458">
        <ele>319.137575</ele>
        <time>2021-11-10T22:29:26.537Z</time>
      </trkpt>
      <trkpt lat="47.500876" lon="7.715465">
        <ele>318.005498</ele>
        <time>2021-11-10T22:29:28.454Z</time>
      </trkpt>
      <trkpt lat="47.500779" lon="7.715477">
        <ele>317.480016</ele>
        <time>2021-11-10T22:29:29.490Z</time>
      </trkpt>
      <trkpt lat="47.500713" lon="7.715490">
        <ele>317.300029</ele>
        <time>2021-11-10T22:29:30.269Z</time>
      </trkpt>
      <trkpt lat="47.500619" lon="7.715512">
        <ele>317.042765</ele>
        <time>2021-11-10T22:29:31.145Z</time>
      </trkpt>
      <trkpt lat="47.500551" lon="7.715539">
        <ele>316.852445</ele>
        <time>2021-11-10T22:29:31.814Z</time>
      </trkpt>
      <trkpt lat="47.500461" lon="7.715594">
        <ele>316.589232</ele>
        <time>2021-11-10T22:29:32.813Z</time>
      </trkpt>
      <trkpt lat="47.500326" lon="7.715689">
        <ele>316.185150</ele>
        <time>2021-11-10T22:29:34.544Z</time>
      </trkpt>
      <trkpt lat="47.500225" lon="7.715795">
        <ele>315.850455</ele>
        <time>2021-11-10T22:29:35.728Z</time>
      </trkpt>
      <trkpt lat="47.500039" lon="7.716140">
        <ele>315.044352</ele>
        <time>2021-11-10T22:29:38.899Z</time>
      </trkpt>
      <trkpt lat="47.499940" lon="7.716540">
        <ele>314.266355</ele>
        <time>2021-11-10T22:29:42.121Z</time>
      </trkpt>
      <trkpt lat="47.499933" lon="7.716599">
        <ele>314.156954</ele>
        <time>2021-11-10T22:29:42.477Z</time>
      </trkpt>
      <trkpt lat="47.499921" lon="7.716812">
        <ele>313.766603</ele>
        <time>2021-11-10T22:29:43.999Z</time>
      </trkpt>
      <trkpt lat="47.499921" lon="7.717049">
        <ele>313.333770</ele>
        <time>2021-11-10T22:29:45.956Z</time>
      </trkpt>
      <trkpt lat="47.499941" lon="7.717298">
        <ele>312.875819</ele>
        <time>2021-11-10T22:29:47.631Z</time>
      </trkpt>
      <trkpt lat="47.499979" lon="7.717601">
        <ele>312.492684</ele>
        <time>2021-11-10T22:29:50.240Z</time>
      </trkpt>
      <trkpt lat="47.500101" lon="7.718657">
        <ele>311.647820</ele>
        <time>2021-11-10T22:29:58.523Z</time>
      </trkpt>
      <trkpt lat="47.500113" lon="7.718753">
        <ele>311.570829</ele>
        <time>2021-11-10T22:29:59.169Z</time>
      </trkpt>
      <trkpt lat="47.500152" lon="7.719065">
        <ele>311.320606</ele>
        <time>2021-11-10T22:30:02.074Z</time>
      </trkpt>
      <trkpt lat="47.500196" lon="7.719527">
        <ele>310.952665</ele>
        <time>2021-11-10T22:30:06.274Z</time>
      </trkpt>
      <trkpt lat="47.500211" lon="7.719679">
        <ele>310.831525</ele>
        <time>2021-11-10T22:30:07.692Z</time>
      </trkpt>
      <trkpt lat="47.500263" lon="7.720235">
        <ele>310.335013</ele>
        <time>2021-11-10T22:30:12.718Z</time>
      </trkpt>
      <trkpt lat="47.500280" lon="7.720537">
        <ele>310.004615</ele>
        <time>2021-11-10T22:30:15.489Z</time>
      </trkpt>
      <trkpt lat="47.500292" lon="7.720666">
        <ele>309.862645</ele>
        <time>2021-11-10T22:30:16.603Z</time>
      </trkpt>
      <trkpt lat="47.500342" lon="7.720808">
        <ele>309.688064</ele>
        <time>2021-11-10T22:30:18.031Z</time>
      </trkpt>
      <trkpt lat="47.500320" lon="7.720834">
        <ele>309.642632</ele>
        <time>2021-11-10T22:30:18.361Z</time>
      </trkpt>
      <trkpt lat="47.500299" lon="7.720909">
        <ele>309.554119</ele>
        <time>2021-11-10T22:30:19.137Z</time>
      </trkpt>
      <trkpt lat="47.500336" lon="7.721015">
        <ele>309.424038</ele>
        <time>2021-11-10T22:30:20.007Z</time>
      </trkpt>
      <trkpt lat="47.500362" lon="7.721031">
        <ele>309.378598</ele>
        <time>2021-11-10T22:30:20.335Z</time>
      </trkpt>
      <trkpt lat="47.500389" lon="7.721033">
        <ele>309.334971</ele>
        <time>2021-11-10T22:30:20.702Z</time>
      </trkpt>
      <trkpt lat="47.500461" lon="7.720933">
        <ele>309.175637</ele>
        <time>2021-11-10T22:30:21.914Z</time>
      </trkpt>
      <trkpt lat="47.500460" lon="7.720893">
        <ele>309.131997</ele>
        <time>2021-11-10T22:30:22.302Z</time>
      </trkpt>
      <trkpt lat="47.500553" lon="7.720873">
        <ele>308.980339</ele>
        <time>2021-11-10T22:30:23.462Z</time>
      </trkpt>
      <trkpt lat="47.500674" lon="7.720852">
        <ele>308.783733</ele>
        <time>2021-11-10T22:30:24.762Z</time>
      </trkpt>
      <trkpt lat="47.500806" lon="7.720829">
        <ele>308.569242</ele>
        <time>2021-11-10T22:30:26.306Z</time>
      </trkpt>
      <trkpt lat="47.500848" lon="7.720821">
        <ele>308.500904</ele>
        <time>2021-11-10T22:30:26.816Z</time>
      </trkpt>
      <trkpt lat="47.500992" lon="7.720796">
        <ele>308.266926</ele>
        <time>2021-11-10T22:30:28.312Z</time>
      </trkpt>
      <trkpt lat="47.501183" lon="7.720763">
        <ele>307.956600</ele>
        <time>2021-11-10T22:30:30.360Z</time>
      </trkpt>
      <trkpt lat="47.501369" lon="7.720733">
        <ele>307.654658</ele>
        <time>2021-11-10T22:30:32.239Z</time>
      </trkpt>
      <trkpt lat="47.501475" lon="7.720701">
        <ele>307.267148</ele>
        <time>2021-11-10T22:30:33.348Z</time>
      </trkpt>
      <trkpt lat="47.501487" lon="7.720740">
        <ele>307.152746</ele>
        <time>2021-11-10T22:30:33.642Z</time>
      </trkpt>
      <trkpt lat="47.501590" lon="7.720794">
        <ele>306.720966</ele>
        <time>2021-11-10T22:30:34.794Z</time>
      </trkpt>
      <trkpt lat="47.501616" lon="7.720776">
        <ele>306.607545</ele>
        <time>2021-11-10T22:30:35.090Z</time>
      </trkpt>
      <trkpt lat="47.501635" lon="7.720835">
        <ele>306.433064</ele>
        <time>2021-11-10T22:30:35.489Z</time>
      </trkpt>
      <trkpt lat="47.501658" lon="7.720911">
        <ele>306.210754</ele>
        <time>2021-11-10T22:30:36.062Z</time>
      </trkpt>
      <trkpt lat="47.501816" lon="7.721777">
        <ele>303.816130</ele>
        <time>2021-11-10T22:30:42.142Z</time>
      </trkpt>
      <trkpt lat="47.501908" lon="7.722222">
        <ele>302.573817</ele>
        <time>2021-11-10T22:30:45.139Z</time>
      </trkpt>
      <trkpt lat="47.501978" lon="7.722527">
        <ele>301.713915</ele>
        <time>2021-11-10T22:30:47.167Z</time>
      </trkpt>
      <trkpt lat="47.502028" lon="7.722740">
        <ele>301.111963</ele>
        <time>2021-11-10T22:30:48.628Z</time>
      </trkpt>
      <trkpt lat="47.502046" lon="7.722829">
        <ele>300.863959</ele>
        <time>2021-11-10T22:30:49.210Z</time>
      </trkpt>
      <trkpt lat="47.502072" lon="7.722973">
        <ele>300.489699</ele>
        <time>2021-11-10T22:30:50.145Z</time>
      </trkpt>
      <trkpt lat="47.502112" lon="7.723201">
        <ele>300.137995</ele>
        <time>2021-11-10T22:30:51.666Z</time>
      </trkpt>
      <trkpt lat="47.502133" lon="7.723553">
        <ele>299.610401</ele>
        <time>2021-11-10T22:30:53.963Z</time>
      </trkpt>
      <trkpt lat="47.502126" lon="7.723727">
        <ele>299.350153</ele>
        <time>2021-11-10T22:30:55.103Z</time>
      </trkpt>
      <trkpt lat="47.502105" lon="7.724063">
        <ele>298.846350</ele>
        <time>2021-11-10T22:30:57.327Z</time>
      </trkpt>
      <trkpt lat="47.502074" lon="7.724375">
        <ele>298.375511</ele>
        <time>2021-11-10T22:30:59.542Z</time>
      </trkpt>
      <trkpt lat="47.502069" lon="7.724437">
        <ele>298.282286</ele>
        <time>2021-11-10T22:31:00.006Z</time>
      </trkpt>
      <trkpt lat="47.502067" lon="7.724454">
        <ele>298.256522</ele>
        <time>2021-11-10T22:31:00.114Z</time>
      </trkpt>
      <trkpt lat="47.502055" lon="7.724669">
        <ele>297.934425</ele>
        <time>2021-11-10T22:31:01.809Z</time>
      </trkpt>
      <trkpt lat="47.502040" lon="7.724902">
        <ele>297.584971</ele>
        <time>2021-11-10T22:31:03.957Z</time>
      </trkpt>
      <trkpt lat="47.502029" lon="7.725074">
        <ele>297.327021</ele>
        <time>2021-11-10T22:31:05.448Z</time>
      </trkpt>
      <trkpt lat="47.502031" lon="7.725298">
        <ele>296.992551</ele>
        <time>2021-11-10T22:31:07.614Z</time>
      </trkpt>
      <trkpt lat="47.502031" lon="7.725427">
        <ele>296.799949</ele>
        <time>2021-11-10T22:31:09.018Z</time>
      </trkpt>
      <trkpt lat="47.502048" lon="7.725782">
        <ele>297.102601</ele>
        <time>2021-11-10T22:31:13.066Z</time>
      </trkpt>
      <trkpt lat="47.502115" lon="7.726246">
        <ele>298.534885</ele>
        <time>2021-11-10T22:31:20.101Z</time>
      </trkpt>
      <trkpt lat="47.502122" lon="7.726303">
        <ele>298.709767</ele>
        <time>2021-11-10T22:31:21.234Z</time>
      </trkpt>
      <trkpt lat="47.502177" lon="7.726706">
        <ele>299.950851</ele>
        <time>2021-11-10T22:31:29.296Z</time>
      </trkpt>
      <trkpt lat="47.502189" lon="7.726824">
        <ele>300.311063</ele>
        <time>2021-11-10T22:31:31.917Z</time>
      </trkpt>
      <trkpt lat="47.502204" lon="7.726964">
        <ele>300.738953</ele>
        <time>2021-11-10T22:31:35.411Z</time>
      </trkpt>
      <trkpt lat="47.502370" lon="7.726942">
        <ele>301.483661</ele>
        <time>2021-11-10T22:31:41.342Z</time>
      </trkpt>
      <trkpt lat="47.502557" lon="7.726941">
        <ele>302.319243</ele>
        <time>2021-11-10T22:31:48.606Z</time>
      </trkpt>
      <trkpt lat="47.502785" lon="7.727007">
        <ele>303.357317</ele>
        <time>2021-11-10T22:31:57.931Z</time>
      </trkpt>
      <trkpt lat="47.502897" lon="7.727052">
        <ele>303.875877</ele>
        <time>2021-11-10T22:32:03.220Z</time>
      </trkpt>
      <trkpt lat="47.503012" lon="7.727124">
        <ele>304.433806</ele>
        <time>2021-11-10T22:32:08.753Z</time>
      </trkpt>
      <trkpt lat="47.503252" lon="7.727288">
        <ele>306.560744</ele>
        <time>2021-11-10T22:32:21.495Z</time>
      </trkpt>
      <trkpt lat="47.503612" lon="7.727532">
        <ele>309.949074</ele>
        <time>2021-11-10T22:32:40.285Z</time>
      </trkpt>
      <trkpt lat="47.504330" lon="7.727938">
        <ele>316.526489</ele>
        <time>2021-11-10T22:33:18.739Z</time>
      </trkpt>
      <trkpt lat="47.504693" lon="7.728164">
        <ele>319.896476</ele>
        <time>2021-11-10T22:33:41.259Z</time>
      </trkpt>
      <trkpt lat="47.504979" lon="7.728357">
        <ele>322.326972</ele>
        <time>2021-11-10T22:33:55.770Z</time>
      </trkpt>
      <trkpt lat="47.505256" lon="7.728654">
        <ele>324.963409</ele>
        <time>2021-11-10T22:34:12.095Z</time>
      </trkpt>
      <trkpt lat="47.505279" lon="7.728682">
        <ele>325.192951</ele>
        <time>2021-11-10T22:34:13.525Z</time>
      </trkpt>
      <trkpt lat="47.505304" lon="7.728712">
        <ele>325.441022</ele>
        <time>2021-11-10T22:34:16.415Z</time>
      </trkpt>
      <trkpt lat="47.505472" lon="7.729028">
        <ele>327.534944</ele>
        <time>2021-11-10T22:34:26.876Z</time>
      </trkpt>
      <trkpt lat="47.505554" lon="7.729431">
        <ele>329.726535</ele>
        <time>2021-11-10T22:34:38.648Z</time>
      </trkpt>
      <trkpt lat="47.505566" lon="7.729659">
        <ele>330.917351</ele>
        <time>2021-11-10T22:34:46.034Z</time>
      </trkpt>
      <trkpt lat="47.505576" lon="7.729777">
        <ele>331.536605</ele>
        <time>2021-11-10T22:34:48.853Z</time>
      </trkpt>
      <trkpt lat="47.505600" lon="7.729862">
        <ele>332.016316</ele>
        <time>2021-11-10T22:34:50.721Z</time>
      </trkpt>
      <trkpt lat="47.505610" lon="7.729883">
        <ele>332.150103</ele>
        <time>2021-11-10T22:34:51.596Z</time>
      </trkpt>
      <trkpt lat="47.505698" lon="7.729940">
        <ele>332.890524</ele>
        <time>2021-11-10T22:34:55.178Z</time>
      </trkpt>
      <trkpt lat="47.505786" lon="7.729995">
        <ele>333.626833</ele>
        <time>2021-11-10T22:35:00.093Z</time>
      </trkpt>
      <trkpt lat="47.505964" lon="7.730090">
        <ele>335.297187</ele>
        <time>2021-11-10T22:35:08.049Z</time>
      </trkpt>
      <trkpt lat="47.506098" lon="7.730161">
        <ele>336.580596</ele>
        <time>2021-11-10T22:35:14.814Z</time>
      </trkpt>
      <trkpt lat="47.506194" lon="7.730196">
        <ele>337.472140</ele>
        <time>2021-11-10T22:35:20.206Z</time>
      </trkpt>
      <trkpt lat="47.506263" lon="7.730221">
        <ele>338.112711</ele>
        <time>2021-11-10T22:35:22.858Z</time>
      </trkpt>
      <trkpt lat="47.506380" lon="7.730243">
        <ele>339.176232</ele>
        <time>2021-11-10T22:35:28.434Z</time>
      </trkpt>
      <trkpt lat="47.506471" lon="7.730276">
        <ele>340.021084</ele>
        <time>2021-11-10T22:35:33.406Z</time>
      </trkpt>
      <trkpt lat="47.506756" lon="7.730348">
        <ele>342.628218</ele>
        <time>2021-11-10T22:35:47.443Z</time>
      </trkpt>
      <trkpt lat="47.506937" lon="7.730311">
        <ele>344.275869</ele>
        <time>2021-11-10T22:35:57.048Z</time>
      </trkpt>
      <trkpt lat="47.507701" lon="7.730399">
        <ele>351.508400</ele>
        <time>2021-11-10T22:36:39.370Z</time>
      </trkpt>
      <trkpt lat="47.507939" lon="7.730423">
        <ele>354.273907</ele>
        <time>2021-11-10T22:36:54.297Z</time>
      </trkpt>
      <trkpt lat="47.508551" lon="7.730458">
        <ele>361.374060</ele>
        <time>2021-11-10T22:37:32.952Z</time>
      </trkpt>
      <trkpt lat="47.508949" lon="7.730515">
        <ele>366.009579</ele>
        <time>2021-11-10T22:37:58.236Z</time>
      </trkpt>
      <trkpt lat="47.509109" lon="7.730536">
        <ele>367.871720</ele>
        <time>2021-11-10T22:38:09.590Z</time>
      </trkpt>
      <trkpt lat="47.509299" lon="7.730556">
        <ele>370.079933</ele>
        <time>2021-11-10T22:38:20.782Z</time>
      </trkpt>
      <trkpt lat="47.509971" lon="7.730436">
        <ele>377.043493</ele>
        <time>2021-11-10T22:39:00.412Z</time>
      </trkpt>
      <trkpt lat="47.510248" lon="7.730401">
        <ele>379.860740</ele>
        <time>2021-11-10T22:39:15.541Z</time>
      </trkpt>
      <trkpt lat="47.510439" lon="7.730517">
        <ele>381.952814</ele>
        <time>2021-11-10T22:39:25.474Z</time>
      </trkpt>
      <trkpt lat="47.510529" lon="7.730600">
        <ele>383.027325</ele>
        <time>2021-11-10T22:39:32.415Z</time>
      </trkpt>
      <trkpt lat="47.510582" lon="7.730653">
        <ele>383.675454</ele>
        <time>2021-11-10T22:39:36.070Z</time>
      </trkpt>
      <trkpt lat="47.510894" lon="7.730938">
        <ele>387.390563</ele>
        <time>2021-11-10T22:39:54.361Z</time>
      </trkpt>
      <trkpt lat="47.511169" lon="7.731160">
        <ele>390.371268</ele>
        <time>2021-11-10T22:40:10.117Z</time>
      </trkpt>
      <trkpt lat="47.511556" lon="7.731396">
        <ele>394.038504</ele>
        <time>2021-11-10T22:40:33.971Z</time>
      </trkpt>
      <trkpt lat="47.511744" lon="7.731418">
        <ele>395.690878</ele>
        <time>2021-11-10T22:40:43.774Z</time>
      </trkpt>
      <trkpt lat="47.511927" lon="7.731386">
        <ele>397.305450</ele>
        <time>2021-11-10T22:40:54.856Z</time>
      </trkpt>
      <trkpt lat="47.511976" lon="7.731370">
        <ele>397.745101</ele>
        <time>2021-11-10T22:40:56.928Z</time>
      </trkpt>
      <trkpt lat="47.512002" lon="7.731362">
        <ele>397.977778</ele>
        <time>2021-11-10T22:40:58.144Z</time>
      </trkpt>
      <trkpt lat="47.512392" lon="7.731255">
        <ele>401.453094</ele>
        <time>2021-11-10T22:41:17.176Z</time>
      </trkpt>
      <trkpt lat="47.512650" lon="7.731136">
        <ele>403.820822</ele>
        <time>2021-11-10T22:41:29.608Z</time>
      </trkpt>
      <trkpt lat="47.512937" lon="7.731121">
        <ele>405.514887</ele>
        <time>2021-11-10T22:41:42.571Z</time>
      </trkpt>
      <trkpt lat="47.513227" lon="7.731116">
        <ele>406.606879</ele>
        <time>2021-11-10T22:41:54.041Z</time>
      </trkpt>
      <trkpt lat="47.514180" lon="7.731076">
        <ele>410.196590</ele>
        <time>2021-11-10T22:42:21.852Z</time>
      </trkpt>
      <trkpt lat="47.514358" lon="7.731113">
        <ele>410.873375</ele>
        <time>2021-11-10T22:42:25.850Z</time>
      </trkpt>
      <trkpt lat="47.515097" lon="7.731253">
        <ele>410.111130</ele>
        <time>2021-11-10T22:42:36.412Z</time>
      </trkpt>
      <trkpt lat="47.515284" lon="7.731353">
        <ele>409.531670</ele>
        <time>2021-11-10T22:42:39.184Z</time>
      </trkpt>
      <trkpt lat="47.515400" lon="7.731439">
        <ele>409.153580</ele>
        <time>2021-11-10T22:42:40.640Z</time>
      </trkpt>
      <trkpt lat="47.515516" lon="7.731602">
        <ele>408.687491</ele>
        <time>2021-11-10T22:42:42.239Z</time>
      </trkpt>
      <trkpt lat="47.515609" lon="7.731738">
        <ele>408.306534</ele>
        <time>2021-11-10T22:42:43.615Z</time>
      </trkpt>
      <trkpt lat="47.515656" lon="7.731823">
        <ele>408.090300</ele>
        <time>2021-11-10T22:42:44.359Z</time>
      </trkpt>
      <trkpt lat="47.515788" lon="7.732081">
        <ele>407.453194</ele>
        <time>2021-11-10T22:42:46.378Z</time>
      </trkpt>
      <trkpt lat="47.516143" lon="7.733008">
        <ele>403.295939</ele>
        <time>2021-11-10T22:42:52.802Z</time>
      </trkpt>
      <trkpt lat="47.516252" lon="7.733231">
        <ele>401.711114</ele>
        <time>2021-11-10T22:42:54.457Z</time>
      </trkpt>
      <trkpt lat="47.516307" lon="7.733325">
        <ele>400.995088</ele>
        <time>2021-11-10T22:42:55.171Z</time>
      </trkpt>
      <trkpt lat="47.516479" lon="7.733615">
        <ele>398.773079</ele>
        <time>2021-11-10T22:42:57.516Z</time>
      </trkpt>
      <trkpt lat="47.516777" lon="7.734159">
        <ele>394.740460</ele>
        <time>2021-11-10T22:43:01.604Z</time>
      </trkpt>
      <trkpt lat="47.517043" lon="7.734808">
        <ele>390.454233</ele>
        <time>2021-11-10T22:43:06.011Z</time>
      </trkpt>
      <trkpt lat="47.517532" lon="7.736243">
        <ele>382.280381</ele>
        <time>2021-11-10T22:43:15.442Z</time>
      </trkpt>
      <trkpt lat="47.517709" lon="7.736646">
        <ele>379.835726</ele>
        <time>2021-11-10T22:43:18.454Z</time>
      </trkpt>
      <trkpt lat="47.517827" lon="7.736889">
        <ele>378.313714</ele>
        <time>2021-11-10T22:43:20.367Z</time>
      </trkpt>
      <trkpt lat="47.518829" lon="7.738474">
        <ele>373.965105</ele>
        <time>2021-11-10T22:43:35.640Z</time>
      </trkpt>
      <trkpt lat="47.519284" lon="7.738961">
        <ele>372.423398</ele>
        <time>2021-11-10T22:43:42.587Z</time>
      </trkpt>
      <trkpt lat="47.519623" lon="7.739293">
        <ele>371.142000</ele>
        <time>2021-11-10T22:43:47.085Z</time>
      </trkpt>
      <trkpt lat="47.519931" lon="7.739563">
        <ele>370.013545</ele>
        <time>2021-11-10T22:43:50.880Z</time>
      </trkpt>
      <trkpt lat="47.520226" lon="7.739816">
        <ele>368.938751</ele>
        <time>2021-11-10T22:43:54.376Z</time>
      </trkpt>
      <trkpt lat="47.520523" lon="7.740087">
        <ele>367.838885</ele>
        <time>2021-11-10T22:43:59.278Z</time>
      </trkpt>
      <trkpt lat="47.520998" lon="7.740513">
        <ele>364.603337</ele>
        <time>2021-11-10T22:44:06.680Z</time>
      </trkpt>
      <trkpt lat="47.521267" lon="7.740757">
        <ele>362.224563</ele>
        <time>2021-11-10T22:44:10.734Z</time>
      </trkpt>
      <trkpt lat="47.522060" lon="7.741467">
        <ele>355.236686</ele>
        <time>2021-11-10T22:44:22.318Z</time>
      </trkpt>
      <trkpt lat="47.522380" lon="7.741760">
        <ele>352.114644</ele>
        <time>2021-11-10T22:44:26.945Z</time>
      </trkpt>
      <trkpt lat="47.522575" lon="7.741928">
        <ele>350.006773</ele>
        <time>2021-11-10T22:44:29.702Z</time>
      </trkpt>
      <trkpt lat="47.522769" lon="7.742227">
        <ele>347.390548</ele>
        <time>2021-11-10T22:44:33.209Z</time>
      </trkpt>
      <trkpt lat="47.522802" lon="7.742354">
        <ele>346.531964</ele>
        <time>2021-11-10T22:44:34.302Z</time>
      </trkpt>
      <trkpt lat="47.522809" lon="7.742436">
        <ele>346.010465</ele>
        <time>2021-11-10T22:44:34.989Z</time>
      </trkpt>
      <trkpt lat="47.522797" lon="7.742883">
        <ele>343.187879</ele>
        <time>2021-11-10T22:44:38.656Z</time>
      </trkpt>
      <trkpt lat="47.522763" lon="7.743129">
        <ele>341.603559</ele>
        <time>2021-11-10T22:44:40.776Z</time>
      </trkpt>
      <trkpt lat="47.522741" lon="7.743405">
        <ele>339.850038</ele>
        <time>2021-11-10T22:44:43.008Z</time>
      </trkpt>
      <trkpt lat="47.522718" lon="7.743713">
        <ele>337.894855</ele>
        <time>2021-11-10T22:44:45.622Z</time>
      </trkpt>
      <trkpt lat="47.522759" lon="7.744390">
        <ele>334.618211</ele>
        <time>2021-11-10T22:44:51.340Z</time>
      </trkpt>
      <trkpt lat="47.522842" lon="7.744668">
        <ele>333.310691</ele>
        <time>2021-11-10T22:44:54.016Z</time>
      </trkpt>
      <trkpt lat="47.522934" lon="7.744789">
        <ele>332.526879</ele>
        <time>2021-11-10T22:44:55.564Z</time>
      </trkpt>
      <trkpt lat="47.523159" lon="7.744998">
        <ele>330.834992</ele>
        <time>2021-11-10T22:44:59.236Z</time>
      </trkpt>
      <trkpt lat="47.523167" lon="7.745068">
        <ele>330.529597</ele>
        <time>2021-11-10T22:44:59.835Z</time>
      </trkpt>
      <trkpt lat="47.523193" lon="7.745320">
        <ele>329.433012</ele>
        <time>2021-11-10T22:45:02.106Z</time>
      </trkpt>
      <trkpt lat="47.523198" lon="7.745377">
        <ele>329.185760</ele>
        <time>2021-11-10T22:45:02.659Z</time>
      </trkpt>
      <trkpt lat="47.523204" lon="7.745491">
        <ele>328.693889</ele>
        <time>2021-11-10T22:45:03.748Z</time>
      </trkpt>
      <trkpt lat="47.523239" lon="7.745774">
        <ele>327.456286</ele>
        <time>2021-11-10T22:45:06.299Z</time>
      </trkpt>
      <trkpt lat="47.523291" lon="7.746042">
        <ele>326.256812</ele>
        <time>2021-11-10T22:45:08.855Z</time>
      </trkpt>
      <trkpt lat="47.523619" lon="7.747020">
        <ele>323.853413</ele>
        <time>2021-11-10T22:45:18.618Z</time>
      </trkpt>
      <trkpt lat="47.523642" lon="7.747090">
        <ele>323.722325</ele>
        <time>2021-11-10T22:45:19.477Z</time>
      </trkpt>
      <trkpt lat="47.523682" lon="7.747182">
        <ele>323.538068</ele>
        <time>2021-11-10T22:45:20.532Z</time>
      </trkpt>
      <trkpt lat="47.523736" lon="7.747262">
        <ele>323.347592</ele>
        <time>2021-11-10T22:45:21.785Z</time>
      </trkpt>
      <trkpt lat="47.523866" lon="7.747399">
        <ele>322.949706</ele>
        <time>2021-11-10T22:45:24.233Z</time>
      </trkpt>
      <trkpt lat="47.524008" lon="7.747563">
        <ele>322.500646</ele>
        <time>2021-11-10T22:45:27.307Z</time>
      </trkpt>
      <trkpt lat="47.524137" lon="7.747681">
        <ele>322.122541</ele>
        <time>2021-11-10T22:45:29.841Z</time>
      </trkpt>
      <trkpt lat="47.524148" lon="7.747688">
        <ele>322.092685</ele>
        <time>2021-11-10T22:45:29.991Z</time>
      </trkpt>
      <trkpt lat="47.524248" lon="7.747742">
        <ele>321.827256</ele>
        <time>2021-11-10T22:45:31.893Z</time>
      </trkpt>
      <trkpt lat="47.524334" lon="7.747786">
        <ele>321.600362</ele>
        <time>2021-11-10T22:45:33.437Z</time>
      </trkpt>
      <trkpt lat="47.524410" lon="7.747828">
        <ele>321.398076</ele>
        <time>2021-11-10T22:45:35.044Z</time>
      </trkpt>
      <trkpt lat="47.524463" lon="7.747889">
        <ele>321.230688</ele>
        <time>2021-11-10T22:45:36.354Z</time>
      </trkpt>
      <trkpt lat="47.524570" lon="7.748090">
        <ele>320.899260</ele>
        <time>2021-11-10T22:45:39.840Z</time>
      </trkpt>
      <trkpt lat="47.524712" lon="7.748378">
        <ele>321.653754</ele>
        <time>2021-11-10T22:45:45.799Z</time>
      </trkpt>
      <trkpt lat="47.524786" lon="7.748513">
        <ele>322.021647</ele>
        <time>2021-11-10T22:45:48.265Z</time>
      </trkpt>
      <trkpt lat="47.525255" lon="7.749393">
        <ele>324.393573</ele>
        <time>2021-11-10T22:46:06.451Z</time>
      </trkpt>
      <trkpt lat="47.525385" lon="7.749630">
        <ele>325.039600</ele>
        <time>2021-11-10T22:46:13.258Z</time>
      </trkpt>
      <trkpt lat="47.525580" lon="7.749961">
        <ele>325.968979</ele>
        <time>2021-11-10T22:46:24.679Z</time>
      </trkpt>
      <trkpt lat="47.525813" lon="7.750584">
        <ele>328.525504</ele>
        <time>2021-11-10T22:46:44.623Z</time>
      </trkpt>
      <trkpt lat="47.525988" lon="7.751788">
        <ele>333.876544</ele>
        <time>2021-11-10T22:47:20.782Z</time>
      </trkpt>
      <trkpt lat="47.526070" lon="7.752392">
        <ele>336.553353</ele>
        <time>2021-11-10T22:47:36.396Z</time>
      </trkpt>
      <trkpt lat="47.526097" lon="7.752774">
        <ele>338.176556</ele>
        <time>2021-11-10T22:47:46.850Z</time>
      </trkpt>
      <trkpt lat="47.526034" lon="7.753359">
        <ele>340.058229</ele>
        <time>2021-11-10T22:48:01.904Z</time>
      </trkpt>
      <trkpt lat="47.525729" lon="7.754383">
        <ele>343.613234</ele>
        <time>2021-11-10T22:48:29.435Z</time>
      </trkpt>
      <trkpt lat="47.525697" lon="7.754492">
        <ele>343.990770</ele>
        <time>2021-11-10T22:48:32.790Z</time>
      </trkpt>
      <trkpt lat="47.525680" lon="7.754706">
        <ele>344.675210</ele>
        <time>2021-11-10T22:48:37.765Z</time>
      </trkpt>
      <trkpt lat="47.525656" lon="7.755020">
        <ele>345.678974</ele>
        <time>2021-11-10T22:48:44.279Z</time>
      </trkpt>
      <trkpt lat="47.525757" lon="7.755768">
        <ele>346.832470</ele>
        <time>2021-11-10T22:48:55.418Z</time>
      </trkpt>
      <trkpt lat="47.526120" lon="7.757265">
        <ele>347.847260</ele>
        <time>2021-11-10T22:49:13.893Z</time>
      </trkpt>
      <trkpt lat="47.526153" lon="7.757413">
        <ele>347.946697</ele>
        <time>2021-11-10T22:49:15.207Z</time>
      </trkpt>
      <trkpt lat="47.526178" lon="7.757679">
        <ele>348.118039</ele>
        <time>2021-11-10T22:49:17.631Z</time>
      </trkpt>
      <trkpt lat="47.526183" lon="7.758165">
        <ele>348.406754</ele>
        <time>2021-11-10T22:49:22.054Z</time>
      </trkpt>
      <trkpt lat="47.525838" lon="7.761399">
        <ele>351.279236</ele>
        <time>2021-11-10T22:50:04.816Z</time>
      </trkpt>
      <trkpt lat="47.525345" lon="7.763741">
        <ele>355.774029</ele>
        <time>2021-11-10T22:50:50.048Z</time>
      </trkpt>
      <trkpt lat="47.525032" lon="7.765894">
        <ele>360.820298</ele>
        <time>2021-11-10T22:51:33.654Z</time>
      </trkpt>
      <trkpt lat="47.524311" lon="7.768460">
        <ele>365.752102</ele>
        <time>2021-11-10T22:52:25.264Z</time>
      </trkpt>
      <trkpt lat="47.523940" lon="7.769974">
        <ele>365.900635</ele>
        <time>2021-11-10T22:52:41.408Z</time>
      </trkpt>
      <trkpt lat="47.523901" lon="7.770269">
        <ele>365.928358</ele>
        <time>2021-11-10T22:52:43.785Z</time>
      </trkpt>
      <trkpt lat="47.523815" lon="7.771108">
        <ele>365.341203</ele>
        <time>2021-11-10T22:52:49.973Z</time>
      </trkpt>
      <trkpt lat="47.523740" lon="7.771774">
        <ele>364.483177</ele>
        <time>2021-11-10T22:52:54.939Z</time>
      </trkpt>
      <trkpt lat="47.523683" lon="7.772233">
        <ele>363.890107</ele>
        <time>2021-11-10T22:52:58.230Z</time>
      </trkpt>
      <trkpt lat="47.523647" lon="7.772437">
        <ele>363.622162</ele>
        <time>2021-11-10T22:52:59.835Z</time>
      </trkpt>
      <trkpt lat="47.523369" lon="7.773349">
        <ele>362.622945</ele>
        <time>2021-11-10T22:53:07.336Z</time>
      </trkpt>
      <trkpt lat="47.523161" lon="7.774016">
        <ele>362.813259</ele>
        <time>2021-11-10T22:53:13.892Z</time>
      </trkpt>
      <trkpt lat="47.523142" lon="7.774075">
        <ele>362.830191</ele>
        <time>2021-11-10T22:53:14.453Z</time>
      </trkpt>
      <trkpt lat="47.523123" lon="7.774135">
        <ele>362.847358</ele>
        <time>2021-11-10T22:53:15.025Z</time>
      </trkpt>
      <trkpt lat="47.522943" lon="7.774683">
        <ele>363.005215</ele>
        <time>2021-11-10T22:53:22.647Z</time>
      </trkpt>
      <trkpt lat="47.522278" lon="7.777671">
        <ele>365.815302</ele>
        <time>2021-11-10T22:54:07.406Z</time>
      </trkpt>
      <trkpt lat="47.522048" lon="7.778683">
        <ele>367.391999</ele>
        <time>2021-11-10T22:54:25.129Z</time>
      </trkpt>
      <trkpt lat="47.521630" lon="7.780058">
        <ele>370.035678</ele>
        <time>2021-11-10T22:54:51.558Z</time>
      </trkpt>
      <trkpt lat="47.521125" lon="7.781677">
        <ele>372.957282</ele>
        <time>2021-11-10T22:55:21.710Z</time>
      </trkpt>
      <trkpt lat="47.521119" lon="7.781693">
        <ele>372.986157</ele>
        <time>2021-11-10T22:55:21.983Z</time>
      </trkpt>
      <trkpt lat="47.520998" lon="7.782108">
        <ele>373.699348</ele>
        <time>2021-11-10T22:55:29.087Z</time>
      </trkpt>
      <trkpt lat="47.520818" lon="7.782702">
        <ele>374.726569</ele>
        <time>2021-11-10T22:55:38.860Z</time>
      </trkpt>
      <trkpt lat="47.520762" lon="7.782884">
        <ele>375.042125</ele>
        <time>2021-11-10T22:55:42.238Z</time>
      </trkpt>
      <trkpt lat="47.520739" lon="7.782957">
        <ele>375.169220</ele>
        <time>2021-11-10T22:55:43.571Z</time>
      </trkpt>
      <trkpt lat="47.520719" lon="7.783093">
        <ele>375.416823</ele>
        <time>2021-11-10T22:55:45.629Z</time>
      </trkpt>
      <trkpt lat="47.520716" lon="7.783202">
        <ele>375.655079</ele>
        <time>2021-11-10T22:55:47.320Z</time>
      </trkpt>
      <trkpt lat="47.520737" lon="7.783291">
        <ele>375.860980</ele>
        <time>2021-11-10T22:55:48.936Z</time>
      </trkpt>
      <trkpt lat="47.520781" lon="7.783406">
        <ele>376.149652</ele>
        <time>2021-11-10T22:55:51.456Z</time>
      </trkpt>
      <trkpt lat="47.520820" lon="7.783467">
        <ele>376.333111</ele>
        <time>2021-11-10T22:55:52.838Z</time>
      </trkpt>
      <trkpt lat="47.520922" lon="7.783585">
        <ele>376.751719</ele>
        <time>2021-11-10T22:55:55.757Z</time>
      </trkpt>
      <trkpt lat="47.520988" lon="7.783660">
        <ele>377.020774</ele>
        <time>2021-11-10T22:55:57.858Z</time>
      </trkpt>
      <trkpt lat="47.521073" lon="7.783756">
        <ele>377.366499</ele>
        <time>2021-11-10T22:56:01.093Z</time>
      </trkpt>
      <trkpt lat="47.521184" lon="7.784076">
        <ele>378.152185</ele>
        <time>2021-11-10T22:56:07.264Z</time>
      </trkpt>
      <trkpt lat="47.521251" lon="7.784408">
        <ele>378.908959</ele>
        <time>2021-11-10T22:56:13.847Z</time>
      </trkpt>
      <trkpt lat="47.521340" lon="7.785091">
        <ele>380.428148</ele>
        <time>2021-11-10T22:56:27.463Z</time>
      </trkpt>
      <trkpt lat="47.521359" lon="7.785235">
        <ele>380.748590</ele>
        <time>2021-11-10T22:56:30.619Z</time>
      </trkpt>
      <trkpt lat="47.521411" lon="7.785651">
        <ele>381.997840</ele>
        <time>2021-11-10T22:56:39.518Z</time>
      </trkpt>
      <trkpt lat="47.521481" lon="7.786063">
        <ele>383.484881</ele>
        <time>2021-11-10T22:56:49.934Z</time>
      </trkpt>
      <trkpt lat="47.521561" lon="7.786302">
        <ele>384.418564</ele>
        <time>2021-11-10T22:56:56.192Z</time>
      </trkpt>
      <trkpt lat="47.521925" lon="7.787242">
        <ele>388.211319</ele>
        <time>2021-11-10T22:57:23.087Z</time>
      </trkpt>
      <trkpt lat="47.521639" lon="7.787535">
        <ele>390.013880</ele>
        <time>2021-11-10T22:57:35.811Z</time>
      </trkpt>
      <trkpt lat="47.521453" lon="7.787715">
        <ele>391.320460</ele>
        <time>2021-11-10T22:57:44.554Z</time>
      </trkpt>
      <trkpt lat="47.521099" lon="7.788048">
        <ele>393.968387</ele>
        <time>2021-11-10T22:58:00.030Z</time>
      </trkpt>
      <trkpt lat="47.520866" lon="7.788410">
        <ele>396.100653</ele>
        <time>2021-11-10T22:58:13.184Z</time>
      </trkpt>
      <trkpt lat="47.520775" lon="7.788985">
        <ele>398.618778</ele>
        <time>2021-11-10T22:58:29.153Z</time>
      </trkpt>
      <trkpt lat="47.520746" lon="7.789717">
        <ele>401.745272</ele>
        <time>2021-11-10T22:58:50.041Z</time>
      </trkpt>
      <trkpt lat="47.520783" lon="7.790185">
        <ele>404.595830</ele>
        <time>2021-11-10T22:59:04.101Z</time>
      </trkpt>
      <trkpt lat="47.521043" lon="7.791054">
        <ele>410.403809</ele>
        <time>2021-11-10T22:59:35.422Z</time>
      </trkpt>
      <trkpt lat="47.521374" lon="7.793903">
        <ele>428.747665</ele>
        <time>2021-11-10T23:01:25.233Z</time>
      </trkpt>
      <trkpt lat="47.521460" lon="7.795630">
        <ele>436.981219</ele>
        <time>2021-11-10T23:02:24.353Z</time>
      </trkpt>
      <trkpt lat="47.521488" lon="7.796167">
        <ele>438.141899</ele>
        <time>2021-11-10T23:02:37.189Z</time>
      </trkpt>
      <trkpt lat="47.521531" lon="7.796461">
        <ele>438.790159</ele>
        <time>2021-11-10T23:02:43.036Z</time>
      </trkpt>
      <trkpt lat="47.521832" lon="7.798025">
        <ele>438.679665</ele>
        <time>2021-11-10T23:02:56.551Z</time>
      </trkpt>
      <trkpt lat="47.521886" lon="7.798500">
        <ele>436.263284</ele>
        <time>2021-11-10T23:02:59.519Z</time>
      </trkpt>
      <trkpt lat="47.522709" lon="7.800072">
        <ele>425.346255</ele>
        <time>2021-11-10T23:03:11.093Z</time>
      </trkpt>
      <trkpt lat="47.522938" lon="7.800180">
        <ele>422.487996</ele>
        <time>2021-11-10T23:03:13.135Z</time>
      </trkpt>
      <trkpt lat="47.524111" lon="7.800323">
        <ele>408.490436</ele>
        <time>2021-11-10T23:03:23.038Z</time>
      </trkpt>
      <trkpt lat="47.524301" lon="7.800420">
        <ele>406.081100</ele>
        <time>2021-11-10T23:03:24.745Z</time>
      </trkpt>
      <trkpt lat="47.524601" lon="7.800707">
        <ele>401.604642</ele>
        <time>2021-11-10T23:03:27.770Z</time>
      </trkpt>
      <trkpt lat="47.524909" lon="7.800963">
        <ele>397.177801</ele>
        <time>2021-11-10T23:03:30.774Z</time>
      </trkpt>
      <trkpt lat="47.525009" lon="7.801022">
        <ele>395.828626</ele>
        <time>2021-11-10T23:03:31.672Z</time>
      </trkpt>
      <trkpt lat="47.525322" lon="7.801334">
        <ele>391.099665</ele>
        <time>2021-11-10T23:03:34.836Z</time>
      </trkpt>
      <trkpt lat="47.525644" lon="7.801949">
        <ele>384.513279</ele>
        <time>2021-11-10T23:03:39.263Z</time>
      </trkpt>
      <trkpt lat="47.526184" lon="7.802422">
        <ele>376.831059</ele>
        <time>2021-11-10T23:03:44.533Z</time>
      </trkpt>
      <trkpt lat="47.526229" lon="7.802508">
        <ele>375.933232</ele>
        <time>2021-11-10T23:03:45.143Z</time>
      </trkpt>
      <trkpt lat="47.526305" lon="7.802747">
        <ele>373.753206</ele>
        <time>2021-11-10T23:03:46.667Z</time>
      </trkpt>
      <trkpt lat="47.526435" lon="7.803139">
        <ele>370.149278</ele>
        <time>2021-11-10T23:03:49.175Z</time>
      </trkpt>
      <trkpt lat="47.526766" lon="7.803728">
        <ele>363.825708</ele>
        <time>2021-11-10T23:03:53.598Z</time>
      </trkpt>
      <trkpt lat="47.526827" lon="7.803877">
        <ele>362.387806</ele>
        <time>2021-11-10T23:03:54.571Z</time>
      </trkpt>
      <trkpt lat="47.526931" lon="7.804130">
        <ele>360.191635</ele>
        <time>2021-11-10T23:03:56.251Z</time>
      </trkpt>
      <trkpt lat="47.527195" lon="7.804775">
        <ele>354.744167</ele>
        <time>2021-11-10T23:04:00.533Z</time>
      </trkpt>
      <trkpt lat="47.527223" lon="7.804962">
        <ele>353.360770</ele>
        <time>2021-11-10T23:04:01.621Z</time>
      </trkpt>
      <trkpt lat="47.527187" lon="7.805916">
        <ele>346.459843</ele>
        <time>2021-11-10T23:04:07.198Z</time>
      </trkpt>
      <trkpt lat="47.527192" lon="7.805999">
        <ele>345.858002</ele>
        <time>2021-11-10T23:04:07.662Z</time>
      </trkpt>
      <trkpt lat="47.527215" lon="7.806158">
        <ele>344.683584</ele>
        <time>2021-11-10T23:04:08.652Z</time>
      </trkpt>
      <trkpt lat="47.527250" lon="7.806264">
        <ele>343.831380</ele>
        <time>2021-11-10T23:04:09.393Z</time>
      </trkpt>
      <trkpt lat="47.527311" lon="7.806422">
        <ele>342.601891</ele>
        <time>2021-11-10T23:04:10.466Z</time>
      </trkpt>
      <trkpt lat="47.527350" lon="7.806547">
        <ele>342.086933</ele>
        <time>2021-11-10T23:04:11.247Z</time>
      </trkpt>
      <trkpt lat="47.527401" lon="7.806802">
        <ele>341.092346</ele>
        <time>2021-11-10T23:04:12.922Z</time>
      </trkpt>
      <trkpt lat="47.527414" lon="7.806940">
        <ele>340.571263</ele>
        <time>2021-11-10T23:04:13.736Z</time>
      </trkpt>
      <trkpt lat="47.527456" lon="7.807830">
        <ele>337.234775</ele>
        <time>2021-11-10T23:04:19.207Z</time>
      </trkpt>
      <trkpt lat="47.527503" lon="7.808275">
        <ele>335.550357</ele>
        <time>2021-11-10T23:04:22.004Z</time>
      </trkpt>
      <trkpt lat="47.527634" lon="7.808204">
        <ele>334.777765</ele>
        <time>2021-11-10T23:04:24.063Z</time>
      </trkpt>
      <trkpt lat="47.527822" lon="7.807933">
        <ele>333.324750</ele>
        <time>2021-11-10T23:04:28.110Z</time>
      </trkpt>
      <trkpt lat="47.527990" lon="7.807693">
        <ele>332.499898</ele>
        <time>2021-11-10T23:04:31.790Z</time>
      </trkpt>
      <trkpt lat="47.528101" lon="7.807533">
        <ele>332.215833</ele>
        <time>2021-11-10T23:04:34.373Z</time>
      </trkpt>
      <trkpt lat="47.528363" lon="7.807158">
        <ele>331.547629</ele>
        <time>2021-11-10T23:04:40.614Z</time>
      </trkpt>
      <trkpt lat="47.528486" lon="7.806982">
        <ele>331.233974</ele>
        <time>2021-11-10T23:04:43.625Z</time>
      </trkpt>
      <trkpt lat="47.528826" lon="7.806494">
        <ele>330.365673</ele>
        <time>2021-11-10T23:04:51.456Z</time>
      </trkpt>
      <trkpt lat="47.529482" lon="7.805461">
        <ele>327.981584</ele>
        <time>2021-11-10T23:05:06.452Z</time>
      </trkpt>
      <trkpt lat="47.529649" lon="7.805203">
        <ele>327.201407</ele>
        <time>2021-11-10T23:05:09.922Z</time>
      </trkpt>
      <trkpt lat="47.529834" lon="7.804969">
        <ele>326.414875</ele>
        <time>2021-11-10T23:05:13.315Z</time>
      </trkpt>
      <trkpt lat="47.529928" lon="7.804900">
        <ele>326.075701</ele>
        <time>2021-11-10T23:05:14.816Z</time>
      </trkpt>
      <trkpt lat="47.530103" lon="7.804771">
        <ele>325.443732</ele>
        <time>2021-11-10T23:05:17.497Z</time>
      </trkpt>
      <trkpt lat="47.530366" lon="7.804683">
        <ele>324.572040</ele>
        <time>2021-11-10T23:05:21.355Z</time>
      </trkpt>
      <trkpt lat="47.530664" lon="7.804655">
        <ele>323.613849</ele>
        <time>2021-11-10T23:05:25.527Z</time>
      </trkpt>
      <trkpt lat="47.531122" lon="7.804821">
        <ele>323.045208</ele>
        <time>2021-11-10T23:05:32.477Z</time>
      </trkpt>
      <trkpt lat="47.531148" lon="7.804834">
        <ele>323.012114</ele>
        <time>2021-11-10T23:05:32.829Z</time>
      </trkpt>
      <trkpt lat="47.531459" lon="7.805000">
        <ele>322.613438</ele>
        <time>2021-11-10T23:05:38.601Z</time>
      </trkpt>
      <trkpt lat="47.531549" lon="7.805047">
        <ele>322.498350</ele>
        <time>2021-11-10T23:05:40.091Z</time>
      </trkpt>
      <trkpt lat="47.531684" lon="7.805128">
        <ele>322.322689</ele>
        <time>2021-11-10T23:05:43.148Z</time>
      </trkpt>
      <trkpt lat="47.531901" lon="7.805311">
        <ele>322.021541</ele>
        <time>2021-11-10T23:05:47.617Z</time>
      </trkpt>
      <trkpt lat="47.532130" lon="7.805651">
        <ele>321.630498</ele>
        <time>2021-11-10T23:05:54.194Z</time>
      </trkpt>
      <trkpt lat="47.532253" lon="7.805913">
        <ele>321.493544</ele>
        <time>2021-11-10T23:05:59.668Z</time>
      </trkpt>
      <trkpt lat="47.532546" lon="7.806703">
        <ele>321.911317</ele>
        <time>2021-11-10T23:06:14.236Z</time>
      </trkpt>
      <trkpt lat="47.533091" lon="7.806305">
        <ele>322.328460</ele>
        <time>2021-11-10T23:06:29.024Z</time>
      </trkpt>
      <trkpt lat="47.533723" lon="7.806018">
        <ele>322.681462</ele>
        <time>2021-11-10T23:06:43.696Z</time>
      </trkpt>
      <trkpt lat="47.534648" lon="7.805785">
        <ele>322.666712</ele>
        <time>2021-11-10T23:07:01.613Z</time>
      </trkpt>
      <trkpt lat="47.534894" lon="7.805725">
        <ele>322.662793</ele>
        <time>2021-11-10T23:07:06.355Z</time>
      </trkpt>
      <trkpt lat="47.535092" lon="7.805671">
        <ele>322.659628</ele>
        <time>2021-11-10T23:07:10.719Z</time>
      </trkpt>
      <trkpt lat="47.535828" lon="7.805308">
        <ele>322.790677</ele>
        <time>2021-11-10T23:07:26.964Z</time>
      </trkpt>
      <trkpt lat="47.536875" lon="7.804558">
        <ele>323.099338</ele>
        <time>2021-11-10T23:07:52.896Z</time>
      </trkpt>
      <trkpt lat="47.537755" lon="7.803639">
        <ele>322.700359</ele>
        <time>2021-11-10T23:08:13.420Z</time>
      </trkpt>
      <trkpt lat="47.538164" lon="7.803170">
        <ele>322.465070</ele>
        <time>2021-11-10T23:08:22.996Z</time>
      </trkpt>
      <trkpt lat="47.538256" lon="7.803059">
        <ele>322.411093</ele>
        <time>2021-11-10T23:08:24.891Z</time>
      </trkpt>
      <trkpt lat="47.539986" lon="7.800707">
        <ele>320.884628</ele>
        <time>2021-11-10T23:09:06.147Z</time>
      </trkpt>
      <trkpt lat="47.540006" lon="7.800680">
        <ele>320.893839</ele>
        <time>2021-11-10T23:09:06.486Z</time>
      </trkpt>
      <trkpt lat="47.540192" lon="7.800458">
        <ele>320.975147</ele>
        <time>2021-11-10T23:09:11.662Z</time>
      </trkpt>
      <trkpt lat="47.540192" lon="7.800458">
        <ele>320.975147</ele>
        <time>2021-11-10T23:09:11.670Z</time>
      </trkpt>
      <trkpt lat="47.540260" lon="7.800353">
        <ele>321.008582</ele>
        <time>2021-11-10T23:09:14.732Z</time>
      </trkpt>
      <trkpt lat="47.540644" lon="7.800163">
        <ele>321.146392</ele>
        <time>2021-11-10T23:09:23.349Z</time>
      </trkpt>
      <trkpt lat="47.540897" lon="7.800171">
        <ele>321.232531</ele>
        <time>2021-11-10T23:09:29.681Z</time>
      </trkpt>
      <trkpt lat="47.541705" lon="7.800028">
        <ele>321.234694</ele>
        <time>2021-11-10T23:09:49.826Z</time>
      </trkpt>
      <trkpt lat="47.542307" lon="7.799830">
        <ele>320.992178</ele>
        <time>2021-11-10T23:10:04.799Z</time>
      </trkpt>
      <trkpt lat="47.542998" lon="7.799859">
        <ele>320.720317</ele>
        <time>2021-11-10T23:10:17.028Z</time>
      </trkpt>
      <trkpt lat="47.544071" lon="7.799629">
        <ele>315.679661</ele>
        <time>2021-11-10T23:10:31.951Z</time>
      </trkpt>
      <trkpt lat="47.544184" lon="7.799620">
        <ele>315.095766</ele>
        <time>2021-11-10T23:10:33.339Z</time>
      </trkpt>
      <trkpt lat="47.544345" lon="7.799570">
        <ele>314.246986</ele>
        <time>2021-11-10T23:10:35.534Z</time>
      </trkpt>
      <trkpt lat="47.544568" lon="7.799371">
        <ele>312.903730</ele>
        <time>2021-11-10T23:10:38.891Z</time>
      </trkpt>
      <trkpt lat="47.544749" lon="7.799388">
        <ele>311.967938</ele>
        <time>2021-11-10T23:10:41.333Z</time>
      </trkpt>
      <trkpt lat="47.544827" lon="7.799356">
        <ele>311.550329</ele>
        <time>2021-11-10T23:10:42.315Z</time>
      </trkpt>
      <trkpt lat="47.545096" lon="7.799250">
        <ele>310.168069</ele>
        <time>2021-11-10T23:10:46.035Z</time>
      </trkpt>
      <trkpt lat="47.545182" lon="7.799205">
        <ele>309.717310</ele>
        <time>2021-11-10T23:10:47.132Z</time>
      </trkpt>
      <trkpt lat="47.545396" lon="7.798977">
        <ele>308.414583</ele>
        <time>2021-11-10T23:10:50.673Z</time>
      </trkpt>
      <trkpt lat="47.545449" lon="7.798705">
        <ele>307.470142</ele>
        <time>2021-11-10T23:10:53.074Z</time>
      </trkpt>
      <trkpt lat="47.545511" lon="7.798680">
        <ele>307.152580</ele>
        <time>2021-11-10T23:10:53.905Z</time>
      </trkpt>
      <trkpt lat="47.545581" lon="7.798713">
        <ele>306.789535</ele>
        <time>2021-11-10T23:10:54.943Z</time>
      </trkpt>
      <trkpt lat="47.545731" lon="7.798810">
        <ele>305.980662</ele>
        <time>2021-11-10T23:10:57.150Z</time>
      </trkpt>
      <trkpt lat="47.545807" lon="7.798846">
        <ele>305.586324</ele>
        <time>2021-11-10T23:10:58.257Z</time>
      </trkpt>
      <trkpt lat="47.546418" lon="7.798980">
        <ele>302.533748</ele>
        <time>2021-11-10T23:11:07.105Z</time>
      </trkpt>
      <trkpt lat="47.547540" lon="7.799538">
        <ele>301.081789</ele>
        <time>2021-11-10T23:11:26.828Z</time>
      </trkpt>
      <trkpt lat="47.547912" lon="7.799646">
        <ele>300.623725</ele>
        <time>2021-11-10T23:11:34.209Z</time>
      </trkpt>
      <trkpt lat="47.548459" lon="7.799691">
        <ele>300.305862</ele>
        <time>2021-11-10T23:11:45.147Z</time>
      </trkpt>
      <trkpt lat="47.548535" lon="7.799720">
        <ele>300.299301</ele>
        <time>2021-11-10T23:11:46.666Z</time>
      </trkpt>
      <trkpt lat="47.548514" lon="7.799795">
        <ele>300.294718</ele>
        <time>2021-11-10T23:11:47.730Z</time>
      </trkpt>
      <trkpt lat="47.548519" lon="7.799896">
        <ele>300.289003</ele>
        <time>2021-11-10T23:11:49.086Z</time>
      </trkpt>
      <trkpt lat="47.548545" lon="7.800404">
        <ele>300.260253</ele>
        <time>2021-11-10T23:11:55.877Z</time>
      </trkpt>
      <trkpt lat="47.548560" lon="7.800672">
        <ele>300.245077</ele>
        <time>2021-11-10T23:11:59.568Z</time>
      </trkpt>
      <trkpt lat="47.548569" lon="7.800838">
        <ele>300.235679</ele>
        <time>2021-11-10T23:12:01.813Z</time>
      </trkpt>
      <trkpt lat="47.548576" lon="7.800968">
        <ele>300.228319</ele>
        <time>2021-11-10T23:12:03.587Z</time>
      </trkpt>
      <trkpt lat="47.548596" lon="7.801213">
        <ele>300.214392</ele>
        <time>2021-11-10T23:12:06.968Z</time>
      </trkpt>
      <trkpt lat="47.548607" lon="7.801690">
        <ele>300.187458</ele>
        <time>2021-11-10T23:12:13.468Z</time>
      </trkpt>
      <trkpt lat="47.548626" lon="7.802129">
        <ele>300.125513</ele>
        <time>2021-11-10T23:12:19.387Z</time>
      </trkpt>
      <trkpt lat="47.548626" lon="7.802129">
        <ele>300.125513</ele>
        <time>2021-11-10T23:12:19.390Z</time>
      </trkpt>
      <trkpt lat="47.548626" lon="7.802129">
        <ele>300.125513</ele>
        <time>2021-11-10T23:12:19.399Z</time>
      </trkpt>
      <trkpt lat="47.548877" lon="7.802168">
        <ele>300.061907</ele>
        <time>2021-11-10T23:12:24.390Z</time>
      </trkpt>
      <trkpt lat="47.549410" lon="7.802226">
        <ele>299.927214</ele>
        <time>2021-11-10T23:12:34.804Z</time>
      </trkpt>
      <trkpt lat="47.549481" lon="7.802234">
        <ele>299.909269</ele>
        <time>2021-11-10T23:12:36.141Z</time>
      </trkpt>
      <trkpt lat="47.549879" lon="7.802247">
        <ele>299.808937</ele>
        <time>2021-11-10T23:12:43.608Z</time>
      </trkpt>
      <trkpt lat="47.550146" lon="7.802262">
        <ele>299.741597</ele>
        <time>2021-11-10T23:12:48.682Z</time>
      </trkpt>
      <trkpt lat="47.550134" lon="7.803051">
        <ele>299.600124</ele>
        <time>2021-11-10T23:12:58.906Z</time>
      </trkpt>
      <trkpt lat="47.550196" lon="7.803120">
        <ele>299.579409</ele>
        <time>2021-11-10T23:13:00.366Z</time>
      </trkpt>
      <trkpt lat="47.550981" lon="7.803132">
        <ele>299.369682</ele>
        <time>2021-11-10T23:13:15.012Z</time>
      </trkpt>
      <trkpt lat="47.551163" lon="7.803129">
        <ele>299.321057</ele>
        <time>2021-11-10T23:13:18.415Z</time>
      </trkpt>
      <trkpt lat="47.551598" lon="7.803160">
        <ele>299.353170</ele>
        <time>2021-11-10T23:13:27.007Z</time>
      </trkpt>
      <trkpt lat="47.551666" lon="7.803144">
        <ele>299.398988</ele>
        <time>2021-11-10T23:13:31.752Z</time>
      </trkpt>
      <trkpt lat="47.551732" lon="7.803125">
        <ele>299.443730</ele>
        <time>2021-11-10T23:13:36.418Z</time>
      </trkpt>
      <trkpt lat="47.551744" lon="7.803277">
        <ele>299.512464</ele>
        <time>2021-11-10T23:13:38.113Z</time>
      </trkpt>
      <trkpt lat="47.551751" lon="7.803369">
        <ele>299.554047</ele>
        <time>2021-11-10T23:13:39.187Z</time>
      </trkpt>
      <trkpt lat="47.551692" lon="7.803510">
        <ele>299.628558</ele>
        <time>2021-11-10T23:13:41.781Z</time>
      </trkpt>
      <trkpt lat="47.551741" lon="7.804294">
        <ele>299.982187</ele>
        <time>2021-11-10T23:13:54.799Z</time>
      </trkpt>
      <trkpt lat="47.551744" lon="7.804473">
        <ele>300.062607</ele>
        <time>2021-11-10T23:13:57.318Z</time>
      </trkpt>
      <trkpt lat="47.551731" lon="7.804667">
        <ele>300.150168</ele>
        <time>2021-11-10T23:14:01.298Z</time>
      </trkpt>
      <trkpt lat="47.551709" lon="7.805000">
        <ele>300.300445</ele>
        <time>2021-11-10T23:14:05.790Z</time>
      </trkpt>
      <trkpt lat="47.551681" lon="7.805477">
        <ele>300.475154</ele>
        <time>2021-11-10T23:14:13.527Z</time>
      </trkpt>
      <trkpt lat="47.551671" lon="7.806117">
        <ele>300.600073</ele>
        <time>2021-11-10T23:14:23.616Z</time>
      </trkpt>
      <trkpt lat="47.551651" lon="7.806246">
        <ele>300.625901</ele>
        <time>2021-11-10T23:14:26.519Z</time>
      </trkpt>
      <trkpt lat="47.551895" lon="7.806278">
        <ele>300.696722</ele>
        <time>2021-11-10T23:14:30.043Z</time>
      </trkpt>
      <trkpt lat="47.552015" lon="7.806307">
        <ele>300.731875</ele>
        <time>2021-11-10T23:14:32.914Z</time>
      </trkpt>
      <trkpt lat="47.552068" lon="7.806445">
        <ele>300.762858</ele>
        <time>2021-11-10T23:14:34.371Z</time>
      </trkpt>
      <trkpt lat="47.552398" lon="7.808880">
        <ele>300.374969</ele>
        <time>2021-11-10T23:14:56.514Z</time>
      </trkpt>
      <trkpt lat="47.552566" lon="7.810386">
        <ele>299.743083</ele>
        <time>2021-11-10T23:15:09.525Z</time>
      </trkpt>
      <trkpt lat="47.552711" lon="7.812955">
        <ele>298.598997</ele>
        <time>2021-11-10T23:15:32.134Z</time>
      </trkpt>
      <trkpt lat="47.552844" lon="7.816432">
        <ele>297.446321</ele>
        <time>2021-11-10T23:16:02.493Z</time>
      </trkpt>
      <trkpt lat="47.552925" lon="7.818716">
        <ele>297.531567</ele>
        <time>2021-11-10T23:16:26.153Z</time>
      </trkpt>
      <trkpt lat="47.552948" lon="7.819358">
        <ele>297.780828</ele>
        <time>2021-11-10T23:16:33.698Z</time>
      </trkpt>
      <trkpt lat="47.552896" lon="7.820699">
        <ele>298.301606</ele>
        <time>2021-11-10T23:16:49.910Z</time>
      </trkpt>
      <trkpt lat="47.552567" lon="7.824508">
        <ele>300.223758</ele>
        <time>2021-11-10T23:17:36.532Z</time>
      </trkpt>
      <trkpt lat="47.552491" lon="7.827227">
        <ele>301.788398</ele>
        <time>2021-11-10T23:18:08.271Z</time>
      </trkpt>
      <trkpt lat="47.552515" lon="7.828094">
        <ele>302.414854</ele>
        <time>2021-11-10T23:18:19.981Z</time>
      </trkpt>
      <trkpt lat="47.552477" lon="7.828294">
        <ele>302.564857</ele>
        <time>2021-11-10T23:18:22.599Z</time>
      </trkpt>
      <trkpt lat="47.552421" lon="7.828481">
        <ele>302.712555</ele>
        <time>2021-11-10T23:18:25.530Z</time>
      </trkpt>
      <trkpt lat="47.552404" lon="7.828582">
        <ele>302.787705</ele>
        <time>2021-11-10T23:18:27.214Z</time>
      </trkpt>
      <trkpt lat="47.552416" lon="7.828822">
        <ele>303.095636</ele>
        <time>2021-11-10T23:18:30.448Z</time>
      </trkpt>
      <trkpt lat="47.552554" lon="7.829266">
        <ele>303.816429</ele>
        <time>2021-11-10T23:18:37.800Z</time>
      </trkpt>
      <trkpt lat="47.552645" lon="7.830686">
        <ele>305.919719</ele>
        <time>2021-11-10T23:19:01.106Z</time>
      </trkpt>
      <trkpt lat="47.552690" lon="7.832598">
        <ele>308.856147</ele>
        <time>2021-11-10T23:19:32.974Z</time>
      </trkpt>
      <trkpt lat="47.552616" lon="7.832891">
        <ele>309.344351</ele>
        <time>2021-11-10T23:19:37.727Z</time>
      </trkpt>
      <trkpt lat="47.552556" lon="7.832977">
        <ele>309.537375</ele>
        <time>2021-11-10T23:19:40.456Z</time>
      </trkpt>
      <trkpt lat="47.552556" lon="7.832977">
        <ele>309.537375</ele>
        <time>2021-11-10T23:19:40.460Z</time>
      </trkpt>
      <trkpt lat="47.552508" lon="7.832936">
        <ele>309.665483</ele>
        <time>2021-11-10T23:19:41.906Z</time>
      </trkpt>
      <trkpt lat="47.552458" lon="7.832824">
        <ele>309.875041</ele>
        <time>2021-11-10T23:19:44.361Z</time>
      </trkpt>
      <trkpt lat="47.552368" lon="7.832305">
        <ele>310.711272</ele>
        <time>2021-11-10T23:19:54.935Z</time>
      </trkpt>
      <trkpt lat="47.552251" lon="7.831814">
        <ele>311.300830</ele>
        <time>2021-11-10T23:20:05.057Z</time>
      </trkpt>
      <trkpt lat="47.552065" lon="7.831350">
        <ele>311.831310</ele>
        <time>2021-11-10T23:20:15.318Z</time>
      </trkpt>
      <trkpt lat="47.551640" lon="7.830558">
        <ele>312.825908</ele>
        <time>2021-11-10T23:20:33.775Z</time>
      </trkpt>
      <trkpt lat="47.550675" lon="7.828955">
        <ele>313.143049</ele>
        <time>2021-11-10T23:21:05.470Z</time>
      </trkpt>
      <trkpt lat="47.550522" lon="7.828744">
        <ele>313.056329</ele>
        <time>2021-11-10T23:21:09.373Z</time>
      </trkpt>
      <trkpt lat="47.550183" lon="7.828277">
        <ele>312.864283</ele>
        <time>2021-11-10T23:21:17.019Z</time>
      </trkpt>
      <trkpt lat="47.549105" lon="7.827067">
        <ele>310.966957</ele>
        <time>2021-11-10T23:21:38.364Z</time>
      </trkpt>
      <trkpt lat="47.548679" lon="7.826710">
        <ele>310.211809</ele>
        <time>2021-11-10T23:21:46.552Z</time>
      </trkpt>
      <trkpt lat="47.548237" lon="7.826410">
        <ele>310.197445</ele>
        <time>2021-11-10T23:21:55.292Z</time>
      </trkpt>
      <trkpt lat="47.547666" lon="7.826091">
        <ele>310.497881</ele>
        <time>2021-11-10T23:22:07.814Z</time>
      </trkpt>
      <trkpt lat="47.547233" lon="7.825872">
        <ele>310.723135</ele>
        <time>2021-11-10T23:22:19.381Z</time>
      </trkpt>
      <trkpt lat="47.546693" lon="7.825618">
        <ele>311.312038</ele>
        <time>2021-11-10T23:22:34.756Z</time>
      </trkpt>
      <trkpt lat="47.546589" lon="7.825597">
        <ele>311.528684</ele>
        <time>2021-11-10T23:22:37.686Z</time>
      </trkpt>
      <trkpt lat="47.546589" lon="7.825597">
        <ele>311.528684</ele>
        <time>2021-11-10T23:22:37.750Z</time>
      </trkpt>
      <trkpt lat="47.546589" lon="7.825597">
        <ele>311.528684</ele>
        <time>2021-11-10T23:22:37.756Z</time>
      </trkpt>
      <trkpt lat="47.546574" lon="7.826239">
        <ele>312.423664</ele>
        <time>2021-11-10T23:22:50.046Z</time>
      </trkpt>
      <trkpt lat="47.546592" lon="7.826850">
        <ele>313.275729</ele>
        <time>2021-11-10T23:23:01.844Z</time>
      </trkpt>
      <trkpt lat="47.546721" lon="7.828140">
        <ele>315.103828</ele>
        <time>2021-11-10T23:23:28.136Z</time>
      </trkpt>
      <trkpt lat="47.546823" lon="7.829336">
        <ele>316.823077</ele>
        <time>2021-11-10T23:23:51.436Z</time>
      </trkpt>
      <trkpt lat="47.546946" lon="7.830852">
        <ele>318.929269</ele>
        <time>2021-11-10T23:24:20.680Z</time>
      </trkpt>
      <trkpt lat="47.547020" lon="7.831965">
        <ele>320.328830</ele>
        <time>2021-11-10T23:24:41.517Z</time>
      </trkpt>
      <trkpt lat="47.547190" lon="7.835066">
        <ele>324.122113</ele>
        <time>2021-11-10T23:25:38.608Z</time>
      </trkpt>
      <trkpt lat="47.547240" lon="7.836221">
        <ele>325.546333</ele>
        <time>2021-11-10T23:26:00.083Z</time>
      </trkpt>
      <trkpt lat="47.547276" lon="7.837287">
        <ele>326.907027</ele>
        <time>2021-11-10T23:26:20.193Z</time>
      </trkpt>
      <trkpt lat="47.547300" lon="7.838688">
        <ele>328.585169</ele>
        <time>2021-11-10T23:26:46.940Z</time>
      </trkpt>
      <trkpt lat="47.547332" lon="7.840572">
        <ele>330.231354</ele>
        <time>2021-11-10T23:27:19.628Z</time>
      </trkpt>
      <trkpt lat="47.547339" lon="7.841072">
        <ele>330.668195</ele>
        <time>2021-11-10T23:27:27.460Z</time>
      </trkpt>
      <trkpt lat="47.547362" lon="7.841665">
        <ele>330.742197</ele>
        <time>2021-11-10T23:27:36.285Z</time>
      </trkpt>
      <trkpt lat="47.547448" lon="7.842262">
        <ele>330.810666</ele>
        <time>2021-11-10T23:27:44.734Z</time>
      </trkpt>
      <trkpt lat="47.547549" lon="7.842268">
        <ele>330.827463</ele>
        <time>2021-11-10T23:27:46.660Z</time>
      </trkpt>
      <trkpt lat="47.547549" lon="7.842268">
        <ele>330.827463</ele>
        <time>2021-11-10T23:27:46.661Z</time>
      </trkpt>
      <trkpt lat="47.547549" lon="7.842268">
        <ele>330.827463</ele>
        <time>2021-11-10T23:27:46.675Z</time>
      </trkpt>
      <trkpt lat="47.547448" lon="7.842262">
        <ele>330.844260</ele>
        <time>2021-11-10T23:27:48.754Z</time>
      </trkpt>
      <trkpt lat="47.547354" lon="7.842839">
        <ele>330.910836</ele>
        <time>2021-11-10T23:27:56.468Z</time>
      </trkpt>
      <trkpt lat="47.547313" lon="7.843735">
        <ele>331.171453</ele>
        <time>2021-11-10T23:28:08.688Z</time>
      </trkpt>
      <trkpt lat="47.547295" lon="7.844722">
        <ele>331.773800</ele>
        <time>2021-11-10T23:28:23.616Z</time>
      </trkpt>
      <trkpt lat="47.547274" lon="7.845536">
        <ele>332.270749</ele>
        <time>2021-11-10T23:28:37.068Z</time>
      </trkpt>
      <trkpt lat="47.547124" lon="7.848795">
        <ele>336.214671</ele>
        <time>2021-11-10T23:29:39.222Z</time>
      </trkpt>
      <trkpt lat="47.547143" lon="7.849985">
        <ele>337.622755</ele>
        <time>2021-11-10T23:30:02.074Z</time>
      </trkpt>
      <trkpt lat="47.547141" lon="7.850355">
        <ele>338.060454</ele>
        <time>2021-11-10T23:30:09.174Z</time>
      </trkpt>
      <trkpt lat="47.546945" lon="7.851719">
        <ele>339.419933</ele>
        <time>2021-11-10T23:30:33.706Z</time>
      </trkpt>
      <trkpt lat="47.546582" lon="7.856413">
        <ele>340.664499</ele>
        <time>2021-11-10T23:31:42.018Z</time>
      </trkpt>
      <trkpt lat="47.546537" lon="7.857497">
        <ele>340.876985</ele>
        <time>2021-11-10T23:31:57.326Z</time>
      </trkpt>
      <trkpt lat="47.546487" lon="7.859119">
        <ele>341.204532</ele>
        <time>2021-11-10T23:32:20.774Z</time>
      </trkpt>
      <trkpt lat="47.546526" lon="7.861665">
        <ele>341.478063</ele>
        <time>2021-11-10T23:32:57.948Z</time>
      </trkpt>
      <trkpt lat="47.546592" lon="7.863006">
        <ele>340.589688</ele>
        <time>2021-11-10T23:33:14.415Z</time>
      </trkpt>
      <trkpt lat="47.546877" lon="7.864345">
        <ele>339.318876</ele>
        <time>2021-11-10T23:33:29.584Z</time>
      </trkpt>
      <trkpt lat="47.546885" lon="7.864500">
        <ele>339.178170</ele>
        <time>2021-11-10T23:33:31.264Z</time>
      </trkpt>
      <trkpt lat="47.546894" lon="7.864837">
        <ele>338.770283</ele>
        <time>2021-11-10T23:33:34.743Z</time>
      </trkpt>
      <trkpt lat="47.546889" lon="7.865225">
        <ele>338.259270</ele>
        <time>2021-11-10T23:33:38.864Z</time>
      </trkpt>
      <trkpt lat="47.546819" lon="7.865489">
        <ele>337.885773</ele>
        <time>2021-11-10T23:33:41.942Z</time>
      </trkpt>
      <trkpt lat="47.546510" lon="7.865766">
        <ele>337.181191</ele>
        <time>2021-11-10T23:33:47.636Z</time>
      </trkpt>
      <trkpt lat="47.546327" lon="7.865959">
        <ele>336.742962</ele>
        <time>2021-11-10T23:33:50.967Z</time>
      </trkpt>
      <trkpt lat="47.546096" lon="7.866147">
        <ele>336.228791</ele>
        <time>2021-11-10T23:33:55.034Z</time>
      </trkpt>
      <trkpt lat="47.545240" lon="7.866887">
        <ele>335.633341</ele>
        <time>2021-11-10T23:34:11.707Z</time>
      </trkpt>
      <trkpt lat="47.545160" lon="7.866985">
        <ele>335.640181</ele>
        <time>2021-11-10T23:34:13.663Z</time>
      </trkpt>
      <trkpt lat="47.545003" lon="7.867278">
        <ele>335.656822</ele>
        <time>2021-11-10T23:34:19.331Z</time>
      </trkpt>
      <trkpt lat="47.544568" lon="7.867693">
        <ele>335.690916</ele>
        <time>2021-11-10T23:34:32.122Z</time>
      </trkpt>
      <trkpt lat="47.544469" lon="7.867776">
        <ele>335.698413</ele>
        <time>2021-11-10T23:34:34.984Z</time>
      </trkpt>
      <trkpt lat="47.544410" lon="7.867825">
        <ele>335.702870</ele>
        <time>2021-11-10T23:34:37.072Z</time>
      </trkpt>
      <trkpt lat="47.544246" lon="7.867967">
        <ele>335.861411</ele>
        <time>2021-11-10T23:34:41.756Z</time>
      </trkpt>
      <trkpt lat="47.544214" lon="7.867988">
        <ele>335.910232</ele>
        <time>2021-11-10T23:34:42.604Z</time>
      </trkpt>
      <trkpt lat="47.543801" lon="7.868269">
        <ele>336.544194</ele>
        <time>2021-11-10T23:34:54.207Z</time>
      </trkpt>
      <trkpt lat="47.543657" lon="7.868359">
        <ele>336.762209</ele>
        <time>2021-11-10T23:34:58.556Z</time>
      </trkpt>
      <trkpt lat="47.543201" lon="7.868657">
        <ele>337.457441</ele>
        <time>2021-11-10T23:35:08.757Z</time>
      </trkpt>
      <trkpt lat="47.543105" lon="7.868711">
        <ele>337.600683</ele>
        <time>2021-11-10T23:35:11.322Z</time>
      </trkpt>
      <trkpt lat="47.543049" lon="7.868759">
        <ele>337.690933</ele>
        <time>2021-11-10T23:35:12.620Z</time>
      </trkpt>
      <trkpt lat="47.542722" lon="7.869201">
        <ele>338.217130</ele>
        <time>2021-11-10T23:35:21.990Z</time>
      </trkpt>
      <trkpt lat="47.542696" lon="7.869257">
        <ele>338.217130</ele>
        <time>2021-11-10T23:35:22.740Z</time>
      </trkpt>
      <trkpt lat="47.542657" lon="7.869354">
        <ele>338.217130</ele>
        <time>2021-11-10T23:35:24.143Z</time>
      </trkpt>
      <trkpt lat="47.542372" lon="7.869746">
        <ele>338.217130</ele>
        <time>2021-11-10T23:35:30.976Z</time>
      </trkpt>
      <trkpt lat="47.542329" lon="7.869820">
        <ele>338.217130</ele>
        <time>2021-11-10T23:35:32.188Z</time>
      </trkpt>
      <trkpt lat="47.542348" lon="7.869983">
        <ele>338.217130</ele>
        <time>2021-11-10T23:35:33.715Z</time>
      </trkpt>
      <trkpt lat="47.542317" lon="7.870012">
        <ele>338.217130</ele>
        <time>2021-11-10T23:35:34.311Z</time>
      </trkpt>
      <trkpt lat="47.542181" lon="7.870131">
        <ele>338.217130</ele>
        <time>2021-11-10T23:35:36.665Z</time>
      </trkpt>
      <trkpt lat="47.542118" lon="7.870134">
        <ele>338.217130</ele>
        <time>2021-11-10T23:35:37.697Z</time>
      </trkpt>
    </trkseg>
  </trk>
</gpx>